<?xml version="1.0" encoding="UTF-8" standalone="no" ?>
<gpx xmlns="http://www.topografix.com/GPX/1/1" xmlns:xsi="http://www.w3.org/2001/XMLSchema-instance" xsi:schemaLocation="http://www.topografix.com/GPX/1/1 http://www.topografix.com/GPX/1/1/gpx.xsd" version="1.1" creator="VisuGPX - https://www.visugpx.com">
  <metadata>
    <name>PIC DE LA COUME D'ENFER</name>
    <desc><![CDATA[belle rando au départ, du parking dit:( Pla de las Peyres, au dessus de l'étang de laparan dans la vallée d'Aston 09 Ariège) comporte des passages hors sentier, avec quelques Cairnes parsemés; pour randonneurs, et bon marcheurs avec le sans de l'orientation, bonne rando 

 ]]></desc>
  </metadata>
  <trk>
    <name><![CDATA[PIC DE LA COUME D'ENFER_1]]></name>
    <trkseg>
      <trkpt lat="42.64916" lon="1.7037">
        <ele>1689.286987</ele>
        <time>2018-08-12T05:21:49Z</time>
      </trkpt>
      <trkpt lat="42.64915" lon="1.70369">
        <ele>1694.272705</ele>
        <time>2018-08-12T05:21:50Z</time>
      </trkpt>
      <trkpt lat="42.64908" lon="1.70361">
        <ele>1707.376709</ele>
        <time>2018-08-12T05:22:16Z</time>
      </trkpt>
      <trkpt lat="42.64917" lon="1.70359">
        <ele>1706.224121</ele>
        <time>2018-08-12T05:22:26Z</time>
      </trkpt>
      <trkpt lat="42.64926" lon="1.70361">
        <ele>1706.724854</ele>
        <time>2018-08-12T05:22:34Z</time>
      </trkpt>
      <trkpt lat="42.64936" lon="1.70359">
        <ele>1706.604736</ele>
        <time>2018-08-12T05:22:41Z</time>
      </trkpt>
      <trkpt lat="42.64942" lon="1.7035">
        <ele>1704.63623</ele>
        <time>2018-08-12T05:22:48Z</time>
      </trkpt>
      <trkpt lat="42.64943" lon="1.70337">
        <ele>1701.199951</ele>
        <time>2018-08-12T05:22:56Z</time>
      </trkpt>
      <trkpt lat="42.64947" lon="1.70325">
        <ele>1699.199951</ele>
        <time>2018-08-12T05:23:09Z</time>
      </trkpt>
      <trkpt lat="42.64951" lon="1.70314">
        <ele>1699.199951</ele>
        <time>2018-08-12T05:23:17Z</time>
      </trkpt>
      <trkpt lat="42.64955" lon="1.70302">
        <ele>1699.300049</ele>
        <time>2018-08-12T05:23:26Z</time>
      </trkpt>
      <trkpt lat="42.64953" lon="1.70289">
        <ele>1699.5</ele>
        <time>2018-08-12T05:23:36Z</time>
      </trkpt>
      <trkpt lat="42.64946" lon="1.70281">
        <ele>1699.599976</ele>
        <time>2018-08-12T05:23:45Z</time>
      </trkpt>
      <trkpt lat="42.64937" lon="1.70277">
        <ele>1699.699951</ele>
        <time>2018-08-12T05:23:55Z</time>
      </trkpt>
      <trkpt lat="42.64929" lon="1.70269">
        <ele>1699.699951</ele>
        <time>2018-08-12T05:24:04Z</time>
      </trkpt>
      <trkpt lat="42.64922" lon="1.70258">
        <ele>1699.900024</ele>
        <time>2018-08-12T05:24:12Z</time>
      </trkpt>
      <trkpt lat="42.64915" lon="1.70248">
        <ele>1700.099976</ele>
        <time>2018-08-12T05:24:22Z</time>
      </trkpt>
      <trkpt lat="42.64907" lon="1.70242">
        <ele>1701.300049</ele>
        <time>2018-08-12T05:24:30Z</time>
      </trkpt>
      <trkpt lat="42.649" lon="1.70233">
        <ele>1702.800049</ele>
        <time>2018-08-12T05:24:39Z</time>
      </trkpt>
      <trkpt lat="42.64894" lon="1.70223">
        <ele>1704.400024</ele>
        <time>2018-08-12T05:24:48Z</time>
      </trkpt>
      <trkpt lat="42.64889" lon="1.70212">
        <ele>1706.199951</ele>
        <time>2018-08-12T05:24:59Z</time>
      </trkpt>
      <trkpt lat="42.64881" lon="1.70203">
        <ele>1707.199951</ele>
        <time>2018-08-12T05:25:06Z</time>
      </trkpt>
      <trkpt lat="42.64875" lon="1.70192">
        <ele>1708.400024</ele>
        <time>2018-08-12T05:25:15Z</time>
      </trkpt>
      <trkpt lat="42.64868" lon="1.70183">
        <ele>1708.900024</ele>
        <time>2018-08-12T05:25:22Z</time>
      </trkpt>
      <trkpt lat="42.64862" lon="1.70173">
        <ele>1709.300049</ele>
        <time>2018-08-12T05:25:29Z</time>
      </trkpt>
      <trkpt lat="42.6486" lon="1.7016">
        <ele>1710.699951</ele>
        <time>2018-08-12T05:25:37Z</time>
      </trkpt>
      <trkpt lat="42.64857" lon="1.70147">
        <ele>1713</ele>
        <time>2018-08-12T05:25:47Z</time>
      </trkpt>
      <trkpt lat="42.64854" lon="1.70135">
        <ele>1714.599976</ele>
        <time>2018-08-12T05:25:56Z</time>
      </trkpt>
      <trkpt lat="42.64853" lon="1.70122">
        <ele>1716.699951</ele>
        <time>2018-08-12T05:26:05Z</time>
      </trkpt>
      <trkpt lat="42.6485" lon="1.7011">
        <ele>1718.300049</ele>
        <time>2018-08-12T05:26:12Z</time>
      </trkpt>
      <trkpt lat="42.64845" lon="1.701">
        <ele>1718.900024</ele>
        <time>2018-08-12T05:26:22Z</time>
      </trkpt>
      <trkpt lat="42.64839" lon="1.70089">
        <ele>1719.099976</ele>
        <time>2018-08-12T05:26:32Z</time>
      </trkpt>
      <trkpt lat="42.64829" lon="1.70086">
        <ele>1717.5</ele>
        <time>2018-08-12T05:26:47Z</time>
      </trkpt>
      <trkpt lat="42.64823" lon="1.70076">
        <ele>1719.400024</ele>
        <time>2018-08-12T05:27:00Z</time>
      </trkpt>
      <trkpt lat="42.64814" lon="1.70071">
        <ele>1721.300049</ele>
        <time>2018-08-12T05:27:14Z</time>
      </trkpt>
      <trkpt lat="42.64805" lon="1.70072">
        <ele>1719.800049</ele>
        <time>2018-08-12T05:27:31Z</time>
      </trkpt>
      <trkpt lat="42.64796" lon="1.70071">
        <ele>1718.599976</ele>
        <time>2018-08-12T05:27:41Z</time>
      </trkpt>
      <trkpt lat="42.64786" lon="1.70069">
        <ele>1717.800049</ele>
        <time>2018-08-12T05:27:50Z</time>
      </trkpt>
      <trkpt lat="42.64777" lon="1.70065">
        <ele>1717.699951</ele>
        <time>2018-08-12T05:28:01Z</time>
      </trkpt>
      <trkpt lat="42.64768" lon="1.70064">
        <ele>1716.5</ele>
        <time>2018-08-12T05:28:10Z</time>
      </trkpt>
      <trkpt lat="42.64759" lon="1.70067">
        <ele>1714.300049</ele>
        <time>2018-08-12T05:28:20Z</time>
      </trkpt>
      <trkpt lat="42.6475" lon="1.70067">
        <ele>1712.699951</ele>
        <time>2018-08-12T05:28:27Z</time>
      </trkpt>
      <trkpt lat="42.64741" lon="1.70064">
        <ele>1712</ele>
        <time>2018-08-12T05:28:34Z</time>
      </trkpt>
      <trkpt lat="42.64732" lon="1.70059">
        <ele>1712.199951</ele>
        <time>2018-08-12T05:28:43Z</time>
      </trkpt>
      <trkpt lat="42.64722" lon="1.70057">
        <ele>1711.800049</ele>
        <time>2018-08-12T05:28:54Z</time>
      </trkpt>
      <trkpt lat="42.64712" lon="1.70055">
        <ele>1711.099976</ele>
        <time>2018-08-12T05:29:02Z</time>
      </trkpt>
      <trkpt lat="42.64703" lon="1.70052">
        <ele>1710.5</ele>
        <time>2018-08-12T05:29:11Z</time>
      </trkpt>
      <trkpt lat="42.64694" lon="1.70049">
        <ele>1710.300049</ele>
        <time>2018-08-12T05:29:18Z</time>
      </trkpt>
      <trkpt lat="42.64684" lon="1.70048">
        <ele>1709.699951</ele>
        <time>2018-08-12T05:29:28Z</time>
      </trkpt>
      <trkpt lat="42.64675" lon="1.70047">
        <ele>1708.599976</ele>
        <time>2018-08-12T05:29:38Z</time>
      </trkpt>
      <trkpt lat="42.64667" lon="1.70042">
        <ele>1708.5</ele>
        <time>2018-08-12T05:29:45Z</time>
      </trkpt>
      <trkpt lat="42.64658" lon="1.70036">
        <ele>1709.800049</ele>
        <time>2018-08-12T05:29:53Z</time>
      </trkpt>
      <trkpt lat="42.6465" lon="1.7003">
        <ele>1711.800049</ele>
        <time>2018-08-12T05:30:01Z</time>
      </trkpt>
      <trkpt lat="42.6464" lon="1.70031">
        <ele>1712.300049</ele>
        <time>2018-08-12T05:30:14Z</time>
      </trkpt>
      <trkpt lat="42.64631" lon="1.7003">
        <ele>1713.099976</ele>
        <time>2018-08-12T05:30:25Z</time>
      </trkpt>
      <trkpt lat="42.64628" lon="1.70042">
        <ele>1711.199951</ele>
        <time>2018-08-12T05:30:39Z</time>
      </trkpt>
      <trkpt lat="42.64622" lon="1.70052">
        <ele>1708.599976</ele>
        <time>2018-08-12T05:30:50Z</time>
      </trkpt>
      <trkpt lat="42.64613" lon="1.70051">
        <ele>1709</ele>
        <time>2018-08-12T05:30:59Z</time>
      </trkpt>
      <trkpt lat="42.64604" lon="1.70052">
        <ele>1709.199951</ele>
        <time>2018-08-12T05:31:07Z</time>
      </trkpt>
      <trkpt lat="42.64595" lon="1.70049">
        <ele>1710.199951</ele>
        <time>2018-08-12T05:31:20Z</time>
      </trkpt>
      <trkpt lat="42.64586" lon="1.7005">
        <ele>1710.699951</ele>
        <time>2018-08-12T05:31:29Z</time>
      </trkpt>
      <trkpt lat="42.64576" lon="1.7005">
        <ele>1711.5</ele>
        <time>2018-08-12T05:31:37Z</time>
      </trkpt>
      <trkpt lat="42.64567" lon="1.70053">
        <ele>1712.300049</ele>
        <time>2018-08-12T05:31:46Z</time>
      </trkpt>
      <trkpt lat="42.64557" lon="1.70054">
        <ele>1713.300049</ele>
        <time>2018-08-12T05:31:55Z</time>
      </trkpt>
      <trkpt lat="42.64547" lon="1.70055">
        <ele>1714.300049</ele>
        <time>2018-08-12T05:32:02Z</time>
      </trkpt>
      <trkpt lat="42.64537" lon="1.70055">
        <ele>1715.599976</ele>
        <time>2018-08-12T05:32:09Z</time>
      </trkpt>
      <trkpt lat="42.64528" lon="1.70051">
        <ele>1717.400024</ele>
        <time>2018-08-12T05:32:17Z</time>
      </trkpt>
      <trkpt lat="42.6452" lon="1.70046">
        <ele>1719.599976</ele>
        <time>2018-08-12T05:32:25Z</time>
      </trkpt>
      <trkpt lat="42.64511" lon="1.70042">
        <ele>1721.599976</ele>
        <time>2018-08-12T05:32:34Z</time>
      </trkpt>
      <trkpt lat="42.64501" lon="1.70041">
        <ele>1723.900024</ele>
        <time>2018-08-12T05:32:44Z</time>
      </trkpt>
      <trkpt lat="42.64491" lon="1.70039">
        <ele>1724.699951</ele>
        <time>2018-08-12T05:32:52Z</time>
      </trkpt>
      <trkpt lat="42.64482" lon="1.70036">
        <ele>1725.599976</ele>
        <time>2018-08-12T05:33:03Z</time>
      </trkpt>
      <trkpt lat="42.64473" lon="1.70031">
        <ele>1726.800049</ele>
        <time>2018-08-12T05:33:13Z</time>
      </trkpt>
      <trkpt lat="42.64465" lon="1.70024">
        <ele>1728.5</ele>
        <time>2018-08-12T05:33:23Z</time>
      </trkpt>
      <trkpt lat="42.64456" lon="1.70023">
        <ele>1729.5</ele>
        <time>2018-08-12T05:33:37Z</time>
      </trkpt>
      <trkpt lat="42.64447" lon="1.70018">
        <ele>1730.300049</ele>
        <time>2018-08-12T05:33:46Z</time>
      </trkpt>
      <trkpt lat="42.64437" lon="1.70014">
        <ele>1731.699951</ele>
        <time>2018-08-12T05:33:57Z</time>
      </trkpt>
      <trkpt lat="42.64429" lon="1.70008">
        <ele>1732.699951</ele>
        <time>2018-08-12T05:34:04Z</time>
      </trkpt>
      <trkpt lat="42.64421" lon="1.70003">
        <ele>1734</ele>
        <time>2018-08-12T05:34:12Z</time>
      </trkpt>
      <trkpt lat="42.64412" lon="1.69997">
        <ele>1735.5</ele>
        <time>2018-08-12T05:34:23Z</time>
      </trkpt>
      <trkpt lat="42.64403" lon="1.69993">
        <ele>1735.800049</ele>
        <time>2018-08-12T05:34:34Z</time>
      </trkpt>
      <trkpt lat="42.64395" lon="1.69987">
        <ele>1736.900024</ele>
        <time>2018-08-12T05:34:45Z</time>
      </trkpt>
      <trkpt lat="42.64388" lon="1.69978">
        <ele>1738.900024</ele>
        <time>2018-08-12T05:34:55Z</time>
      </trkpt>
      <trkpt lat="42.64379" lon="1.69973">
        <ele>1740.599976</ele>
        <time>2018-08-12T05:35:09Z</time>
      </trkpt>
      <trkpt lat="42.6437" lon="1.69973">
        <ele>1740.199951</ele>
        <time>2018-08-12T05:35:20Z</time>
      </trkpt>
      <trkpt lat="42.64361" lon="1.6997">
        <ele>1740.300049</ele>
        <time>2018-08-12T05:35:31Z</time>
      </trkpt>
      <trkpt lat="42.64352" lon="1.69965">
        <ele>1741.099976</ele>
        <time>2018-08-12T05:35:40Z</time>
      </trkpt>
      <trkpt lat="42.64342" lon="1.69964">
        <ele>1741.099976</ele>
        <time>2018-08-12T05:35:48Z</time>
      </trkpt>
      <trkpt lat="42.64334" lon="1.69958">
        <ele>1742.199951</ele>
        <time>2018-08-12T05:35:58Z</time>
      </trkpt>
      <trkpt lat="42.64325" lon="1.69955">
        <ele>1743.099976</ele>
        <time>2018-08-12T05:36:08Z</time>
      </trkpt>
      <trkpt lat="42.64316" lon="1.69953">
        <ele>1742.5</ele>
        <time>2018-08-12T05:36:18Z</time>
      </trkpt>
      <trkpt lat="42.64308" lon="1.69946">
        <ele>1743.599976</ele>
        <time>2018-08-12T05:36:27Z</time>
      </trkpt>
      <trkpt lat="42.64299" lon="1.69941">
        <ele>1744.300049</ele>
        <time>2018-08-12T05:36:37Z</time>
      </trkpt>
      <trkpt lat="42.64291" lon="1.69936">
        <ele>1744.5</ele>
        <time>2018-08-12T05:36:46Z</time>
      </trkpt>
      <trkpt lat="42.64282" lon="1.69931">
        <ele>1745.099976</ele>
        <time>2018-08-12T05:36:56Z</time>
      </trkpt>
      <trkpt lat="42.64274" lon="1.69923">
        <ele>1746</ele>
        <time>2018-08-12T05:37:08Z</time>
      </trkpt>
      <trkpt lat="42.64264" lon="1.69917">
        <ele>1746.300049</ele>
        <time>2018-08-12T05:37:21Z</time>
      </trkpt>
      <trkpt lat="42.64255" lon="1.69914">
        <ele>1746.5</ele>
        <time>2018-08-12T05:37:32Z</time>
      </trkpt>
      <trkpt lat="42.64247" lon="1.69908">
        <ele>1749.300049</ele>
        <time>2018-08-12T05:37:44Z</time>
      </trkpt>
      <trkpt lat="42.64238" lon="1.69905">
        <ele>1750.300049</ele>
        <time>2018-08-12T05:37:56Z</time>
      </trkpt>
      <trkpt lat="42.64231" lon="1.69896">
        <ele>1753.699951</ele>
        <time>2018-08-12T05:38:06Z</time>
      </trkpt>
      <trkpt lat="42.64224" lon="1.69888">
        <ele>1758.099976</ele>
        <time>2018-08-12T05:38:19Z</time>
      </trkpt>
      <trkpt lat="42.64214" lon="1.69884">
        <ele>1759.699951</ele>
        <time>2018-08-12T05:38:29Z</time>
      </trkpt>
      <trkpt lat="42.64201" lon="1.69881">
        <ele>1762.400024</ele>
        <time>2018-08-12T05:41:12Z</time>
      </trkpt>
      <trkpt lat="42.64195" lon="1.6987">
        <ele>1764.400024</ele>
        <time>2018-08-12T05:41:21Z</time>
      </trkpt>
      <trkpt lat="42.6419" lon="1.6986">
        <ele>1768.699951</ele>
        <time>2018-08-12T05:41:28Z</time>
      </trkpt>
      <trkpt lat="42.64184" lon="1.69851">
        <ele>1773.199951</ele>
        <time>2018-08-12T05:41:41Z</time>
      </trkpt>
      <trkpt lat="42.64175" lon="1.69845">
        <ele>1775.300049</ele>
        <time>2018-08-12T05:41:52Z</time>
      </trkpt>
      <trkpt lat="42.64167" lon="1.69839">
        <ele>1777.199951</ele>
        <time>2018-08-12T05:42:04Z</time>
      </trkpt>
      <trkpt lat="42.6416" lon="1.69831">
        <ele>1779.199951</ele>
        <time>2018-08-12T05:42:16Z</time>
      </trkpt>
      <trkpt lat="42.64152" lon="1.69822">
        <ele>1782.900024</ele>
        <time>2018-08-12T05:42:32Z</time>
      </trkpt>
      <trkpt lat="42.64145" lon="1.69814">
        <ele>1785.300049</ele>
        <time>2018-08-12T05:42:44Z</time>
      </trkpt>
      <trkpt lat="42.64136" lon="1.69806">
        <ele>1787.599976</ele>
        <time>2018-08-12T05:42:54Z</time>
      </trkpt>
      <trkpt lat="42.64128" lon="1.69801">
        <ele>1788.900024</ele>
        <time>2018-08-12T05:43:04Z</time>
      </trkpt>
      <trkpt lat="42.6412" lon="1.69795">
        <ele>1790.699951</ele>
        <time>2018-08-12T05:43:16Z</time>
      </trkpt>
      <trkpt lat="42.64112" lon="1.69788">
        <ele>1793</ele>
        <time>2018-08-12T05:43:28Z</time>
      </trkpt>
      <trkpt lat="42.64105" lon="1.69779">
        <ele>1796</ele>
        <time>2018-08-12T05:43:40Z</time>
      </trkpt>
      <trkpt lat="42.64098" lon="1.69772">
        <ele>1798.199951</ele>
        <time>2018-08-12T05:43:51Z</time>
      </trkpt>
      <trkpt lat="42.64094" lon="1.6976">
        <ele>1803</ele>
        <time>2018-08-12T05:44:03Z</time>
      </trkpt>
      <trkpt lat="42.6409" lon="1.69749">
        <ele>1807.699951</ele>
        <time>2018-08-12T05:44:17Z</time>
      </trkpt>
      <trkpt lat="42.64086" lon="1.69737">
        <ele>1810.900024</ele>
        <time>2018-08-12T05:44:32Z</time>
      </trkpt>
      <trkpt lat="42.6408" lon="1.69727">
        <ele>1812.5</ele>
        <time>2018-08-12T05:44:45Z</time>
      </trkpt>
      <trkpt lat="42.64074" lon="1.69718">
        <ele>1813.699951</ele>
        <time>2018-08-12T05:44:59Z</time>
      </trkpt>
      <trkpt lat="42.64068" lon="1.69708">
        <ele>1814.599976</ele>
        <time>2018-08-12T05:45:14Z</time>
      </trkpt>
      <trkpt lat="42.64066" lon="1.69696">
        <ele>1817.099976</ele>
        <time>2018-08-12T05:45:27Z</time>
      </trkpt>
      <trkpt lat="42.64062" lon="1.69683">
        <ele>1819.800049</ele>
        <time>2018-08-12T05:45:41Z</time>
      </trkpt>
      <trkpt lat="42.64055" lon="1.69674">
        <ele>1820.599976</ele>
        <time>2018-08-12T05:45:52Z</time>
      </trkpt>
      <trkpt lat="42.64052" lon="1.69663">
        <ele>1822.699951</ele>
        <time>2018-08-12T05:46:05Z</time>
      </trkpt>
      <trkpt lat="42.64048" lon="1.6965">
        <ele>1826.5</ele>
        <time>2018-08-12T05:46:17Z</time>
      </trkpt>
      <trkpt lat="42.64044" lon="1.69639">
        <ele>1829.699951</ele>
        <time>2018-08-12T05:46:26Z</time>
      </trkpt>
      <trkpt lat="42.6404" lon="1.69627">
        <ele>1833.699951</ele>
        <time>2018-08-12T05:46:41Z</time>
      </trkpt>
      <trkpt lat="42.64038" lon="1.69614">
        <ele>1837</ele>
        <time>2018-08-12T05:46:51Z</time>
      </trkpt>
      <trkpt lat="42.64033" lon="1.69603">
        <ele>1840.599976</ele>
        <time>2018-08-12T05:47:03Z</time>
      </trkpt>
      <trkpt lat="42.64026" lon="1.69595">
        <ele>1841.900024</ele>
        <time>2018-08-12T05:47:15Z</time>
      </trkpt>
      <trkpt lat="42.64019" lon="1.69587">
        <ele>1842.400024</ele>
        <time>2018-08-12T05:47:24Z</time>
      </trkpt>
      <trkpt lat="42.64014" lon="1.69576">
        <ele>1844.300049</ele>
        <time>2018-08-12T05:47:36Z</time>
      </trkpt>
      <trkpt lat="42.64013" lon="1.69564">
        <ele>1848.199951</ele>
        <time>2018-08-12T05:47:52Z</time>
      </trkpt>
      <trkpt lat="42.64008" lon="1.69553">
        <ele>1850.900024</ele>
        <time>2018-08-12T05:48:06Z</time>
      </trkpt>
      <trkpt lat="42.64004" lon="1.69542">
        <ele>1853.599976</ele>
        <time>2018-08-12T05:48:19Z</time>
      </trkpt>
      <trkpt lat="42.64001" lon="1.6953">
        <ele>1856.699951</ele>
        <time>2018-08-12T05:48:32Z</time>
      </trkpt>
      <trkpt lat="42.63999" lon="1.69517">
        <ele>1860.699951</ele>
        <time>2018-08-12T05:48:47Z</time>
      </trkpt>
      <trkpt lat="42.63996" lon="1.69505">
        <ele>1864</ele>
        <time>2018-08-12T05:48:59Z</time>
      </trkpt>
      <trkpt lat="42.63987" lon="1.695">
        <ele>1863.5</ele>
        <time>2018-08-12T05:49:12Z</time>
      </trkpt>
      <trkpt lat="42.6398" lon="1.69492">
        <ele>1862.099976</ele>
        <time>2018-08-12T05:49:21Z</time>
      </trkpt>
      <trkpt lat="42.63973" lon="1.69483">
        <ele>1861.699951</ele>
        <time>2018-08-12T05:49:33Z</time>
      </trkpt>
      <trkpt lat="42.63965" lon="1.69477">
        <ele>1860.400024</ele>
        <time>2018-08-12T05:49:42Z</time>
      </trkpt>
      <trkpt lat="42.63958" lon="1.69468">
        <ele>1859.699951</ele>
        <time>2018-08-12T05:49:52Z</time>
      </trkpt>
      <trkpt lat="42.63951" lon="1.69459">
        <ele>1858.699951</ele>
        <time>2018-08-12T05:49:59Z</time>
      </trkpt>
      <trkpt lat="42.63947" lon="1.69448">
        <ele>1859.800049</ele>
        <time>2018-08-12T05:50:09Z</time>
      </trkpt>
      <trkpt lat="42.63942" lon="1.69437">
        <ele>1860.699951</ele>
        <time>2018-08-12T05:50:19Z</time>
      </trkpt>
      <trkpt lat="42.63941" lon="1.69424">
        <ele>1863.199951</ele>
        <time>2018-08-12T05:50:31Z</time>
      </trkpt>
      <trkpt lat="42.63939" lon="1.69412">
        <ele>1865.300049</ele>
        <time>2018-08-12T05:50:40Z</time>
      </trkpt>
      <trkpt lat="42.63935" lon="1.694">
        <ele>1866.5</ele>
        <time>2018-08-12T05:50:52Z</time>
      </trkpt>
      <trkpt lat="42.63931" lon="1.69389">
        <ele>1866.900024</ele>
        <time>2018-08-12T05:51:03Z</time>
      </trkpt>
      <trkpt lat="42.63926" lon="1.69378">
        <ele>1866.900024</ele>
        <time>2018-08-12T05:51:14Z</time>
      </trkpt>
      <trkpt lat="42.63919" lon="1.69369">
        <ele>1866</ele>
        <time>2018-08-12T05:51:24Z</time>
      </trkpt>
      <trkpt lat="42.63916" lon="1.69357">
        <ele>1865.699951</ele>
        <time>2018-08-12T05:51:36Z</time>
      </trkpt>
      <trkpt lat="42.63912" lon="1.69345">
        <ele>1866.5</ele>
        <time>2018-08-12T05:51:46Z</time>
      </trkpt>
      <trkpt lat="42.63912" lon="1.69332">
        <ele>1868.699951</ele>
        <time>2018-08-12T05:51:58Z</time>
      </trkpt>
      <trkpt lat="42.63909" lon="1.6932">
        <ele>1872</ele>
        <time>2018-08-12T05:52:09Z</time>
      </trkpt>
      <trkpt lat="42.63908" lon="1.69307">
        <ele>1875.900024</ele>
        <time>2018-08-12T05:52:18Z</time>
      </trkpt>
      <trkpt lat="42.63902" lon="1.69296">
        <ele>1878.400024</ele>
        <time>2018-08-12T05:52:30Z</time>
      </trkpt>
      <trkpt lat="42.63896" lon="1.69287">
        <ele>1879.599976</ele>
        <time>2018-08-12T05:52:39Z</time>
      </trkpt>
      <trkpt lat="42.63889" lon="1.69278">
        <ele>1880.5</ele>
        <time>2018-08-12T05:52:47Z</time>
      </trkpt>
      <trkpt lat="42.63883" lon="1.69269">
        <ele>1881.400024</ele>
        <time>2018-08-12T05:52:55Z</time>
      </trkpt>
      <trkpt lat="42.63878" lon="1.69258">
        <ele>1883</ele>
        <time>2018-08-12T05:53:06Z</time>
      </trkpt>
      <trkpt lat="42.63873" lon="1.69247">
        <ele>1884.699951</ele>
        <time>2018-08-12T05:53:19Z</time>
      </trkpt>
      <trkpt lat="42.6387" lon="1.69235">
        <ele>1886.5</ele>
        <time>2018-08-12T05:53:29Z</time>
      </trkpt>
      <trkpt lat="42.63868" lon="1.69222">
        <ele>1889.199951</ele>
        <time>2018-08-12T05:53:40Z</time>
      </trkpt>
      <trkpt lat="42.63866" lon="1.6921">
        <ele>1891.800049</ele>
        <time>2018-08-12T05:53:51Z</time>
      </trkpt>
      <trkpt lat="42.6386" lon="1.69201">
        <ele>1892.800049</ele>
        <time>2018-08-12T05:54:03Z</time>
      </trkpt>
      <trkpt lat="42.63854" lon="1.69191">
        <ele>1892.599976</ele>
        <time>2018-08-12T05:54:12Z</time>
      </trkpt>
      <trkpt lat="42.63851" lon="1.69179">
        <ele>1894.300049</ele>
        <time>2018-08-12T05:54:23Z</time>
      </trkpt>
      <trkpt lat="42.63845" lon="1.69169">
        <ele>1895.199951</ele>
        <time>2018-08-12T05:54:34Z</time>
      </trkpt>
      <trkpt lat="42.63842" lon="1.69157">
        <ele>1896.099976</ele>
        <time>2018-08-12T05:54:44Z</time>
      </trkpt>
      <trkpt lat="42.63833" lon="1.69152">
        <ele>1894.400024</ele>
        <time>2018-08-12T05:54:55Z</time>
      </trkpt>
      <trkpt lat="42.63825" lon="1.69146">
        <ele>1891.900024</ele>
        <time>2018-08-12T05:55:08Z</time>
      </trkpt>
      <trkpt lat="42.63819" lon="1.69137">
        <ele>1891.900024</ele>
        <time>2018-08-12T05:55:18Z</time>
      </trkpt>
      <trkpt lat="42.63814" lon="1.69126">
        <ele>1892.199951</ele>
        <time>2018-08-12T05:55:31Z</time>
      </trkpt>
      <trkpt lat="42.63809" lon="1.69116">
        <ele>1893.099976</ele>
        <time>2018-08-12T05:55:40Z</time>
      </trkpt>
      <trkpt lat="42.63806" lon="1.69104">
        <ele>1894.199951</ele>
        <time>2018-08-12T05:55:51Z</time>
      </trkpt>
      <trkpt lat="42.63799" lon="1.69095">
        <ele>1893.699951</ele>
        <time>2018-08-12T05:56:01Z</time>
      </trkpt>
      <trkpt lat="42.63792" lon="1.69086">
        <ele>1893</ele>
        <time>2018-08-12T05:56:12Z</time>
      </trkpt>
      <trkpt lat="42.63784" lon="1.69079">
        <ele>1891.300049</ele>
        <time>2018-08-12T05:56:23Z</time>
      </trkpt>
      <trkpt lat="42.63776" lon="1.69072">
        <ele>1889.400024</ele>
        <time>2018-08-12T05:56:34Z</time>
      </trkpt>
      <trkpt lat="42.63773" lon="1.69059">
        <ele>1889.300049</ele>
        <time>2018-08-12T05:57:06Z</time>
      </trkpt>
      <trkpt lat="42.63773" lon="1.69047">
        <ele>1890.900024</ele>
        <time>2018-08-12T06:01:07Z</time>
      </trkpt>
      <trkpt lat="42.63771" lon="1.69034">
        <ele>1892</ele>
        <time>2018-08-12T06:01:15Z</time>
      </trkpt>
      <trkpt lat="42.63775" lon="1.69022">
        <ele>1895.400024</ele>
        <time>2018-08-12T06:01:26Z</time>
      </trkpt>
      <trkpt lat="42.63775" lon="1.6901">
        <ele>1897.099976</ele>
        <time>2018-08-12T06:01:36Z</time>
      </trkpt>
      <trkpt lat="42.63773" lon="1.68997">
        <ele>1899</ele>
        <time>2018-08-12T06:01:45Z</time>
      </trkpt>
      <trkpt lat="42.63773" lon="1.68985">
        <ele>1901.599976</ele>
        <time>2018-08-12T06:01:55Z</time>
      </trkpt>
      <trkpt lat="42.63776" lon="1.68972">
        <ele>1905.900024</ele>
        <time>2018-08-12T06:02:08Z</time>
      </trkpt>
      <trkpt lat="42.63773" lon="1.6896">
        <ele>1908</ele>
        <time>2018-08-12T06:02:19Z</time>
      </trkpt>
      <trkpt lat="42.63771" lon="1.68948">
        <ele>1909.599976</ele>
        <time>2018-08-12T06:02:29Z</time>
      </trkpt>
      <trkpt lat="42.63771" lon="1.68935">
        <ele>1912.699951</ele>
        <time>2018-08-12T06:02:40Z</time>
      </trkpt>
      <trkpt lat="42.63769" lon="1.68921">
        <ele>1914.699951</ele>
        <time>2018-08-12T06:02:51Z</time>
      </trkpt>
      <trkpt lat="42.63774" lon="1.68911">
        <ele>1919</ele>
        <time>2018-08-12T06:03:02Z</time>
      </trkpt>
      <trkpt lat="42.63777" lon="1.68899">
        <ele>1924.5</ele>
        <time>2018-08-12T06:03:13Z</time>
      </trkpt>
      <trkpt lat="42.63775" lon="1.68887">
        <ele>1926.599976</ele>
        <time>2018-08-12T06:03:25Z</time>
      </trkpt>
      <trkpt lat="42.63774" lon="1.68874">
        <ele>1928.900024</ele>
        <time>2018-08-12T06:03:33Z</time>
      </trkpt>
      <trkpt lat="42.63774" lon="1.68861">
        <ele>1932.099976</ele>
        <time>2018-08-12T06:03:43Z</time>
      </trkpt>
      <trkpt lat="42.63779" lon="1.68851">
        <ele>1937</ele>
        <time>2018-08-12T06:03:53Z</time>
      </trkpt>
      <trkpt lat="42.63778" lon="1.68837">
        <ele>1940.599976</ele>
        <time>2018-08-12T06:04:03Z</time>
      </trkpt>
      <trkpt lat="42.63776" lon="1.68825">
        <ele>1942.699951</ele>
        <time>2018-08-12T06:04:13Z</time>
      </trkpt>
      <trkpt lat="42.63776" lon="1.68813">
        <ele>1945.400024</ele>
        <time>2018-08-12T06:04:26Z</time>
      </trkpt>
      <trkpt lat="42.6377" lon="1.68802">
        <ele>1945.800049</ele>
        <time>2018-08-12T06:04:38Z</time>
      </trkpt>
      <trkpt lat="42.63765" lon="1.68792">
        <ele>1945.5</ele>
        <time>2018-08-12T06:04:47Z</time>
      </trkpt>
      <trkpt lat="42.63762" lon="1.6878">
        <ele>1945.900024</ele>
        <time>2018-08-12T06:04:56Z</time>
      </trkpt>
      <trkpt lat="42.6376" lon="1.68767">
        <ele>1947.599976</ele>
        <time>2018-08-12T06:05:07Z</time>
      </trkpt>
      <trkpt lat="42.63758" lon="1.68755">
        <ele>1949.099976</ele>
        <time>2018-08-12T06:05:15Z</time>
      </trkpt>
      <trkpt lat="42.63758" lon="1.68743">
        <ele>1951.300049</ele>
        <time>2018-08-12T06:05:23Z</time>
      </trkpt>
      <trkpt lat="42.63753" lon="1.68732">
        <ele>1951.699951</ele>
        <time>2018-08-12T06:05:31Z</time>
      </trkpt>
      <trkpt lat="42.63751" lon="1.6872">
        <ele>1951.400024</ele>
        <time>2018-08-12T06:05:40Z</time>
      </trkpt>
      <trkpt lat="42.63746" lon="1.68709">
        <ele>1951.400024</ele>
        <time>2018-08-12T06:05:49Z</time>
      </trkpt>
      <trkpt lat="42.63743" lon="1.68696">
        <ele>1951.300049</ele>
        <time>2018-08-12T06:06:00Z</time>
      </trkpt>
      <trkpt lat="42.63742" lon="1.68683">
        <ele>1952.400024</ele>
        <time>2018-08-12T06:06:11Z</time>
      </trkpt>
      <trkpt lat="42.63741" lon="1.68671">
        <ele>1954.099976</ele>
        <time>2018-08-12T06:06:21Z</time>
      </trkpt>
      <trkpt lat="42.63742" lon="1.68657">
        <ele>1957.699951</ele>
        <time>2018-08-12T06:06:31Z</time>
      </trkpt>
      <trkpt lat="42.63742" lon="1.68644">
        <ele>1961.800049</ele>
        <time>2018-08-12T06:06:41Z</time>
      </trkpt>
      <trkpt lat="42.63742" lon="1.68631">
        <ele>1965.800049</ele>
        <time>2018-08-12T06:06:52Z</time>
      </trkpt>
      <trkpt lat="42.63741" lon="1.68618">
        <ele>1968.800049</ele>
        <time>2018-08-12T06:07:03Z</time>
      </trkpt>
      <trkpt lat="42.63737" lon="1.68606">
        <ele>1970.199951</ele>
        <time>2018-08-12T06:07:14Z</time>
      </trkpt>
      <trkpt lat="42.63735" lon="1.68594">
        <ele>1971.900024</ele>
        <time>2018-08-12T06:07:23Z</time>
      </trkpt>
      <trkpt lat="42.63733" lon="1.68579">
        <ele>1974.300049</ele>
        <time>2018-08-12T06:07:31Z</time>
      </trkpt>
      <trkpt lat="42.63732" lon="1.68567">
        <ele>1975.199951</ele>
        <time>2018-08-12T06:07:41Z</time>
      </trkpt>
      <trkpt lat="42.63732" lon="1.68554">
        <ele>1976.400024</ele>
        <time>2018-08-12T06:07:51Z</time>
      </trkpt>
      <trkpt lat="42.6373" lon="1.68542">
        <ele>1976.900024</ele>
        <time>2018-08-12T06:07:59Z</time>
      </trkpt>
      <trkpt lat="42.6373" lon="1.68529">
        <ele>1977.199951</ele>
        <time>2018-08-12T06:08:08Z</time>
      </trkpt>
      <trkpt lat="42.63728" lon="1.68517">
        <ele>1978.099976</ele>
        <time>2018-08-12T06:08:17Z</time>
      </trkpt>
      <trkpt lat="42.63728" lon="1.68504">
        <ele>1979.300049</ele>
        <time>2018-08-12T06:08:27Z</time>
      </trkpt>
      <trkpt lat="42.63726" lon="1.68492">
        <ele>1979.699951</ele>
        <time>2018-08-12T06:08:36Z</time>
      </trkpt>
      <trkpt lat="42.63724" lon="1.68479">
        <ele>1980.300049</ele>
        <time>2018-08-12T06:08:43Z</time>
      </trkpt>
      <trkpt lat="42.63721" lon="1.68467">
        <ele>1980.800049</ele>
        <time>2018-08-12T06:08:52Z</time>
      </trkpt>
      <trkpt lat="42.6372" lon="1.68453">
        <ele>1982.199951</ele>
        <time>2018-08-12T06:09:03Z</time>
      </trkpt>
      <trkpt lat="42.63723" lon="1.68441">
        <ele>1985.300049</ele>
        <time>2018-08-12T06:09:14Z</time>
      </trkpt>
      <trkpt lat="42.6372" lon="1.68429">
        <ele>1986.599976</ele>
        <time>2018-08-12T06:09:23Z</time>
      </trkpt>
      <trkpt lat="42.63718" lon="1.68417">
        <ele>1987.5</ele>
        <time>2018-08-12T06:09:36Z</time>
      </trkpt>
      <trkpt lat="42.63716" lon="1.68403">
        <ele>1987.099976</ele>
        <time>2018-08-12T06:09:44Z</time>
      </trkpt>
      <trkpt lat="42.63714" lon="1.68391">
        <ele>1987.5</ele>
        <time>2018-08-12T06:09:54Z</time>
      </trkpt>
      <trkpt lat="42.63714" lon="1.68377">
        <ele>1988.699951</ele>
        <time>2018-08-12T06:10:05Z</time>
      </trkpt>
      <trkpt lat="42.63714" lon="1.68364">
        <ele>1990.5</ele>
        <time>2018-08-12T06:10:14Z</time>
      </trkpt>
      <trkpt lat="42.63712" lon="1.68351">
        <ele>1990.900024</ele>
        <time>2018-08-12T06:10:28Z</time>
      </trkpt>
      <trkpt lat="42.63707" lon="1.6834">
        <ele>1988.800049</ele>
        <time>2018-08-12T06:10:39Z</time>
      </trkpt>
      <trkpt lat="42.63706" lon="1.68327">
        <ele>1988.900024</ele>
        <time>2018-08-12T06:10:49Z</time>
      </trkpt>
      <trkpt lat="42.63702" lon="1.68315">
        <ele>1989.400024</ele>
        <time>2018-08-12T06:10:59Z</time>
      </trkpt>
      <trkpt lat="42.63702" lon="1.68302">
        <ele>1990.099976</ele>
        <time>2018-08-12T06:11:07Z</time>
      </trkpt>
      <trkpt lat="42.63698" lon="1.6829">
        <ele>1990.900024</ele>
        <time>2018-08-12T06:11:21Z</time>
      </trkpt>
      <trkpt lat="42.63695" lon="1.68278">
        <ele>1990.599976</ele>
        <time>2018-08-12T06:11:29Z</time>
      </trkpt>
      <trkpt lat="42.63693" lon="1.68265">
        <ele>1991.599976</ele>
        <time>2018-08-12T06:11:37Z</time>
      </trkpt>
      <trkpt lat="42.63693" lon="1.68252">
        <ele>1993.300049</ele>
        <time>2018-08-12T06:11:49Z</time>
      </trkpt>
      <trkpt lat="42.63692" lon="1.6824">
        <ele>1995.599976</ele>
        <time>2018-08-12T06:11:57Z</time>
      </trkpt>
      <trkpt lat="42.63689" lon="1.68228">
        <ele>1996.599976</ele>
        <time>2018-08-12T06:12:06Z</time>
      </trkpt>
      <trkpt lat="42.63691" lon="1.68215">
        <ele>2000.199951</ele>
        <time>2018-08-12T06:12:17Z</time>
      </trkpt>
      <trkpt lat="42.63687" lon="1.68204">
        <ele>2001.099976</ele>
        <time>2018-08-12T06:12:30Z</time>
      </trkpt>
      <trkpt lat="42.63685" lon="1.68191">
        <ele>2002.300049</ele>
        <time>2018-08-12T06:12:42Z</time>
      </trkpt>
      <trkpt lat="42.63681" lon="1.6818">
        <ele>2002.400024</ele>
        <time>2018-08-12T06:12:50Z</time>
      </trkpt>
      <trkpt lat="42.63681" lon="1.68167">
        <ele>2004.300049</ele>
        <time>2018-08-12T06:13:00Z</time>
      </trkpt>
      <trkpt lat="42.6368" lon="1.68155">
        <ele>2007.099976</ele>
        <time>2018-08-12T06:13:11Z</time>
      </trkpt>
      <trkpt lat="42.6369" lon="1.68154">
        <ele>2010</ele>
        <time>2018-08-12T06:15:59Z</time>
      </trkpt>
      <trkpt lat="42.63681" lon="1.68154">
        <ele>2012.099976</ele>
        <time>2018-08-12T06:17:11Z</time>
      </trkpt>
      <trkpt lat="42.63677" lon="1.6814">
        <ele>2009.199951</ele>
        <time>2018-08-12T06:17:19Z</time>
      </trkpt>
      <trkpt lat="42.63673" lon="1.68128">
        <ele>2009.900024</ele>
        <time>2018-08-12T06:17:30Z</time>
      </trkpt>
      <trkpt lat="42.6367" lon="1.68116">
        <ele>2010.699951</ele>
        <time>2018-08-12T06:17:42Z</time>
      </trkpt>
      <trkpt lat="42.63664" lon="1.68105">
        <ele>2009.300049</ele>
        <time>2018-08-12T06:17:53Z</time>
      </trkpt>
      <trkpt lat="42.63663" lon="1.68093">
        <ele>2010.699951</ele>
        <time>2018-08-12T06:18:05Z</time>
      </trkpt>
      <trkpt lat="42.63661" lon="1.6808">
        <ele>2012.300049</ele>
        <time>2018-08-12T06:18:19Z</time>
      </trkpt>
      <trkpt lat="42.63658" lon="1.68068">
        <ele>2012.900024</ele>
        <time>2018-08-12T06:18:30Z</time>
      </trkpt>
      <trkpt lat="42.63654" lon="1.68055">
        <ele>2013.300049</ele>
        <time>2018-08-12T06:18:39Z</time>
      </trkpt>
      <trkpt lat="42.63651" lon="1.68044">
        <ele>2013.300049</ele>
        <time>2018-08-12T06:18:48Z</time>
      </trkpt>
      <trkpt lat="42.63649" lon="1.6803">
        <ele>2014.099976</ele>
        <time>2018-08-12T06:18:58Z</time>
      </trkpt>
      <trkpt lat="42.63652" lon="1.68018">
        <ele>2018.099976</ele>
        <time>2018-08-12T06:19:26Z</time>
      </trkpt>
      <trkpt lat="42.6365" lon="1.68006">
        <ele>2020.099976</ele>
        <time>2018-08-12T06:19:38Z</time>
      </trkpt>
      <trkpt lat="42.63645" lon="1.67995">
        <ele>2019.5</ele>
        <time>2018-08-12T06:19:51Z</time>
      </trkpt>
      <trkpt lat="42.63638" lon="1.67987">
        <ele>2016.599976</ele>
        <time>2018-08-12T06:20:05Z</time>
      </trkpt>
      <trkpt lat="42.63636" lon="1.67974">
        <ele>2017.300049</ele>
        <time>2018-08-12T06:20:15Z</time>
      </trkpt>
      <trkpt lat="42.63637" lon="1.67961">
        <ele>2020.199951</ele>
        <time>2018-08-12T06:20:26Z</time>
      </trkpt>
      <trkpt lat="42.63635" lon="1.67949">
        <ele>2022.800049</ele>
        <time>2018-08-12T06:20:37Z</time>
      </trkpt>
      <trkpt lat="42.63633" lon="1.67937">
        <ele>2023.800049</ele>
        <time>2018-08-12T06:20:46Z</time>
      </trkpt>
      <trkpt lat="42.63635" lon="1.67925">
        <ele>2027.5</ele>
        <time>2018-08-12T06:20:56Z</time>
      </trkpt>
      <trkpt lat="42.63633" lon="1.67912">
        <ele>2029.900024</ele>
        <time>2018-08-12T06:21:07Z</time>
      </trkpt>
      <trkpt lat="42.63629" lon="1.679">
        <ele>2029.800049</ele>
        <time>2018-08-12T06:21:18Z</time>
      </trkpt>
      <trkpt lat="42.63624" lon="1.67889">
        <ele>2029</ele>
        <time>2018-08-12T06:21:29Z</time>
      </trkpt>
      <trkpt lat="42.63617" lon="1.6788">
        <ele>2026.900024</ele>
        <time>2018-08-12T06:21:40Z</time>
      </trkpt>
      <trkpt lat="42.63616" lon="1.67867">
        <ele>2026.300049</ele>
        <time>2018-08-12T06:21:54Z</time>
      </trkpt>
      <trkpt lat="42.63615" lon="1.67855">
        <ele>2028.199951</ele>
        <time>2018-08-12T06:22:06Z</time>
      </trkpt>
      <trkpt lat="42.63613" lon="1.67843">
        <ele>2029.199951</ele>
        <time>2018-08-12T06:22:17Z</time>
      </trkpt>
      <trkpt lat="42.63611" lon="1.6783">
        <ele>2029.599976</ele>
        <time>2018-08-12T06:22:29Z</time>
      </trkpt>
      <trkpt lat="42.63607" lon="1.67819">
        <ele>2029.599976</ele>
        <time>2018-08-12T06:22:40Z</time>
      </trkpt>
      <trkpt lat="42.63602" lon="1.67808">
        <ele>2029.800049</ele>
        <time>2018-08-12T06:22:51Z</time>
      </trkpt>
      <trkpt lat="42.636" lon="1.67795">
        <ele>2029.599976</ele>
        <time>2018-08-12T06:23:03Z</time>
      </trkpt>
      <trkpt lat="42.63597" lon="1.67783">
        <ele>2031</ele>
        <time>2018-08-12T06:23:12Z</time>
      </trkpt>
      <trkpt lat="42.63598" lon="1.6777">
        <ele>2032.900024</ele>
        <time>2018-08-12T06:23:22Z</time>
      </trkpt>
      <trkpt lat="42.63597" lon="1.67757">
        <ele>2035.199951</ele>
        <time>2018-08-12T06:23:34Z</time>
      </trkpt>
      <trkpt lat="42.63593" lon="1.67745">
        <ele>2035.400024</ele>
        <time>2018-08-12T06:23:45Z</time>
      </trkpt>
      <trkpt lat="42.63591" lon="1.67732">
        <ele>2036.5</ele>
        <time>2018-08-12T06:23:55Z</time>
      </trkpt>
      <trkpt lat="42.63589" lon="1.6772">
        <ele>2036.900024</ele>
        <time>2018-08-12T06:24:06Z</time>
      </trkpt>
      <trkpt lat="42.63586" lon="1.67708">
        <ele>2037.699951</ele>
        <time>2018-08-12T06:24:16Z</time>
      </trkpt>
      <trkpt lat="42.63583" lon="1.67697">
        <ele>2038.300049</ele>
        <time>2018-08-12T06:24:26Z</time>
      </trkpt>
      <trkpt lat="42.63581" lon="1.67684">
        <ele>2039.199951</ele>
        <time>2018-08-12T06:24:38Z</time>
      </trkpt>
      <trkpt lat="42.63579" lon="1.67672">
        <ele>2040.800049</ele>
        <time>2018-08-12T06:24:49Z</time>
      </trkpt>
      <trkpt lat="42.63578" lon="1.67659">
        <ele>2042.599976</ele>
        <time>2018-08-12T06:24:58Z</time>
      </trkpt>
      <trkpt lat="42.63574" lon="1.67648">
        <ele>2043.5</ele>
        <time>2018-08-12T06:25:08Z</time>
      </trkpt>
      <trkpt lat="42.63574" lon="1.67635">
        <ele>2045.900024</ele>
        <time>2018-08-12T06:25:21Z</time>
      </trkpt>
      <trkpt lat="42.63568" lon="1.67626">
        <ele>2045.199951</ele>
        <time>2018-08-12T06:25:32Z</time>
      </trkpt>
      <trkpt lat="42.63567" lon="1.67613">
        <ele>2046.400024</ele>
        <time>2018-08-12T06:25:41Z</time>
      </trkpt>
      <trkpt lat="42.63563" lon="1.676">
        <ele>2047.300049</ele>
        <time>2018-08-12T06:25:53Z</time>
      </trkpt>
      <trkpt lat="42.63561" lon="1.67588">
        <ele>2048.899902</ele>
        <time>2018-08-12T06:26:05Z</time>
      </trkpt>
      <trkpt lat="42.63559" lon="1.67575">
        <ele>2049.800049</ele>
        <time>2018-08-12T06:26:15Z</time>
      </trkpt>
      <trkpt lat="42.6356" lon="1.67562">
        <ele>2053</ele>
        <time>2018-08-12T06:26:23Z</time>
      </trkpt>
      <trkpt lat="42.63556" lon="1.67549">
        <ele>2055.699951</ele>
        <time>2018-08-12T06:26:35Z</time>
      </trkpt>
      <trkpt lat="42.63559" lon="1.67538">
        <ele>2059</ele>
        <time>2018-08-12T06:26:46Z</time>
      </trkpt>
      <trkpt lat="42.63563" lon="1.67526">
        <ele>2063.5</ele>
        <time>2018-08-12T06:26:56Z</time>
      </trkpt>
      <trkpt lat="42.63564" lon="1.67513">
        <ele>2068</ele>
        <time>2018-08-12T06:27:11Z</time>
      </trkpt>
      <trkpt lat="42.63563" lon="1.675">
        <ele>2071</ele>
        <time>2018-08-12T06:27:26Z</time>
      </trkpt>
      <trkpt lat="42.6356" lon="1.67488">
        <ele>2073.199951</ele>
        <time>2018-08-12T06:27:36Z</time>
      </trkpt>
      <trkpt lat="42.63558" lon="1.67476">
        <ele>2075.199951</ele>
        <time>2018-08-12T06:27:49Z</time>
      </trkpt>
      <trkpt lat="42.63552" lon="1.67465">
        <ele>2076.399902</ele>
        <time>2018-08-12T06:27:59Z</time>
      </trkpt>
      <trkpt lat="42.63546" lon="1.67455">
        <ele>2075.800049</ele>
        <time>2018-08-12T06:28:10Z</time>
      </trkpt>
      <trkpt lat="42.63541" lon="1.67445">
        <ele>2075.300049</ele>
        <time>2018-08-12T06:28:18Z</time>
      </trkpt>
      <trkpt lat="42.63539" lon="1.67433">
        <ele>2076.5</ele>
        <time>2018-08-12T06:28:27Z</time>
      </trkpt>
      <trkpt lat="42.63538" lon="1.67421">
        <ele>2078.699951</ele>
        <time>2018-08-12T06:28:36Z</time>
      </trkpt>
      <trkpt lat="42.63532" lon="1.6741">
        <ele>2079.300049</ele>
        <time>2018-08-12T06:28:46Z</time>
      </trkpt>
      <trkpt lat="42.63528" lon="1.67398">
        <ele>2079.399902</ele>
        <time>2018-08-12T06:28:56Z</time>
      </trkpt>
      <trkpt lat="42.63524" lon="1.67387">
        <ele>2079.399902</ele>
        <time>2018-08-12T06:29:06Z</time>
      </trkpt>
      <trkpt lat="42.63521" lon="1.67376">
        <ele>2079.899902</ele>
        <time>2018-08-12T06:29:16Z</time>
      </trkpt>
      <trkpt lat="42.63521" lon="1.67363">
        <ele>2082.899902</ele>
        <time>2018-08-12T06:29:25Z</time>
      </trkpt>
      <trkpt lat="42.63518" lon="1.67351">
        <ele>2085.199951</ele>
        <time>2018-08-12T06:29:37Z</time>
      </trkpt>
      <trkpt lat="42.6351" lon="1.67343">
        <ele>2082.100098</ele>
        <time>2018-08-12T06:29:47Z</time>
      </trkpt>
      <trkpt lat="42.63504" lon="1.67334">
        <ele>2078.699951</ele>
        <time>2018-08-12T06:29:58Z</time>
      </trkpt>
      <trkpt lat="42.63502" lon="1.67321">
        <ele>2080.300049</ele>
        <time>2018-08-12T06:30:08Z</time>
      </trkpt>
      <trkpt lat="42.63499" lon="1.67308">
        <ele>2081.5</ele>
        <time>2018-08-12T06:30:18Z</time>
      </trkpt>
      <trkpt lat="42.63499" lon="1.67296">
        <ele>2085</ele>
        <time>2018-08-12T06:30:36Z</time>
      </trkpt>
      <trkpt lat="42.63493" lon="1.67286">
        <ele>2084.399902</ele>
        <time>2018-08-12T06:30:45Z</time>
      </trkpt>
      <trkpt lat="42.63487" lon="1.67275">
        <ele>2083.600098</ele>
        <time>2018-08-12T06:30:53Z</time>
      </trkpt>
      <trkpt lat="42.6349" lon="1.67263">
        <ele>2086.699951</ele>
        <time>2018-08-12T06:31:03Z</time>
      </trkpt>
      <trkpt lat="42.63485" lon="1.67252">
        <ele>2087.600098</ele>
        <time>2018-08-12T06:31:13Z</time>
      </trkpt>
      <trkpt lat="42.6348" lon="1.67241">
        <ele>2087.199951</ele>
        <time>2018-08-12T06:31:24Z</time>
      </trkpt>
      <trkpt lat="42.63477" lon="1.6723">
        <ele>2086.699951</ele>
        <time>2018-08-12T06:31:34Z</time>
      </trkpt>
      <trkpt lat="42.63476" lon="1.67217">
        <ele>2087.899902</ele>
        <time>2018-08-12T06:31:44Z</time>
      </trkpt>
      <trkpt lat="42.63474" lon="1.67204">
        <ele>2088.800049</ele>
        <time>2018-08-12T06:31:51Z</time>
      </trkpt>
      <trkpt lat="42.63468" lon="1.67193">
        <ele>2089.100098</ele>
        <time>2018-08-12T06:32:03Z</time>
      </trkpt>
      <trkpt lat="42.63463" lon="1.67181">
        <ele>2088</ele>
        <time>2018-08-12T06:32:13Z</time>
      </trkpt>
      <trkpt lat="42.63459" lon="1.6717">
        <ele>2086.899902</ele>
        <time>2018-08-12T06:32:21Z</time>
      </trkpt>
      <trkpt lat="42.63452" lon="1.6716">
        <ele>2085.399902</ele>
        <time>2018-08-12T06:32:29Z</time>
      </trkpt>
      <trkpt lat="42.63447" lon="1.6715">
        <ele>2083.800049</ele>
        <time>2018-08-12T06:32:38Z</time>
      </trkpt>
      <trkpt lat="42.63441" lon="1.67141">
        <ele>2081.300049</ele>
        <time>2018-08-12T06:32:45Z</time>
      </trkpt>
      <trkpt lat="42.63436" lon="1.67129">
        <ele>2079.399902</ele>
        <time>2018-08-12T06:32:54Z</time>
      </trkpt>
      <trkpt lat="42.63433" lon="1.67116">
        <ele>2078.800049</ele>
        <time>2018-08-12T06:33:03Z</time>
      </trkpt>
      <trkpt lat="42.6343" lon="1.67105">
        <ele>2078.800049</ele>
        <time>2018-08-12T06:33:11Z</time>
      </trkpt>
      <trkpt lat="42.63425" lon="1.67093">
        <ele>2078</ele>
        <time>2018-08-12T06:33:20Z</time>
      </trkpt>
      <trkpt lat="42.63421" lon="1.6708">
        <ele>2076.800049</ele>
        <time>2018-08-12T06:33:29Z</time>
      </trkpt>
      <trkpt lat="42.63422" lon="1.67067">
        <ele>2077.800049</ele>
        <time>2018-08-12T06:33:37Z</time>
      </trkpt>
      <trkpt lat="42.6342" lon="1.67053">
        <ele>2079.699951</ele>
        <time>2018-08-12T06:33:44Z</time>
      </trkpt>
      <trkpt lat="42.63415" lon="1.67041">
        <ele>2078.899902</ele>
        <time>2018-08-12T06:33:51Z</time>
      </trkpt>
      <trkpt lat="42.63413" lon="1.67028">
        <ele>2079.300049</ele>
        <time>2018-08-12T06:33:59Z</time>
      </trkpt>
      <trkpt lat="42.63416" lon="1.67017">
        <ele>2081.600098</ele>
        <time>2018-08-12T06:34:12Z</time>
      </trkpt>
      <trkpt lat="42.63413" lon="1.67004">
        <ele>2083.199951</ele>
        <time>2018-08-12T06:34:27Z</time>
      </trkpt>
      <trkpt lat="42.63407" lon="1.66993">
        <ele>2083.600098</ele>
        <time>2018-08-12T06:35:55Z</time>
      </trkpt>
      <trkpt lat="42.63399" lon="1.66987">
        <ele>2082.5</ele>
        <time>2018-08-12T06:36:06Z</time>
      </trkpt>
      <trkpt lat="42.63392" lon="1.66977">
        <ele>2081.699951</ele>
        <time>2018-08-12T06:36:16Z</time>
      </trkpt>
      <trkpt lat="42.63384" lon="1.6697">
        <ele>2080.699951</ele>
        <time>2018-08-12T06:36:25Z</time>
      </trkpt>
      <trkpt lat="42.63377" lon="1.66961">
        <ele>2079.5</ele>
        <time>2018-08-12T06:36:34Z</time>
      </trkpt>
      <trkpt lat="42.63371" lon="1.6695">
        <ele>2078.899902</ele>
        <time>2018-08-12T06:36:45Z</time>
      </trkpt>
      <trkpt lat="42.63365" lon="1.66942">
        <ele>2078.399902</ele>
        <time>2018-08-12T06:36:54Z</time>
      </trkpt>
      <trkpt lat="42.63359" lon="1.66932">
        <ele>2077.399902</ele>
        <time>2018-08-12T06:37:04Z</time>
      </trkpt>
      <trkpt lat="42.63357" lon="1.6692">
        <ele>2078.199951</ele>
        <time>2018-08-12T06:37:13Z</time>
      </trkpt>
      <trkpt lat="42.63354" lon="1.66907">
        <ele>2079.300049</ele>
        <time>2018-08-12T06:37:22Z</time>
      </trkpt>
      <trkpt lat="42.63351" lon="1.66894">
        <ele>2080.699951</ele>
        <time>2018-08-12T06:37:31Z</time>
      </trkpt>
      <trkpt lat="42.63345" lon="1.66884">
        <ele>2081.600098</ele>
        <time>2018-08-12T06:38:11Z</time>
      </trkpt>
      <trkpt lat="42.63338" lon="1.66876">
        <ele>2079.699951</ele>
        <time>2018-08-12T06:38:24Z</time>
      </trkpt>
      <trkpt lat="42.63336" lon="1.66863">
        <ele>2080.300049</ele>
        <time>2018-08-12T06:38:46Z</time>
      </trkpt>
      <trkpt lat="42.63328" lon="1.66855">
        <ele>2079.300049</ele>
        <time>2018-08-12T06:39:19Z</time>
      </trkpt>
      <trkpt lat="42.63321" lon="1.66847">
        <ele>2079.300049</ele>
        <time>2018-08-12T06:39:29Z</time>
      </trkpt>
      <trkpt lat="42.63312" lon="1.66842">
        <ele>2078.399902</ele>
        <time>2018-08-12T06:39:39Z</time>
      </trkpt>
      <trkpt lat="42.63303" lon="1.66838">
        <ele>2076.100098</ele>
        <time>2018-08-12T06:39:46Z</time>
      </trkpt>
      <trkpt lat="42.63295" lon="1.66831">
        <ele>2074.5</ele>
        <time>2018-08-12T06:39:51Z</time>
      </trkpt>
      <trkpt lat="42.63287" lon="1.66824">
        <ele>2073.100098</ele>
        <time>2018-08-12T06:40:06Z</time>
      </trkpt>
      <trkpt lat="42.63277" lon="1.66823">
        <ele>2070.399902</ele>
        <time>2018-08-12T06:40:15Z</time>
      </trkpt>
      <trkpt lat="42.63271" lon="1.66813">
        <ele>2068.600098</ele>
        <time>2018-08-12T06:40:41Z</time>
      </trkpt>
      <trkpt lat="42.63261" lon="1.6681">
        <ele>2066.899902</ele>
        <time>2018-08-12T06:40:50Z</time>
      </trkpt>
      <trkpt lat="42.63251" lon="1.66809">
        <ele>2063.5</ele>
        <time>2018-08-12T06:40:58Z</time>
      </trkpt>
      <trkpt lat="42.63243" lon="1.66803">
        <ele>2063.100098</ele>
        <time>2018-08-12T06:41:06Z</time>
      </trkpt>
      <trkpt lat="42.63237" lon="1.66793">
        <ele>2065.100098</ele>
        <time>2018-08-12T06:41:24Z</time>
      </trkpt>
      <trkpt lat="42.63229" lon="1.66786">
        <ele>2066.899902</ele>
        <time>2018-08-12T06:41:33Z</time>
      </trkpt>
      <trkpt lat="42.63221" lon="1.6678">
        <ele>2068.5</ele>
        <time>2018-08-12T06:41:47Z</time>
      </trkpt>
      <trkpt lat="42.63213" lon="1.66772">
        <ele>2070</ele>
        <time>2018-08-12T06:42:01Z</time>
      </trkpt>
      <trkpt lat="42.63205" lon="1.66767">
        <ele>2071.199951</ele>
        <time>2018-08-12T06:42:27Z</time>
      </trkpt>
      <trkpt lat="42.63196" lon="1.66766">
        <ele>2072.300049</ele>
        <time>2018-08-12T06:42:46Z</time>
      </trkpt>
      <trkpt lat="42.63186" lon="1.66767">
        <ele>2073.300049</ele>
        <time>2018-08-12T06:42:58Z</time>
      </trkpt>
      <trkpt lat="42.63178" lon="1.66763">
        <ele>2074.199951</ele>
        <time>2018-08-12T06:43:17Z</time>
      </trkpt>
      <trkpt lat="42.63168" lon="1.6676">
        <ele>2075.100098</ele>
        <time>2018-08-12T06:43:28Z</time>
      </trkpt>
      <trkpt lat="42.63163" lon="1.66749">
        <ele>2076.199951</ele>
        <time>2018-08-12T06:43:42Z</time>
      </trkpt>
      <trkpt lat="42.63156" lon="1.6674">
        <ele>2078.199951</ele>
        <time>2018-08-12T06:44:20Z</time>
      </trkpt>
      <trkpt lat="42.63147" lon="1.66733">
        <ele>2080.899902</ele>
        <time>2018-08-12T06:44:32Z</time>
      </trkpt>
      <trkpt lat="42.63138" lon="1.66731">
        <ele>2083.699951</ele>
        <time>2018-08-12T06:44:41Z</time>
      </trkpt>
      <trkpt lat="42.63129" lon="1.66727">
        <ele>2086.699951</ele>
        <time>2018-08-12T06:44:52Z</time>
      </trkpt>
      <trkpt lat="42.6312" lon="1.66725">
        <ele>2089.699951</ele>
        <time>2018-08-12T06:45:07Z</time>
      </trkpt>
      <trkpt lat="42.63113" lon="1.66718">
        <ele>2091.699951</ele>
        <time>2018-08-12T06:45:29Z</time>
      </trkpt>
      <trkpt lat="42.63103" lon="1.66719">
        <ele>2094.399902</ele>
        <time>2018-08-12T06:45:44Z</time>
      </trkpt>
      <trkpt lat="42.63094" lon="1.6672">
        <ele>2096.800049</ele>
        <time>2018-08-12T06:45:56Z</time>
      </trkpt>
      <trkpt lat="42.63086" lon="1.66724">
        <ele>2099.800049</ele>
        <time>2018-08-12T06:46:37Z</time>
      </trkpt>
      <trkpt lat="42.63079" lon="1.66714">
        <ele>2101.5</ele>
        <time>2018-08-12T06:46:53Z</time>
      </trkpt>
      <trkpt lat="42.6307" lon="1.66716">
        <ele>2106</ele>
        <time>2018-08-12T06:47:16Z</time>
      </trkpt>
      <trkpt lat="42.63063" lon="1.66708">
        <ele>2108.5</ele>
        <time>2018-08-12T06:47:30Z</time>
      </trkpt>
      <trkpt lat="42.63072" lon="1.66722">
        <ele>2108.5</ele>
        <time>2018-08-12T06:48:08Z</time>
      </trkpt>
      <trkpt lat="42.63081" lon="1.66719">
        <ele>2102.899902</ele>
        <time>2018-08-12T06:48:19Z</time>
      </trkpt>
      <trkpt lat="42.63069" lon="1.66713">
        <ele>2104.899902</ele>
        <time>2018-08-12T06:48:30Z</time>
      </trkpt>
      <trkpt lat="42.63058" lon="1.66711">
        <ele>2109.699951</ele>
        <time>2018-08-12T06:48:42Z</time>
      </trkpt>
      <trkpt lat="42.63049" lon="1.66704">
        <ele>2113.199951</ele>
        <time>2018-08-12T06:49:17Z</time>
      </trkpt>
      <trkpt lat="42.6304" lon="1.66701">
        <ele>2117.800049</ele>
        <time>2018-08-12T06:49:28Z</time>
      </trkpt>
      <trkpt lat="42.63027" lon="1.667">
        <ele>2122.199951</ele>
        <time>2018-08-12T06:49:59Z</time>
      </trkpt>
      <trkpt lat="42.63018" lon="1.66697">
        <ele>2126.699951</ele>
        <time>2018-08-12T06:50:08Z</time>
      </trkpt>
      <trkpt lat="42.63011" lon="1.66705">
        <ele>2130.600098</ele>
        <time>2018-08-12T06:56:13Z</time>
      </trkpt>
      <trkpt lat="42.63002" lon="1.66705">
        <ele>2134.600098</ele>
        <time>2018-08-12T06:56:23Z</time>
      </trkpt>
      <trkpt lat="42.62992" lon="1.66699">
        <ele>2137.800049</ele>
        <time>2018-08-12T06:56:31Z</time>
      </trkpt>
      <trkpt lat="42.62983" lon="1.66698">
        <ele>2142.300049</ele>
        <time>2018-08-12T06:56:40Z</time>
      </trkpt>
      <trkpt lat="42.62974" lon="1.667">
        <ele>2146.899902</ele>
        <time>2018-08-12T06:56:49Z</time>
      </trkpt>
      <trkpt lat="42.62965" lon="1.66704">
        <ele>2151.800049</ele>
        <time>2018-08-12T06:56:59Z</time>
      </trkpt>
      <trkpt lat="42.62957" lon="1.66709">
        <ele>2156.399902</ele>
        <time>2018-08-12T06:57:13Z</time>
      </trkpt>
      <trkpt lat="42.62951" lon="1.66719">
        <ele>2160.600098</ele>
        <time>2018-08-12T06:57:25Z</time>
      </trkpt>
      <trkpt lat="42.62945" lon="1.66729">
        <ele>2164</ele>
        <time>2018-08-12T06:57:36Z</time>
      </trkpt>
      <trkpt lat="42.62946" lon="1.66741">
        <ele>2165.600098</ele>
        <time>2018-08-12T06:57:48Z</time>
      </trkpt>
      <trkpt lat="42.62942" lon="1.66752">
        <ele>2168</ele>
        <time>2018-08-12T06:58:01Z</time>
      </trkpt>
      <trkpt lat="42.62935" lon="1.66761">
        <ele>2171.600098</ele>
        <time>2018-08-12T06:58:13Z</time>
      </trkpt>
      <trkpt lat="42.62929" lon="1.66771">
        <ele>2175.800049</ele>
        <time>2018-08-12T06:58:27Z</time>
      </trkpt>
      <trkpt lat="42.62929" lon="1.66785">
        <ele>2176.899902</ele>
        <time>2018-08-12T06:58:39Z</time>
      </trkpt>
      <trkpt lat="42.62924" lon="1.66796">
        <ele>2180.199951</ele>
        <time>2018-08-12T06:58:49Z</time>
      </trkpt>
      <trkpt lat="42.62917" lon="1.66804">
        <ele>2184.199951</ele>
        <time>2018-08-12T06:58:59Z</time>
      </trkpt>
      <trkpt lat="42.62908" lon="1.66803">
        <ele>2186.600098</ele>
        <time>2018-08-12T06:59:17Z</time>
      </trkpt>
      <trkpt lat="42.62899" lon="1.66807">
        <ele>2188</ele>
        <time>2018-08-12T06:59:30Z</time>
      </trkpt>
      <trkpt lat="42.62893" lon="1.66817">
        <ele>2189.5</ele>
        <time>2018-08-12T06:59:36Z</time>
      </trkpt>
      <trkpt lat="42.62898" lon="1.66828">
        <ele>2190.800049</ele>
        <time>2018-08-12T07:01:25Z</time>
      </trkpt>
      <trkpt lat="42.62907" lon="1.66824">
        <ele>2189.600098</ele>
        <time>2018-08-12T07:01:42Z</time>
      </trkpt>
      <trkpt lat="42.62904" lon="1.66836">
        <ele>2190.300049</ele>
        <time>2018-08-12T07:01:52Z</time>
      </trkpt>
      <trkpt lat="42.62897" lon="1.66844">
        <ele>2191.399902</ele>
        <time>2018-08-12T07:02:02Z</time>
      </trkpt>
      <trkpt lat="42.6289" lon="1.66853">
        <ele>2192.699951</ele>
        <time>2018-08-12T07:03:30Z</time>
      </trkpt>
      <trkpt lat="42.629" lon="1.66845">
        <ele>2191.5</ele>
        <time>2018-08-12T07:06:18Z</time>
      </trkpt>
      <trkpt lat="42.62892" lon="1.66855">
        <ele>2192.100098</ele>
        <time>2018-08-12T07:06:46Z</time>
      </trkpt>
      <trkpt lat="42.62883" lon="1.66862">
        <ele>2194.199951</ele>
        <time>2018-08-12T07:08:32Z</time>
      </trkpt>
      <trkpt lat="42.62878" lon="1.66871">
        <ele>2195.699951</ele>
        <time>2018-08-12T07:08:40Z</time>
      </trkpt>
      <trkpt lat="42.62869" lon="1.66877">
        <ele>2198.199951</ele>
        <time>2018-08-12T07:08:53Z</time>
      </trkpt>
      <trkpt lat="42.62867" lon="1.66889">
        <ele>2200</ele>
        <time>2018-08-12T07:09:07Z</time>
      </trkpt>
      <trkpt lat="42.62859" lon="1.66897">
        <ele>2202</ele>
        <time>2018-08-12T07:09:17Z</time>
      </trkpt>
      <trkpt lat="42.62851" lon="1.66904">
        <ele>2204.800049</ele>
        <time>2018-08-12T07:09:24Z</time>
      </trkpt>
      <trkpt lat="42.62846" lon="1.66916">
        <ele>2208.699951</ele>
        <time>2018-08-12T07:09:41Z</time>
      </trkpt>
      <trkpt lat="42.62841" lon="1.66927">
        <ele>2211.899902</ele>
        <time>2018-08-12T07:09:50Z</time>
      </trkpt>
      <trkpt lat="42.62835" lon="1.66937">
        <ele>2215.899902</ele>
        <time>2018-08-12T07:10:00Z</time>
      </trkpt>
      <trkpt lat="42.62829" lon="1.66946">
        <ele>2218.800049</ele>
        <time>2018-08-12T07:10:08Z</time>
      </trkpt>
      <trkpt lat="42.62824" lon="1.66957">
        <ele>2221.199951</ele>
        <time>2018-08-12T07:10:23Z</time>
      </trkpt>
      <trkpt lat="42.62817" lon="1.66965">
        <ele>2223</ele>
        <time>2018-08-12T07:10:34Z</time>
      </trkpt>
      <trkpt lat="42.6281" lon="1.66974">
        <ele>2224.899902</ele>
        <time>2018-08-12T07:10:49Z</time>
      </trkpt>
      <trkpt lat="42.62801" lon="1.66979">
        <ele>2226.300049</ele>
        <time>2018-08-12T07:11:03Z</time>
      </trkpt>
      <trkpt lat="42.62793" lon="1.66985">
        <ele>2228.199951</ele>
        <time>2018-08-12T07:11:14Z</time>
      </trkpt>
      <trkpt lat="42.62784" lon="1.6699">
        <ele>2229.899902</ele>
        <time>2018-08-12T07:11:30Z</time>
      </trkpt>
      <trkpt lat="42.62775" lon="1.66992">
        <ele>2231.100098</ele>
        <time>2018-08-12T07:11:42Z</time>
      </trkpt>
      <trkpt lat="42.62767" lon="1.66999">
        <ele>2232.800049</ele>
        <time>2018-08-12T07:11:52Z</time>
      </trkpt>
      <trkpt lat="42.62758" lon="1.66995">
        <ele>2233.300049</ele>
        <time>2018-08-12T07:12:32Z</time>
      </trkpt>
      <trkpt lat="42.62749" lon="1.66995">
        <ele>2233.300049</ele>
        <time>2018-08-12T07:12:41Z</time>
      </trkpt>
      <trkpt lat="42.62739" lon="1.66997">
        <ele>2234.800049</ele>
        <time>2018-08-12T07:12:55Z</time>
      </trkpt>
      <trkpt lat="42.6273" lon="1.66999">
        <ele>2235.899902</ele>
        <time>2018-08-12T07:13:08Z</time>
      </trkpt>
      <trkpt lat="42.62721" lon="1.67001">
        <ele>2237.5</ele>
        <time>2018-08-12T07:13:23Z</time>
      </trkpt>
      <trkpt lat="42.62711" lon="1.67003">
        <ele>2238.600098</ele>
        <time>2018-08-12T07:13:56Z</time>
      </trkpt>
      <trkpt lat="42.62702" lon="1.6701">
        <ele>2241.800049</ele>
        <time>2018-08-12T07:14:11Z</time>
      </trkpt>
      <trkpt lat="42.62694" lon="1.67004">
        <ele>2241.600098</ele>
        <time>2018-08-12T07:14:48Z</time>
      </trkpt>
      <trkpt lat="42.62684" lon="1.67007">
        <ele>2241.300049</ele>
        <time>2018-08-12T07:15:19Z</time>
      </trkpt>
      <trkpt lat="42.62675" lon="1.67011">
        <ele>2246.199951</ele>
        <time>2018-08-12T07:16:41Z</time>
      </trkpt>
      <trkpt lat="42.62665" lon="1.67012">
        <ele>2246.699951</ele>
        <time>2018-08-12T07:17:03Z</time>
      </trkpt>
      <trkpt lat="42.62657" lon="1.6702">
        <ele>2253.399902</ele>
        <time>2018-08-12T07:17:23Z</time>
      </trkpt>
      <trkpt lat="42.62649" lon="1.67026">
        <ele>2260.600098</ele>
        <time>2018-08-12T07:18:20Z</time>
      </trkpt>
      <trkpt lat="42.62643" lon="1.67036">
        <ele>2266.100098</ele>
        <time>2018-08-12T07:18:33Z</time>
      </trkpt>
      <trkpt lat="42.62643" lon="1.67049">
        <ele>2273.300049</ele>
        <time>2018-08-12T07:19:57Z</time>
      </trkpt>
      <trkpt lat="42.62635" lon="1.67056">
        <ele>2277.800049</ele>
        <time>2018-08-12T07:20:15Z</time>
      </trkpt>
      <trkpt lat="42.62628" lon="1.67064">
        <ele>2284</ele>
        <time>2018-08-12T07:20:44Z</time>
      </trkpt>
      <trkpt lat="42.6262" lon="1.6707">
        <ele>2288.699951</ele>
        <time>2018-08-12T07:21:02Z</time>
      </trkpt>
      <trkpt lat="42.62619" lon="1.67082">
        <ele>2294.100098</ele>
        <time>2018-08-12T07:21:20Z</time>
      </trkpt>
      <trkpt lat="42.62618" lon="1.67095">
        <ele>2298.399902</ele>
        <time>2018-08-12T07:21:39Z</time>
      </trkpt>
      <trkpt lat="42.62619" lon="1.67108">
        <ele>2302.899902</ele>
        <time>2018-08-12T07:23:45Z</time>
      </trkpt>
      <trkpt lat="42.62622" lon="1.6712">
        <ele>2306.899902</ele>
        <time>2018-08-12T07:23:57Z</time>
      </trkpt>
      <trkpt lat="42.62626" lon="1.67131">
        <ele>2310.399902</ele>
        <time>2018-08-12T07:24:07Z</time>
      </trkpt>
      <trkpt lat="42.62632" lon="1.67142">
        <ele>2314.100098</ele>
        <time>2018-08-12T07:24:17Z</time>
      </trkpt>
      <trkpt lat="42.62634" lon="1.67155">
        <ele>2318.600098</ele>
        <time>2018-08-12T07:24:32Z</time>
      </trkpt>
      <trkpt lat="42.62629" lon="1.67166">
        <ele>2323.300049</ele>
        <time>2018-08-12T07:24:40Z</time>
      </trkpt>
      <trkpt lat="42.62625" lon="1.67177">
        <ele>2326.399902</ele>
        <time>2018-08-12T07:24:50Z</time>
      </trkpt>
      <trkpt lat="42.62618" lon="1.67185">
        <ele>2328.300049</ele>
        <time>2018-08-12T07:25:01Z</time>
      </trkpt>
      <trkpt lat="42.62621" lon="1.67197">
        <ele>2330.399902</ele>
        <time>2018-08-12T07:25:14Z</time>
      </trkpt>
      <trkpt lat="42.62621" lon="1.6721">
        <ele>2332.600098</ele>
        <time>2018-08-12T07:25:27Z</time>
      </trkpt>
      <trkpt lat="42.62619" lon="1.67223">
        <ele>2334.399902</ele>
        <time>2018-08-12T07:25:49Z</time>
      </trkpt>
      <trkpt lat="42.62615" lon="1.67239">
        <ele>2336.899902</ele>
        <time>2018-08-12T07:26:22Z</time>
      </trkpt>
      <trkpt lat="42.62619" lon="1.6725">
        <ele>2339.399902</ele>
        <time>2018-08-12T07:26:48Z</time>
      </trkpt>
      <trkpt lat="42.62616" lon="1.67262">
        <ele>2342.100098</ele>
        <time>2018-08-12T07:26:59Z</time>
      </trkpt>
      <trkpt lat="42.62609" lon="1.67272">
        <ele>2345.100098</ele>
        <time>2018-08-12T07:27:17Z</time>
      </trkpt>
      <trkpt lat="42.62608" lon="1.67285">
        <ele>2348.899902</ele>
        <time>2018-08-12T07:27:33Z</time>
      </trkpt>
      <trkpt lat="42.62603" lon="1.67296">
        <ele>2352.600098</ele>
        <time>2018-08-12T07:28:01Z</time>
      </trkpt>
      <trkpt lat="42.62588" lon="1.67313">
        <ele>2358</ele>
        <time>2018-08-12T07:28:49Z</time>
      </trkpt>
      <trkpt lat="42.62582" lon="1.67322">
        <ele>2362.600098</ele>
        <time>2018-08-12T07:29:06Z</time>
      </trkpt>
      <trkpt lat="42.62575" lon="1.6733">
        <ele>2365.600098</ele>
        <time>2018-08-12T07:29:23Z</time>
      </trkpt>
      <trkpt lat="42.62567" lon="1.67337">
        <ele>2367</ele>
        <time>2018-08-12T07:30:00Z</time>
      </trkpt>
      <trkpt lat="42.62569" lon="1.67349">
        <ele>2373</ele>
        <time>2018-08-12T07:32:03Z</time>
      </trkpt>
      <trkpt lat="42.62577" lon="1.67355">
        <ele>2375.300049</ele>
        <time>2018-08-12T07:32:19Z</time>
      </trkpt>
      <trkpt lat="42.62582" lon="1.67365">
        <ele>2378.699951</ele>
        <time>2018-08-12T07:32:36Z</time>
      </trkpt>
      <trkpt lat="42.62586" lon="1.67377">
        <ele>2382.800049</ele>
        <time>2018-08-12T07:32:50Z</time>
      </trkpt>
      <trkpt lat="42.62589" lon="1.67389">
        <ele>2387.600098</ele>
        <time>2018-08-12T07:33:07Z</time>
      </trkpt>
      <trkpt lat="42.62588" lon="1.67402">
        <ele>2392.699951</ele>
        <time>2018-08-12T07:33:26Z</time>
      </trkpt>
      <trkpt lat="42.62596" lon="1.67409">
        <ele>2395.899902</ele>
        <time>2018-08-12T07:33:43Z</time>
      </trkpt>
      <trkpt lat="42.62596" lon="1.67422">
        <ele>2400.899902</ele>
        <time>2018-08-12T07:34:09Z</time>
      </trkpt>
      <trkpt lat="42.62601" lon="1.67432">
        <ele>2407.399902</ele>
        <time>2018-08-12T07:34:27Z</time>
      </trkpt>
      <trkpt lat="42.6261" lon="1.67432">
        <ele>2408.100098</ele>
        <time>2018-08-12T07:35:42Z</time>
      </trkpt>
      <trkpt lat="42.62619" lon="1.67432">
        <ele>2408.899902</ele>
        <time>2018-08-12T07:36:16Z</time>
      </trkpt>
      <trkpt lat="42.62628" lon="1.67437">
        <ele>2411.5</ele>
        <time>2018-08-12T07:36:26Z</time>
      </trkpt>
      <trkpt lat="42.62635" lon="1.67445">
        <ele>2417.100098</ele>
        <time>2018-08-12T07:36:41Z</time>
      </trkpt>
      <trkpt lat="42.62644" lon="1.67449">
        <ele>2421</ele>
        <time>2018-08-12T07:36:59Z</time>
      </trkpt>
      <trkpt lat="42.62652" lon="1.67454">
        <ele>2427</ele>
        <time>2018-08-12T07:37:27Z</time>
      </trkpt>
      <trkpt lat="42.62657" lon="1.67464">
        <ele>2434.100098</ele>
        <time>2018-08-12T07:37:41Z</time>
      </trkpt>
      <trkpt lat="42.62665" lon="1.6747">
        <ele>2440.600098</ele>
        <time>2018-08-12T07:38:31Z</time>
      </trkpt>
      <trkpt lat="42.62672" lon="1.6748">
        <ele>2445.100098</ele>
        <time>2018-08-12T07:39:08Z</time>
      </trkpt>
      <trkpt lat="42.62679" lon="1.67489">
        <ele>2451.100098</ele>
        <time>2018-08-12T07:40:09Z</time>
      </trkpt>
      <trkpt lat="42.62685" lon="1.67498">
        <ele>2455.300049</ele>
        <time>2018-08-12T07:40:40Z</time>
      </trkpt>
      <trkpt lat="42.6269" lon="1.67508">
        <ele>2457</ele>
        <time>2018-08-12T07:41:10Z</time>
      </trkpt>
      <trkpt lat="42.62694" lon="1.67519">
        <ele>2457.800049</ele>
        <time>2018-08-12T07:42:58Z</time>
      </trkpt>
      <trkpt lat="42.62701" lon="1.67529">
        <ele>2457.300049</ele>
        <time>2018-08-12T07:43:33Z</time>
      </trkpt>
      <trkpt lat="42.62701" lon="1.67542">
        <ele>2460.100098</ele>
        <time>2018-08-12T07:44:12Z</time>
      </trkpt>
      <trkpt lat="42.62706" lon="1.67553">
        <ele>2460.399902</ele>
        <time>2018-08-12T07:45:11Z</time>
      </trkpt>
      <trkpt lat="42.62711" lon="1.67563">
        <ele>2459.800049</ele>
        <time>2018-08-12T07:45:32Z</time>
      </trkpt>
      <trkpt lat="42.62715" lon="1.67574">
        <ele>2458.300049</ele>
        <time>2018-08-12T07:46:03Z</time>
      </trkpt>
      <trkpt lat="42.62713" lon="1.67586">
        <ele>2462.899902</ele>
        <time>2018-08-12T07:46:32Z</time>
      </trkpt>
      <trkpt lat="42.62709" lon="1.67598">
        <ele>2468.199951</ele>
        <time>2018-08-12T07:46:57Z</time>
      </trkpt>
      <trkpt lat="42.62714" lon="1.67608">
        <ele>2465.399902</ele>
        <time>2018-08-12T07:47:21Z</time>
      </trkpt>
      <trkpt lat="42.6271" lon="1.6762">
        <ele>2467.399902</ele>
        <time>2018-08-12T07:47:53Z</time>
      </trkpt>
      <trkpt lat="42.62706" lon="1.67634">
        <ele>2475.399902</ele>
        <time>2018-08-12T07:48:15Z</time>
      </trkpt>
      <trkpt lat="42.62709" lon="1.67646">
        <ele>2476.100098</ele>
        <time>2018-08-12T07:48:31Z</time>
      </trkpt>
      <trkpt lat="42.62715" lon="1.67655">
        <ele>2472.800049</ele>
        <time>2018-08-12T07:49:38Z</time>
      </trkpt>
      <trkpt lat="42.62712" lon="1.67642">
        <ele>2472.5</ele>
        <time>2018-08-12T07:50:26Z</time>
      </trkpt>
      <trkpt lat="42.62706" lon="1.67633">
        <ele>2476</ele>
        <time>2018-08-12T07:57:31Z</time>
      </trkpt>
      <trkpt lat="42.62697" lon="1.67631">
        <ele>2482.699951</ele>
        <time>2018-08-12T07:58:03Z</time>
      </trkpt>
      <trkpt lat="42.62706" lon="1.67637">
        <ele>2479.300049</ele>
        <time>2018-08-12T07:58:13Z</time>
      </trkpt>
      <trkpt lat="42.62713" lon="1.67646">
        <ele>2472</ele>
        <time>2018-08-12T07:58:36Z</time>
      </trkpt>
      <trkpt lat="42.62712" lon="1.67659">
        <ele>2474.100098</ele>
        <time>2018-08-12T08:01:52Z</time>
      </trkpt>
      <trkpt lat="42.6271" lon="1.67671">
        <ele>2478</ele>
        <time>2018-08-12T08:02:13Z</time>
      </trkpt>
      <trkpt lat="42.62705" lon="1.67682">
        <ele>2481.699951</ele>
        <time>2018-08-12T08:02:29Z</time>
      </trkpt>
      <trkpt lat="42.62702" lon="1.67694">
        <ele>2486.100098</ele>
        <time>2018-08-12T08:02:42Z</time>
      </trkpt>
      <trkpt lat="42.62703" lon="1.67707">
        <ele>2486.199951</ele>
        <time>2018-08-12T08:02:55Z</time>
      </trkpt>
      <trkpt lat="42.62693" lon="1.67708">
        <ele>2492.600098</ele>
        <time>2018-08-12T08:03:07Z</time>
      </trkpt>
      <trkpt lat="42.62689" lon="1.67719">
        <ele>2497.699951</ele>
        <time>2018-08-12T08:03:24Z</time>
      </trkpt>
      <trkpt lat="42.62687" lon="1.67731">
        <ele>2501.399902</ele>
        <time>2018-08-12T08:03:36Z</time>
      </trkpt>
      <trkpt lat="42.6269" lon="1.67743">
        <ele>2499.899902</ele>
        <time>2018-08-12T08:03:47Z</time>
      </trkpt>
      <trkpt lat="42.62681" lon="1.67744">
        <ele>2505.399902</ele>
        <time>2018-08-12T08:04:05Z</time>
      </trkpt>
      <trkpt lat="42.62679" lon="1.67756">
        <ele>2511.100098</ele>
        <time>2018-08-12T08:04:24Z</time>
      </trkpt>
      <trkpt lat="42.6267" lon="1.67758">
        <ele>2516.699951</ele>
        <time>2018-08-12T08:04:45Z</time>
      </trkpt>
      <trkpt lat="42.62669" lon="1.6777">
        <ele>2520</ele>
        <time>2018-08-12T08:04:58Z</time>
      </trkpt>
      <trkpt lat="42.62661" lon="1.67778">
        <ele>2524.199951</ele>
        <time>2018-08-12T08:05:43Z</time>
      </trkpt>
      <trkpt lat="42.6266" lon="1.6779">
        <ele>2526.199951</ele>
        <time>2018-08-12T08:06:03Z</time>
      </trkpt>
      <trkpt lat="42.62664" lon="1.67801">
        <ele>2524.5</ele>
        <time>2018-08-12T08:06:22Z</time>
      </trkpt>
      <trkpt lat="42.62665" lon="1.67814">
        <ele>2524.800049</ele>
        <time>2018-08-12T08:06:56Z</time>
      </trkpt>
      <trkpt lat="42.6266" lon="1.67826">
        <ele>2525.800049</ele>
        <time>2018-08-12T08:07:34Z</time>
      </trkpt>
      <trkpt lat="42.62651" lon="1.67824">
        <ele>2533.300049</ele>
        <time>2018-08-12T08:07:50Z</time>
      </trkpt>
      <trkpt lat="42.62643" lon="1.6783">
        <ele>2538.600098</ele>
        <time>2018-08-12T08:08:22Z</time>
      </trkpt>
      <trkpt lat="42.62634" lon="1.67832">
        <ele>2545</ele>
        <time>2018-08-12T08:08:49Z</time>
      </trkpt>
      <trkpt lat="42.62633" lon="1.67846">
        <ele>2544.199951</ele>
        <time>2018-08-12T08:09:18Z</time>
      </trkpt>
      <trkpt lat="42.62629" lon="1.67857">
        <ele>2545.100098</ele>
        <time>2018-08-12T08:09:40Z</time>
      </trkpt>
      <trkpt lat="42.62621" lon="1.67864">
        <ele>2548.800049</ele>
        <time>2018-08-12T08:10:04Z</time>
      </trkpt>
      <trkpt lat="42.62613" lon="1.67871">
        <ele>2553.5</ele>
        <time>2018-08-12T08:10:27Z</time>
      </trkpt>
      <trkpt lat="42.62602" lon="1.67876">
        <ele>2559.5</ele>
        <time>2018-08-12T08:11:07Z</time>
      </trkpt>
      <trkpt lat="42.62593" lon="1.67876">
        <ele>2566.199951</ele>
        <time>2018-08-12T08:11:24Z</time>
      </trkpt>
      <trkpt lat="42.62587" lon="1.67886">
        <ele>2570.800049</ele>
        <time>2018-08-12T08:11:46Z</time>
      </trkpt>
      <trkpt lat="42.62579" lon="1.67892">
        <ele>2575.899902</ele>
        <time>2018-08-12T08:12:26Z</time>
      </trkpt>
      <trkpt lat="42.62572" lon="1.67899">
        <ele>2580.300049</ele>
        <time>2018-08-12T08:12:48Z</time>
      </trkpt>
      <trkpt lat="42.62563" lon="1.67904">
        <ele>2585.899902</ele>
        <time>2018-08-12T08:13:16Z</time>
      </trkpt>
      <trkpt lat="42.62556" lon="1.67911">
        <ele>2591.100098</ele>
        <time>2018-08-12T08:14:06Z</time>
      </trkpt>
      <trkpt lat="42.62554" lon="1.67924">
        <ele>2593.300049</ele>
        <time>2018-08-12T08:14:29Z</time>
      </trkpt>
      <trkpt lat="42.62546" lon="1.6793">
        <ele>2598.300049</ele>
        <time>2018-08-12T08:20:13Z</time>
      </trkpt>
      <trkpt lat="42.62539" lon="1.67938">
        <ele>2603.5</ele>
        <time>2018-08-12T08:20:42Z</time>
      </trkpt>
      <trkpt lat="42.6253" lon="1.6794">
        <ele>2611.5</ele>
        <time>2018-08-12T08:21:19Z</time>
      </trkpt>
      <trkpt lat="42.62525" lon="1.67951">
        <ele>2615.699951</ele>
        <time>2018-08-12T08:21:38Z</time>
      </trkpt>
      <trkpt lat="42.62519" lon="1.67964">
        <ele>2620</ele>
        <time>2018-08-12T08:22:14Z</time>
      </trkpt>
      <trkpt lat="42.62509" lon="1.67967">
        <ele>2628.399902</ele>
        <time>2018-08-12T08:22:38Z</time>
      </trkpt>
      <trkpt lat="42.62504" lon="1.67976">
        <ele>2633.699951</ele>
        <time>2018-08-12T08:23:36Z</time>
      </trkpt>
      <trkpt lat="42.62498" lon="1.67986">
        <ele>2637.699951</ele>
        <time>2018-08-12T08:24:03Z</time>
      </trkpt>
      <trkpt lat="42.62491" lon="1.67995">
        <ele>2642.399902</ele>
        <time>2018-08-12T08:24:17Z</time>
      </trkpt>
      <trkpt lat="42.62484" lon="1.68003">
        <ele>2646.600098</ele>
        <time>2018-08-12T08:29:31Z</time>
      </trkpt>
      <trkpt lat="42.62493" lon="1.67998">
        <ele>2644.5</ele>
        <time>2018-08-12T08:30:52Z</time>
      </trkpt>
      <trkpt lat="42.62483" lon="1.67999">
        <ele>2646</ele>
        <time>2018-08-12T08:31:24Z</time>
      </trkpt>
      <trkpt lat="42.62484" lon="1.68012">
        <ele>2646.800049</ele>
        <time>2018-08-12T08:31:51Z</time>
      </trkpt>
      <trkpt lat="42.62486" lon="1.68024">
        <ele>2644.899902</ele>
        <time>2018-08-12T08:32:04Z</time>
      </trkpt>
      <trkpt lat="42.62479" lon="1.68033">
        <ele>2648.199951</ele>
        <time>2018-08-12T08:32:21Z</time>
      </trkpt>
      <trkpt lat="42.62476" lon="1.68044">
        <ele>2649</ele>
        <time>2018-08-12T08:32:48Z</time>
      </trkpt>
      <trkpt lat="42.62479" lon="1.68057">
        <ele>2647.300049</ele>
        <time>2018-08-12T08:33:01Z</time>
      </trkpt>
      <trkpt lat="42.62486" lon="1.68064">
        <ele>2642.100098</ele>
        <time>2018-08-12T08:33:11Z</time>
      </trkpt>
      <trkpt lat="42.6249" lon="1.68076">
        <ele>2637.100098</ele>
        <time>2018-08-12T08:33:22Z</time>
      </trkpt>
      <trkpt lat="42.62492" lon="1.68089">
        <ele>2634.300049</ele>
        <time>2018-08-12T08:33:43Z</time>
      </trkpt>
      <trkpt lat="42.62491" lon="1.68103">
        <ele>2635</ele>
        <time>2018-08-12T08:33:54Z</time>
      </trkpt>
      <trkpt lat="42.62492" lon="1.68116">
        <ele>2635.399902</ele>
        <time>2018-08-12T08:34:02Z</time>
      </trkpt>
      <trkpt lat="42.62492" lon="1.68129">
        <ele>2636.100098</ele>
        <time>2018-08-12T08:34:12Z</time>
      </trkpt>
      <trkpt lat="42.62494" lon="1.68141">
        <ele>2635</ele>
        <time>2018-08-12T08:34:29Z</time>
      </trkpt>
      <trkpt lat="42.62493" lon="1.68154">
        <ele>2636.5</ele>
        <time>2018-08-12T08:34:43Z</time>
      </trkpt>
      <trkpt lat="42.62495" lon="1.68167">
        <ele>2636.5</ele>
        <time>2018-08-12T08:34:56Z</time>
      </trkpt>
      <trkpt lat="42.62495" lon="1.6818">
        <ele>2636.899902</ele>
        <time>2018-08-12T08:35:07Z</time>
      </trkpt>
      <trkpt lat="42.62497" lon="1.68192">
        <ele>2636.399902</ele>
        <time>2018-08-12T08:35:14Z</time>
      </trkpt>
      <trkpt lat="42.62497" lon="1.68205">
        <ele>2637.300049</ele>
        <time>2018-08-12T08:35:22Z</time>
      </trkpt>
      <trkpt lat="42.62493" lon="1.68216">
        <ele>2640.100098</ele>
        <time>2018-08-12T08:35:34Z</time>
      </trkpt>
      <trkpt lat="42.6249" lon="1.68228">
        <ele>2644.100098</ele>
        <time>2018-08-12T08:35:45Z</time>
      </trkpt>
      <trkpt lat="42.62489" lon="1.68241">
        <ele>2645.899902</ele>
        <time>2018-08-12T08:35:57Z</time>
      </trkpt>
      <trkpt lat="42.62492" lon="1.68253">
        <ele>2644.600098</ele>
        <time>2018-08-12T08:36:07Z</time>
      </trkpt>
      <trkpt lat="42.62492" lon="1.68265">
        <ele>2641.899902</ele>
        <time>2018-08-12T08:36:18Z</time>
      </trkpt>
      <trkpt lat="42.62484" lon="1.68273">
        <ele>2644.5</ele>
        <time>2018-08-12T08:48:32Z</time>
      </trkpt>
      <trkpt lat="42.62483" lon="1.68286">
        <ele>2642.399902</ele>
        <time>2018-08-12T08:48:40Z</time>
      </trkpt>
      <trkpt lat="42.62485" lon="1.68299">
        <ele>2638.800049</ele>
        <time>2018-08-12T08:48:47Z</time>
      </trkpt>
      <trkpt lat="42.62488" lon="1.68311">
        <ele>2632.899902</ele>
        <time>2018-08-12T08:49:01Z</time>
      </trkpt>
      <trkpt lat="42.62488" lon="1.68325">
        <ele>2628.899902</ele>
        <time>2018-08-12T08:49:18Z</time>
      </trkpt>
      <trkpt lat="42.62489" lon="1.6834">
        <ele>2624.899902</ele>
        <time>2018-08-12T08:49:56Z</time>
      </trkpt>
      <trkpt lat="42.62486" lon="1.68352">
        <ele>2625.199951</ele>
        <time>2018-08-12T08:50:09Z</time>
      </trkpt>
      <trkpt lat="42.62485" lon="1.68364">
        <ele>2623.600098</ele>
        <time>2018-08-12T08:50:22Z</time>
      </trkpt>
      <trkpt lat="42.62488" lon="1.68377">
        <ele>2621.699951</ele>
        <time>2018-08-12T08:50:30Z</time>
      </trkpt>
      <trkpt lat="42.62491" lon="1.68389">
        <ele>2618.399902</ele>
        <time>2018-08-12T08:50:39Z</time>
      </trkpt>
      <trkpt lat="42.62489" lon="1.68401">
        <ele>2616.199951</ele>
        <time>2018-08-12T08:50:49Z</time>
      </trkpt>
      <trkpt lat="42.6248" lon="1.68404">
        <ele>2620</ele>
        <time>2018-08-12T08:51:12Z</time>
      </trkpt>
      <trkpt lat="42.62471" lon="1.6841">
        <ele>2623.899902</ele>
        <time>2018-08-12T08:51:23Z</time>
      </trkpt>
      <trkpt lat="42.62463" lon="1.68417">
        <ele>2627.600098</ele>
        <time>2018-08-12T08:51:36Z</time>
      </trkpt>
      <trkpt lat="42.62463" lon="1.68429">
        <ele>2624.5</ele>
        <time>2018-08-12T08:51:53Z</time>
      </trkpt>
      <trkpt lat="42.62455" lon="1.68439">
        <ele>2624.899902</ele>
        <time>2018-08-12T08:53:05Z</time>
      </trkpt>
      <trkpt lat="42.62448" lon="1.68447">
        <ele>2625.5</ele>
        <time>2018-08-12T08:53:16Z</time>
      </trkpt>
      <trkpt lat="42.62439" lon="1.68454">
        <ele>2627.5</ele>
        <time>2018-08-12T08:53:36Z</time>
      </trkpt>
      <trkpt lat="42.62436" lon="1.68465">
        <ele>2626.5</ele>
        <time>2018-08-12T08:53:57Z</time>
      </trkpt>
      <trkpt lat="42.62435" lon="1.68478">
        <ele>2622.600098</ele>
        <time>2018-08-12T08:54:18Z</time>
      </trkpt>
      <trkpt lat="42.6244" lon="1.68488">
        <ele>2616.5</ele>
        <time>2018-08-12T08:55:34Z</time>
      </trkpt>
      <trkpt lat="42.62433" lon="1.68497">
        <ele>2617</ele>
        <time>2018-08-12T08:55:57Z</time>
      </trkpt>
      <trkpt lat="42.62428" lon="1.68508">
        <ele>2615.699951</ele>
        <time>2018-08-12T08:56:14Z</time>
      </trkpt>
      <trkpt lat="42.62429" lon="1.6852">
        <ele>2607</ele>
        <time>2018-08-12T08:56:23Z</time>
      </trkpt>
      <trkpt lat="42.62421" lon="1.68528">
        <ele>2604.5</ele>
        <time>2018-08-12T08:56:38Z</time>
      </trkpt>
      <trkpt lat="42.62419" lon="1.6854">
        <ele>2598.600098</ele>
        <time>2018-08-12T08:56:54Z</time>
      </trkpt>
      <trkpt lat="42.62415" lon="1.68552">
        <ele>2593.699951</ele>
        <time>2018-08-12T08:57:08Z</time>
      </trkpt>
      <trkpt lat="42.62415" lon="1.68564">
        <ele>2585.800049</ele>
        <time>2018-08-12T08:57:44Z</time>
      </trkpt>
      <trkpt lat="42.62416" lon="1.68577">
        <ele>2578</ele>
        <time>2018-08-12T08:58:01Z</time>
      </trkpt>
      <trkpt lat="42.62412" lon="1.68589">
        <ele>2570.600098</ele>
        <time>2018-08-12T08:58:17Z</time>
      </trkpt>
      <trkpt lat="42.62409" lon="1.68601">
        <ele>2564</ele>
        <time>2018-08-12T08:58:31Z</time>
      </trkpt>
      <trkpt lat="42.6241" lon="1.68613">
        <ele>2556.899902</ele>
        <time>2018-08-12T08:58:53Z</time>
      </trkpt>
      <trkpt lat="42.62406" lon="1.68629">
        <ele>2550.300049</ele>
        <time>2018-08-12T08:59:39Z</time>
      </trkpt>
      <trkpt lat="42.62403" lon="1.6864">
        <ele>2542.600098</ele>
        <time>2018-08-12T08:59:52Z</time>
      </trkpt>
      <trkpt lat="42.62401" lon="1.68652">
        <ele>2535.399902</ele>
        <time>2018-08-12T09:00:25Z</time>
      </trkpt>
      <trkpt lat="42.624" lon="1.68665">
        <ele>2529.399902</ele>
        <time>2018-08-12T09:01:05Z</time>
      </trkpt>
      <trkpt lat="42.62396" lon="1.68677">
        <ele>2523.600098</ele>
        <time>2018-08-12T09:01:23Z</time>
      </trkpt>
      <trkpt lat="42.62397" lon="1.68689">
        <ele>2515.800049</ele>
        <time>2018-08-12T09:06:29Z</time>
      </trkpt>
      <trkpt lat="42.6239" lon="1.68697">
        <ele>2514.399902</ele>
        <time>2018-08-12T09:06:41Z</time>
      </trkpt>
      <trkpt lat="42.62388" lon="1.68711">
        <ele>2510.100098</ele>
        <time>2018-08-12T09:07:01Z</time>
      </trkpt>
      <trkpt lat="42.6239" lon="1.68723">
        <ele>2503.399902</ele>
        <time>2018-08-12T09:07:12Z</time>
      </trkpt>
      <trkpt lat="42.62392" lon="1.68736">
        <ele>2495.300049</ele>
        <time>2018-08-12T09:07:23Z</time>
      </trkpt>
      <trkpt lat="42.62395" lon="1.68749">
        <ele>2484.699951</ele>
        <time>2018-08-12T09:07:34Z</time>
      </trkpt>
      <trkpt lat="42.624" lon="1.68759">
        <ele>2475.399902</ele>
        <time>2018-08-12T09:07:45Z</time>
      </trkpt>
      <trkpt lat="42.62405" lon="1.6877">
        <ele>2465.600098</ele>
        <time>2018-08-12T09:08:03Z</time>
      </trkpt>
      <trkpt lat="42.62405" lon="1.68782">
        <ele>2459.5</ele>
        <time>2018-08-12T09:08:25Z</time>
      </trkpt>
      <trkpt lat="42.62406" lon="1.68795">
        <ele>2455.5</ele>
        <time>2018-08-12T09:09:46Z</time>
      </trkpt>
      <trkpt lat="42.62404" lon="1.68811">
        <ele>2450</ele>
        <time>2018-08-12T09:09:58Z</time>
      </trkpt>
      <trkpt lat="42.62404" lon="1.68824">
        <ele>2445.600098</ele>
        <time>2018-08-12T09:10:09Z</time>
      </trkpt>
      <trkpt lat="42.62401" lon="1.68837">
        <ele>2444.399902</ele>
        <time>2018-08-12T09:10:20Z</time>
      </trkpt>
      <trkpt lat="42.62399" lon="1.68852">
        <ele>2442.5</ele>
        <time>2018-08-12T09:10:46Z</time>
      </trkpt>
      <trkpt lat="42.62392" lon="1.68861">
        <ele>2450</ele>
        <time>2018-08-12T09:11:51Z</time>
      </trkpt>
      <trkpt lat="42.62384" lon="1.68867">
        <ele>2460.699951</ele>
        <time>2018-08-12T09:12:00Z</time>
      </trkpt>
      <trkpt lat="42.62378" lon="1.68877">
        <ele>2468.300049</ele>
        <time>2018-08-12T09:12:10Z</time>
      </trkpt>
      <trkpt lat="42.62372" lon="1.68889">
        <ele>2474.899902</ele>
        <time>2018-08-12T09:12:20Z</time>
      </trkpt>
      <trkpt lat="42.6237" lon="1.689">
        <ele>2477.899902</ele>
        <time>2018-08-12T09:12:28Z</time>
      </trkpt>
      <trkpt lat="42.62366" lon="1.68912">
        <ele>2481.100098</ele>
        <time>2018-08-12T09:12:36Z</time>
      </trkpt>
      <trkpt lat="42.62366" lon="1.68924">
        <ele>2480.5</ele>
        <time>2018-08-12T09:12:46Z</time>
      </trkpt>
      <trkpt lat="42.62362" lon="1.68937">
        <ele>2482.199951</ele>
        <time>2018-08-12T09:12:56Z</time>
      </trkpt>
      <trkpt lat="42.62356" lon="1.68946">
        <ele>2488</ele>
        <time>2018-08-12T09:13:04Z</time>
      </trkpt>
      <trkpt lat="42.62353" lon="1.68959">
        <ele>2491.600098</ele>
        <time>2018-08-12T09:13:15Z</time>
      </trkpt>
      <trkpt lat="42.62349" lon="1.68971">
        <ele>2494.5</ele>
        <time>2018-08-12T09:13:25Z</time>
      </trkpt>
      <trkpt lat="42.62345" lon="1.68982">
        <ele>2500</ele>
        <time>2018-08-12T09:13:37Z</time>
      </trkpt>
      <trkpt lat="42.6234" lon="1.68993">
        <ele>2504.800049</ele>
        <time>2018-08-12T09:13:50Z</time>
      </trkpt>
      <trkpt lat="42.62333" lon="1.69003">
        <ele>2513.199951</ele>
        <time>2018-08-12T09:14:08Z</time>
      </trkpt>
      <trkpt lat="42.62326" lon="1.69011">
        <ele>2512.600098</ele>
        <time>2018-08-12T09:14:26Z</time>
      </trkpt>
      <trkpt lat="42.62319" lon="1.69019">
        <ele>2511.800049</ele>
        <time>2018-08-12T09:14:51Z</time>
      </trkpt>
      <trkpt lat="42.62312" lon="1.69026">
        <ele>2512.300049</ele>
        <time>2018-08-12T09:15:09Z</time>
      </trkpt>
      <trkpt lat="42.62306" lon="1.69035">
        <ele>2511.399902</ele>
        <time>2018-08-12T09:15:25Z</time>
      </trkpt>
      <trkpt lat="42.62297" lon="1.69039">
        <ele>2514.899902</ele>
        <time>2018-08-12T09:15:40Z</time>
      </trkpt>
      <trkpt lat="42.62289" lon="1.69046">
        <ele>2518</ele>
        <time>2018-08-12T09:15:54Z</time>
      </trkpt>
      <trkpt lat="42.62285" lon="1.69058">
        <ele>2518.800049</ele>
        <time>2018-08-12T09:16:10Z</time>
      </trkpt>
      <trkpt lat="42.6228" lon="1.69069">
        <ele>2519.600098</ele>
        <time>2018-08-12T09:16:22Z</time>
      </trkpt>
      <trkpt lat="42.62278" lon="1.69081">
        <ele>2520.100098</ele>
        <time>2018-08-12T09:16:33Z</time>
      </trkpt>
      <trkpt lat="42.62274" lon="1.69092">
        <ele>2521.300049</ele>
        <time>2018-08-12T09:16:46Z</time>
      </trkpt>
      <trkpt lat="42.62272" lon="1.69105">
        <ele>2520.300049</ele>
        <time>2018-08-12T09:17:00Z</time>
      </trkpt>
      <trkpt lat="42.62265" lon="1.69112">
        <ele>2523.600098</ele>
        <time>2018-08-12T09:17:15Z</time>
      </trkpt>
      <trkpt lat="42.62258" lon="1.69122">
        <ele>2528.199951</ele>
        <time>2018-08-12T09:17:25Z</time>
      </trkpt>
      <trkpt lat="42.6225" lon="1.69129">
        <ele>2532.600098</ele>
        <time>2018-08-12T09:17:33Z</time>
      </trkpt>
      <trkpt lat="42.62245" lon="1.6914">
        <ele>2533.899902</ele>
        <time>2018-08-12T09:17:50Z</time>
      </trkpt>
      <trkpt lat="42.6224" lon="1.69151">
        <ele>2533.899902</ele>
        <time>2018-08-12T09:18:00Z</time>
      </trkpt>
      <trkpt lat="42.62236" lon="1.69163">
        <ele>2533.600098</ele>
        <time>2018-08-12T09:18:11Z</time>
      </trkpt>
      <trkpt lat="42.62229" lon="1.69171">
        <ele>2535.899902</ele>
        <time>2018-08-12T09:18:29Z</time>
      </trkpt>
      <trkpt lat="42.62224" lon="1.69182">
        <ele>2536.399902</ele>
        <time>2018-08-12T09:18:46Z</time>
      </trkpt>
      <trkpt lat="42.62216" lon="1.69187">
        <ele>2540.899902</ele>
        <time>2018-08-12T09:18:58Z</time>
      </trkpt>
      <trkpt lat="42.62208" lon="1.69195">
        <ele>2545.5</ele>
        <time>2018-08-12T09:19:11Z</time>
      </trkpt>
      <trkpt lat="42.622" lon="1.69201">
        <ele>2549.800049</ele>
        <time>2018-08-12T09:19:31Z</time>
      </trkpt>
      <trkpt lat="42.62197" lon="1.69213">
        <ele>2552.600098</ele>
        <time>2018-08-12T09:20:04Z</time>
      </trkpt>
      <trkpt lat="42.62201" lon="1.69225">
        <ele>2548.100098</ele>
        <time>2018-08-12T09:20:39Z</time>
      </trkpt>
      <trkpt lat="42.62202" lon="1.69238">
        <ele>2545.600098</ele>
        <time>2018-08-12T09:20:49Z</time>
      </trkpt>
      <trkpt lat="42.62205" lon="1.6925">
        <ele>2542.399902</ele>
        <time>2018-08-12T09:20:57Z</time>
      </trkpt>
      <trkpt lat="42.62203" lon="1.69268">
        <ele>2541.399902</ele>
        <time>2018-08-12T09:23:38Z</time>
      </trkpt>
      <trkpt lat="42.62207" lon="1.69282">
        <ele>2541.100098</ele>
        <time>2018-08-12T09:23:49Z</time>
      </trkpt>
      <trkpt lat="42.62207" lon="1.69294">
        <ele>2539.300049</ele>
        <time>2018-08-12T09:24:02Z</time>
      </trkpt>
      <trkpt lat="42.6221" lon="1.69306">
        <ele>2538.399902</ele>
        <time>2018-08-12T09:24:11Z</time>
      </trkpt>
      <trkpt lat="42.62213" lon="1.69318">
        <ele>2535.300049</ele>
        <time>2018-08-12T09:24:19Z</time>
      </trkpt>
      <trkpt lat="42.62217" lon="1.6933">
        <ele>2532.600098</ele>
        <time>2018-08-12T09:24:25Z</time>
      </trkpt>
      <trkpt lat="42.62222" lon="1.69341">
        <ele>2528</ele>
        <time>2018-08-12T09:24:34Z</time>
      </trkpt>
      <trkpt lat="42.62227" lon="1.69352">
        <ele>2524.100098</ele>
        <time>2018-08-12T09:24:44Z</time>
      </trkpt>
      <trkpt lat="42.6223" lon="1.69364">
        <ele>2522.100098</ele>
        <time>2018-08-12T09:24:57Z</time>
      </trkpt>
      <trkpt lat="42.62233" lon="1.69377">
        <ele>2520.199951</ele>
        <time>2018-08-12T09:25:08Z</time>
      </trkpt>
      <trkpt lat="42.62237" lon="1.69388">
        <ele>2518.399902</ele>
        <time>2018-08-12T09:25:16Z</time>
      </trkpt>
      <trkpt lat="42.62236" lon="1.69401">
        <ele>2518.699951</ele>
        <time>2018-08-12T09:25:29Z</time>
      </trkpt>
      <trkpt lat="42.62241" lon="1.69412">
        <ele>2516.399902</ele>
        <time>2018-08-12T09:25:58Z</time>
      </trkpt>
      <trkpt lat="42.62243" lon="1.69424">
        <ele>2515.300049</ele>
        <time>2018-08-12T09:26:06Z</time>
      </trkpt>
      <trkpt lat="42.62245" lon="1.69437">
        <ele>2512.399902</ele>
        <time>2018-08-12T09:26:14Z</time>
      </trkpt>
      <trkpt lat="42.62247" lon="1.69451">
        <ele>2509.399902</ele>
        <time>2018-08-12T09:26:23Z</time>
      </trkpt>
      <trkpt lat="42.62248" lon="1.69464">
        <ele>2506.600098</ele>
        <time>2018-08-12T09:26:31Z</time>
      </trkpt>
      <trkpt lat="42.62247" lon="1.69476">
        <ele>2506.100098</ele>
        <time>2018-08-12T09:26:41Z</time>
      </trkpt>
      <trkpt lat="42.62247" lon="1.69489">
        <ele>2504.399902</ele>
        <time>2018-08-12T09:26:49Z</time>
      </trkpt>
      <trkpt lat="42.62243" lon="1.69503">
        <ele>2504.899902</ele>
        <time>2018-08-12T09:26:59Z</time>
      </trkpt>
      <trkpt lat="42.62245" lon="1.69515">
        <ele>2505</ele>
        <time>2018-08-12T09:27:03Z</time>
      </trkpt>
      <trkpt lat="42.62241" lon="1.69542">
        <ele>2509.600098</ele>
        <time>2018-08-12T09:27:23Z</time>
      </trkpt>
      <trkpt lat="42.6224" lon="1.69555">
        <ele>2511.5</ele>
        <time>2018-08-12T09:27:38Z</time>
      </trkpt>
      <trkpt lat="42.6224" lon="1.69568">
        <ele>2513.199951</ele>
        <time>2018-08-12T09:27:47Z</time>
      </trkpt>
      <trkpt lat="42.62242" lon="1.69581">
        <ele>2514</ele>
        <time>2018-08-12T09:27:58Z</time>
      </trkpt>
      <trkpt lat="42.62244" lon="1.69594">
        <ele>2514</ele>
        <time>2018-08-12T09:28:09Z</time>
      </trkpt>
      <trkpt lat="42.62244" lon="1.69606">
        <ele>2514.199951</ele>
        <time>2018-08-12T09:28:18Z</time>
      </trkpt>
      <trkpt lat="42.62241" lon="1.69619">
        <ele>2516.199951</ele>
        <time>2018-08-12T09:28:37Z</time>
      </trkpt>
      <trkpt lat="42.62241" lon="1.69632">
        <ele>2516.899902</ele>
        <time>2018-08-12T09:28:46Z</time>
      </trkpt>
      <trkpt lat="42.62238" lon="1.69644">
        <ele>2519.100098</ele>
        <time>2018-08-12T09:29:21Z</time>
      </trkpt>
      <trkpt lat="42.62238" lon="1.69657">
        <ele>2519.699951</ele>
        <time>2018-08-12T09:29:32Z</time>
      </trkpt>
      <trkpt lat="42.62237" lon="1.69669">
        <ele>2521.5</ele>
        <time>2018-08-12T09:29:43Z</time>
      </trkpt>
      <trkpt lat="42.62239" lon="1.69682">
        <ele>2523</ele>
        <time>2018-08-12T09:29:51Z</time>
      </trkpt>
      <trkpt lat="42.62243" lon="1.69694">
        <ele>2525.100098</ele>
        <time>2018-08-12T09:29:59Z</time>
      </trkpt>
      <trkpt lat="42.62246" lon="1.69706">
        <ele>2526.800049</ele>
        <time>2018-08-12T09:30:07Z</time>
      </trkpt>
      <trkpt lat="42.62249" lon="1.69719">
        <ele>2528.5</ele>
        <time>2018-08-12T09:30:16Z</time>
      </trkpt>
      <trkpt lat="42.62251" lon="1.69732">
        <ele>2531.199951</ele>
        <time>2018-08-12T09:30:25Z</time>
      </trkpt>
      <trkpt lat="42.62255" lon="1.69745">
        <ele>2531.5</ele>
        <time>2018-08-12T09:30:34Z</time>
      </trkpt>
      <trkpt lat="42.62259" lon="1.69756">
        <ele>2530</ele>
        <time>2018-08-12T09:30:41Z</time>
      </trkpt>
      <trkpt lat="42.62262" lon="1.69768">
        <ele>2527.399902</ele>
        <time>2018-08-12T09:30:50Z</time>
      </trkpt>
      <trkpt lat="42.62264" lon="1.6978">
        <ele>2525.199951</ele>
        <time>2018-08-12T09:30:57Z</time>
      </trkpt>
      <trkpt lat="42.62269" lon="1.69791">
        <ele>2520.899902</ele>
        <time>2018-08-12T09:31:05Z</time>
      </trkpt>
      <trkpt lat="42.62273" lon="1.69803">
        <ele>2516.199951</ele>
        <time>2018-08-12T09:31:14Z</time>
      </trkpt>
      <trkpt lat="42.62276" lon="1.69816">
        <ele>2510.800049</ele>
        <time>2018-08-12T09:31:23Z</time>
      </trkpt>
      <trkpt lat="42.62279" lon="1.69828">
        <ele>2507.399902</ele>
        <time>2018-08-12T09:31:31Z</time>
      </trkpt>
      <trkpt lat="42.62277" lon="1.6984">
        <ele>2505.699951</ele>
        <time>2018-08-12T09:31:42Z</time>
      </trkpt>
      <trkpt lat="42.62275" lon="1.69852">
        <ele>2502.100098</ele>
        <time>2018-08-12T09:34:51Z</time>
      </trkpt>
      <trkpt lat="42.6227" lon="1.69864">
        <ele>2502.800049</ele>
        <time>2018-08-12T09:35:00Z</time>
      </trkpt>
      <trkpt lat="42.62268" lon="1.69876">
        <ele>2502.899902</ele>
        <time>2018-08-12T09:35:08Z</time>
      </trkpt>
      <trkpt lat="42.62262" lon="1.69886">
        <ele>2504.699951</ele>
        <time>2018-08-12T09:35:26Z</time>
      </trkpt>
      <trkpt lat="42.62258" lon="1.69897">
        <ele>2507.5</ele>
        <time>2018-08-12T09:35:46Z</time>
      </trkpt>
      <trkpt lat="42.62256" lon="1.6991">
        <ele>2506.199951</ele>
        <time>2018-08-12T09:35:57Z</time>
      </trkpt>
      <trkpt lat="42.62254" lon="1.69923">
        <ele>2501.800049</ele>
        <time>2018-08-12T09:36:06Z</time>
      </trkpt>
      <trkpt lat="42.62249" lon="1.69933">
        <ele>2500.699951</ele>
        <time>2018-08-12T09:36:14Z</time>
      </trkpt>
      <trkpt lat="42.62246" lon="1.69945">
        <ele>2495.600098</ele>
        <time>2018-08-12T09:36:25Z</time>
      </trkpt>
      <trkpt lat="42.62242" lon="1.69957">
        <ele>2489.899902</ele>
        <time>2018-08-12T09:36:35Z</time>
      </trkpt>
      <trkpt lat="42.62235" lon="1.69965">
        <ele>2487.300049</ele>
        <time>2018-08-12T09:36:58Z</time>
      </trkpt>
      <trkpt lat="42.62225" lon="1.69964">
        <ele>2493</ele>
        <time>2018-08-12T09:37:22Z</time>
      </trkpt>
      <trkpt lat="42.62217" lon="1.69971">
        <ele>2497.899902</ele>
        <time>2018-08-12T09:37:52Z</time>
      </trkpt>
      <trkpt lat="42.62209" lon="1.69975">
        <ele>2499.600098</ele>
        <time>2018-08-12T09:38:06Z</time>
      </trkpt>
      <trkpt lat="42.622" lon="1.69982">
        <ele>2501.399902</ele>
        <time>2018-08-12T09:38:20Z</time>
      </trkpt>
      <trkpt lat="42.62192" lon="1.69984">
        <ele>2505.800049</ele>
        <time>2018-08-12T09:38:28Z</time>
      </trkpt>
      <trkpt lat="42.62183" lon="1.6999">
        <ele>2510.600098</ele>
        <time>2018-08-12T09:38:41Z</time>
      </trkpt>
      <trkpt lat="42.62176" lon="1.69998">
        <ele>2512.399902</ele>
        <time>2018-08-12T09:41:38Z</time>
      </trkpt>
      <trkpt lat="42.62167" lon="1.70003">
        <ele>2516.699951</ele>
        <time>2018-08-12T09:41:45Z</time>
      </trkpt>
      <trkpt lat="42.62158" lon="1.70001">
        <ele>2518.699951</ele>
        <time>2018-08-12T09:42:18Z</time>
      </trkpt>
      <trkpt lat="42.62149" lon="1.70002">
        <ele>2514.600098</ele>
        <time>2018-08-12T09:43:39Z</time>
      </trkpt>
      <trkpt lat="42.6214" lon="1.70005">
        <ele>2512.300049</ele>
        <time>2018-08-12T09:43:51Z</time>
      </trkpt>
      <trkpt lat="42.62132" lon="1.7001">
        <ele>2508.199951</ele>
        <time>2018-08-12T09:44:03Z</time>
      </trkpt>
      <trkpt lat="42.62122" lon="1.7001">
        <ele>2505.699951</ele>
        <time>2018-08-12T09:44:14Z</time>
      </trkpt>
      <trkpt lat="42.62113" lon="1.70013">
        <ele>2502.399902</ele>
        <time>2018-08-12T09:44:29Z</time>
      </trkpt>
      <trkpt lat="42.62105" lon="1.7002">
        <ele>2497.899902</ele>
        <time>2018-08-12T09:44:39Z</time>
      </trkpt>
      <trkpt lat="42.62097" lon="1.70027">
        <ele>2492.899902</ele>
        <time>2018-08-12T09:44:51Z</time>
      </trkpt>
      <trkpt lat="42.62102" lon="1.70038">
        <ele>2490.100098</ele>
        <time>2018-08-12T09:45:40Z</time>
      </trkpt>
      <trkpt lat="42.62103" lon="1.7005">
        <ele>2484</ele>
        <time>2018-08-12T09:45:46Z</time>
      </trkpt>
      <trkpt lat="42.62097" lon="1.70059">
        <ele>2477.300049</ele>
        <time>2018-08-12T09:45:59Z</time>
      </trkpt>
      <trkpt lat="42.62089" lon="1.70065">
        <ele>2472.5</ele>
        <time>2018-08-12T09:46:16Z</time>
      </trkpt>
      <trkpt lat="42.62082" lon="1.70074">
        <ele>2468.300049</ele>
        <time>2018-08-12T09:46:29Z</time>
      </trkpt>
      <trkpt lat="42.62073" lon="1.70074">
        <ele>2466.100098</ele>
        <time>2018-08-12T09:46:51Z</time>
      </trkpt>
      <trkpt lat="42.62063" lon="1.70071">
        <ele>2465.899902</ele>
        <time>2018-08-12T09:46:59Z</time>
      </trkpt>
      <trkpt lat="42.62055" lon="1.70066">
        <ele>2466.5</ele>
        <time>2018-08-12T09:47:12Z</time>
      </trkpt>
      <trkpt lat="42.62052" lon="1.70078">
        <ele>2462.800049</ele>
        <time>2018-08-12T09:47:47Z</time>
      </trkpt>
      <trkpt lat="42.62055" lon="1.70091">
        <ele>2457.800049</ele>
        <time>2018-08-12T09:49:22Z</time>
      </trkpt>
      <trkpt lat="42.62061" lon="1.701">
        <ele>2453.600098</ele>
        <time>2018-08-12T09:49:38Z</time>
      </trkpt>
      <trkpt lat="42.62068" lon="1.7011">
        <ele>2449.199951</ele>
        <time>2018-08-12T09:49:46Z</time>
      </trkpt>
      <trkpt lat="42.62073" lon="1.70121">
        <ele>2444.199951</ele>
        <time>2018-08-12T09:49:54Z</time>
      </trkpt>
      <trkpt lat="42.62079" lon="1.70131">
        <ele>2439.100098</ele>
        <time>2018-08-12T09:50:03Z</time>
      </trkpt>
      <trkpt lat="42.62089" lon="1.70126">
        <ele>2435.5</ele>
        <time>2018-08-12T09:51:37Z</time>
      </trkpt>
      <trkpt lat="42.62087" lon="1.70139">
        <ele>2435.199951</ele>
        <time>2018-08-12T09:53:34Z</time>
      </trkpt>
      <trkpt lat="42.62083" lon="1.7015">
        <ele>2428.600098</ele>
        <time>2018-08-12T09:53:48Z</time>
      </trkpt>
      <trkpt lat="42.62077" lon="1.70164">
        <ele>2421.899902</ele>
        <time>2018-08-12T09:54:24Z</time>
      </trkpt>
      <trkpt lat="42.62083" lon="1.70174">
        <ele>2414.399902</ele>
        <time>2018-08-12T09:54:34Z</time>
      </trkpt>
      <trkpt lat="42.62086" lon="1.70187">
        <ele>2404</ele>
        <time>2018-08-12T09:55:15Z</time>
      </trkpt>
      <trkpt lat="42.62067" lon="1.70188">
        <ele>2399</ele>
        <time>2018-08-12T09:56:23Z</time>
      </trkpt>
      <trkpt lat="42.62057" lon="1.70184">
        <ele>2402.699951</ele>
        <time>2018-08-12T09:57:09Z</time>
      </trkpt>
      <trkpt lat="42.62047" lon="1.70184">
        <ele>2404.800049</ele>
        <time>2018-08-12T09:58:02Z</time>
      </trkpt>
      <trkpt lat="42.62034" lon="1.70192">
        <ele>2404.199951</ele>
        <time>2018-08-12T09:58:47Z</time>
      </trkpt>
      <trkpt lat="42.62032" lon="1.70204">
        <ele>2392.199951</ele>
        <time>2018-08-12T09:59:16Z</time>
      </trkpt>
      <trkpt lat="42.62033" lon="1.70217">
        <ele>2383.899902</ele>
        <time>2018-08-12T09:59:57Z</time>
      </trkpt>
      <trkpt lat="42.62026" lon="1.70226">
        <ele>2375</ele>
        <time>2018-08-12T10:00:15Z</time>
      </trkpt>
      <trkpt lat="42.62017" lon="1.70225">
        <ele>2375.800049</ele>
        <time>2018-08-12T10:00:26Z</time>
      </trkpt>
      <trkpt lat="42.62011" lon="1.70236">
        <ele>2373.600098</ele>
        <time>2018-08-12T10:01:05Z</time>
      </trkpt>
      <trkpt lat="42.62011" lon="1.70248">
        <ele>2362.899902</ele>
        <time>2018-08-12T10:01:19Z</time>
      </trkpt>
      <trkpt lat="42.6201" lon="1.7026">
        <ele>2355.800049</ele>
        <time>2018-08-12T10:01:36Z</time>
      </trkpt>
      <trkpt lat="42.62003" lon="1.70269">
        <ele>2348.800049</ele>
        <time>2018-08-12T10:02:07Z</time>
      </trkpt>
      <trkpt lat="42.62003" lon="1.70282">
        <ele>2342</ele>
        <time>2018-08-12T10:02:23Z</time>
      </trkpt>
      <trkpt lat="42.6201" lon="1.7029">
        <ele>2335.899902</ele>
        <time>2018-08-12T10:02:30Z</time>
      </trkpt>
      <trkpt lat="42.62005" lon="1.70301">
        <ele>2327.600098</ele>
        <time>2018-08-12T10:02:45Z</time>
      </trkpt>
      <trkpt lat="42.6201" lon="1.70312">
        <ele>2319.699951</ele>
        <time>2018-08-12T10:03:14Z</time>
      </trkpt>
      <trkpt lat="42.62014" lon="1.70323">
        <ele>2311.199951</ele>
        <time>2018-08-12T10:03:30Z</time>
      </trkpt>
      <trkpt lat="42.62019" lon="1.70333">
        <ele>2305.5</ele>
        <time>2018-08-12T10:03:42Z</time>
      </trkpt>
      <trkpt lat="42.62018" lon="1.70346">
        <ele>2299.699951</ele>
        <time>2018-08-12T10:03:58Z</time>
      </trkpt>
      <trkpt lat="42.62014" lon="1.70359">
        <ele>2296</ele>
        <time>2018-08-12T10:04:05Z</time>
      </trkpt>
      <trkpt lat="42.6201" lon="1.70374">
        <ele>2291.5</ele>
        <time>2018-08-12T10:04:13Z</time>
      </trkpt>
      <trkpt lat="42.62013" lon="1.70387">
        <ele>2286.399902</ele>
        <time>2018-08-12T10:04:23Z</time>
      </trkpt>
      <trkpt lat="42.62004" lon="1.70392">
        <ele>2284</ele>
        <time>2018-08-12T10:04:33Z</time>
      </trkpt>
      <trkpt lat="42.62" lon="1.70404">
        <ele>2280.800049</ele>
        <time>2018-08-12T10:04:49Z</time>
      </trkpt>
      <trkpt lat="42.62" lon="1.70416">
        <ele>2277.399902</ele>
        <time>2018-08-12T10:04:59Z</time>
      </trkpt>
      <trkpt lat="42.61998" lon="1.70429">
        <ele>2273.399902</ele>
        <time>2018-08-12T10:05:07Z</time>
      </trkpt>
      <trkpt lat="42.61993" lon="1.70439">
        <ele>2269.600098</ele>
        <time>2018-08-12T10:05:15Z</time>
      </trkpt>
      <trkpt lat="42.61986" lon="1.70447">
        <ele>2267.100098</ele>
        <time>2018-08-12T10:05:22Z</time>
      </trkpt>
      <trkpt lat="42.61978" lon="1.70453">
        <ele>2265.399902</ele>
        <time>2018-08-12T10:05:29Z</time>
      </trkpt>
      <trkpt lat="42.61969" lon="1.70462">
        <ele>2263.699951</ele>
        <time>2018-08-12T10:05:36Z</time>
      </trkpt>
      <trkpt lat="42.61964" lon="1.70474">
        <ele>2261.100098</ele>
        <time>2018-08-12T10:05:45Z</time>
      </trkpt>
      <trkpt lat="42.61961" lon="1.70486">
        <ele>2257.699951</ele>
        <time>2018-08-12T10:05:52Z</time>
      </trkpt>
      <trkpt lat="42.61962" lon="1.70498">
        <ele>2253.199951</ele>
        <time>2018-08-12T10:06:04Z</time>
      </trkpt>
      <trkpt lat="42.61971" lon="1.70505">
        <ele>2250</ele>
        <time>2018-08-12T10:07:48Z</time>
      </trkpt>
      <trkpt lat="42.61977" lon="1.70515">
        <ele>2245.100098</ele>
        <time>2018-08-12T10:08:04Z</time>
      </trkpt>
      <trkpt lat="42.61986" lon="1.70518">
        <ele>2242.600098</ele>
        <time>2018-08-12T10:08:30Z</time>
      </trkpt>
      <trkpt lat="42.61994" lon="1.70514">
        <ele>2241.800049</ele>
        <time>2018-08-12T10:09:10Z</time>
      </trkpt>
      <trkpt lat="42.62003" lon="1.70521">
        <ele>2238.800049</ele>
        <time>2018-08-12T10:30:55Z</time>
      </trkpt>
      <trkpt lat="42.62009" lon="1.7053">
        <ele>2234.899902</ele>
        <time>2018-08-12T10:31:03Z</time>
      </trkpt>
      <trkpt lat="42.62016" lon="1.70539">
        <ele>2231</ele>
        <time>2018-08-12T10:31:13Z</time>
      </trkpt>
      <trkpt lat="42.62019" lon="1.70551">
        <ele>2227.600098</ele>
        <time>2018-08-12T10:31:20Z</time>
      </trkpt>
      <trkpt lat="42.62017" lon="1.70564">
        <ele>2223.699951</ele>
        <time>2018-08-12T10:31:28Z</time>
      </trkpt>
      <trkpt lat="42.62021" lon="1.70576">
        <ele>2220.100098</ele>
        <time>2018-08-12T10:31:34Z</time>
      </trkpt>
      <trkpt lat="42.62023" lon="1.70589">
        <ele>2216.300049</ele>
        <time>2018-08-12T10:31:45Z</time>
      </trkpt>
      <trkpt lat="42.62029" lon="1.70598">
        <ele>2214.600098</ele>
        <time>2018-08-12T10:32:00Z</time>
      </trkpt>
      <trkpt lat="42.6203" lon="1.70611">
        <ele>2213.199951</ele>
        <time>2018-08-12T10:32:17Z</time>
      </trkpt>
      <trkpt lat="42.62026" lon="1.70623">
        <ele>2212.399902</ele>
        <time>2018-08-12T10:32:23Z</time>
      </trkpt>
      <trkpt lat="42.62036" lon="1.7062">
        <ele>2211.600098</ele>
        <time>2018-08-12T10:32:44Z</time>
      </trkpt>
      <trkpt lat="42.62042" lon="1.7063">
        <ele>2210.100098</ele>
        <time>2018-08-12T10:33:01Z</time>
      </trkpt>
      <trkpt lat="42.62051" lon="1.70635">
        <ele>2208.699951</ele>
        <time>2018-08-12T10:33:14Z</time>
      </trkpt>
      <trkpt lat="42.62061" lon="1.7064">
        <ele>2207.199951</ele>
        <time>2018-08-12T10:33:21Z</time>
      </trkpt>
      <trkpt lat="42.62068" lon="1.70647">
        <ele>2205.199951</ele>
        <time>2018-08-12T10:33:29Z</time>
      </trkpt>
      <trkpt lat="42.62078" lon="1.70647">
        <ele>2203.699951</ele>
        <time>2018-08-12T10:33:43Z</time>
      </trkpt>
      <trkpt lat="42.62088" lon="1.70645">
        <ele>2202.899902</ele>
        <time>2018-08-12T10:33:51Z</time>
      </trkpt>
      <trkpt lat="42.62098" lon="1.70647">
        <ele>2202.300049</ele>
        <time>2018-08-12T10:34:04Z</time>
      </trkpt>
      <trkpt lat="42.62106" lon="1.70651">
        <ele>2201.699951</ele>
        <time>2018-08-12T10:34:14Z</time>
      </trkpt>
      <trkpt lat="42.62117" lon="1.70658">
        <ele>2200.800049</ele>
        <time>2018-08-12T10:34:23Z</time>
      </trkpt>
      <trkpt lat="42.62124" lon="1.70666">
        <ele>2199.399902</ele>
        <time>2018-08-12T10:34:33Z</time>
      </trkpt>
      <trkpt lat="42.62133" lon="1.70668">
        <ele>2198.800049</ele>
        <time>2018-08-12T10:34:43Z</time>
      </trkpt>
      <trkpt lat="42.62144" lon="1.70682">
        <ele>2198</ele>
        <time>2018-08-12T10:35:16Z</time>
      </trkpt>
      <trkpt lat="42.62153" lon="1.70684">
        <ele>2197.300049</ele>
        <time>2018-08-12T10:35:35Z</time>
      </trkpt>
      <trkpt lat="42.62162" lon="1.70688">
        <ele>2196.600098</ele>
        <time>2018-08-12T10:35:42Z</time>
      </trkpt>
      <trkpt lat="42.62169" lon="1.70697">
        <ele>2195.399902</ele>
        <time>2018-08-12T10:35:52Z</time>
      </trkpt>
      <trkpt lat="42.62176" lon="1.70706">
        <ele>2194.199951</ele>
        <time>2018-08-12T10:36:03Z</time>
      </trkpt>
      <trkpt lat="42.62184" lon="1.70712">
        <ele>2193.100098</ele>
        <time>2018-08-12T10:36:13Z</time>
      </trkpt>
      <trkpt lat="42.6219" lon="1.70723">
        <ele>2191.800049</ele>
        <time>2018-08-12T10:36:24Z</time>
      </trkpt>
      <trkpt lat="42.62198" lon="1.70729">
        <ele>2190.600098</ele>
        <time>2018-08-12T10:36:35Z</time>
      </trkpt>
      <trkpt lat="42.62206" lon="1.70736">
        <ele>2189.5</ele>
        <time>2018-08-12T10:36:47Z</time>
      </trkpt>
      <trkpt lat="42.62214" lon="1.7074">
        <ele>2188.600098</ele>
        <time>2018-08-12T10:36:56Z</time>
      </trkpt>
      <trkpt lat="42.62222" lon="1.70747">
        <ele>2187.5</ele>
        <time>2018-08-12T10:37:04Z</time>
      </trkpt>
      <trkpt lat="42.62229" lon="1.70756">
        <ele>2186.399902</ele>
        <time>2018-08-12T10:37:13Z</time>
      </trkpt>
      <trkpt lat="42.62235" lon="1.70766">
        <ele>2185.600098</ele>
        <time>2018-08-12T10:37:24Z</time>
      </trkpt>
      <trkpt lat="42.62243" lon="1.70775">
        <ele>2184.899902</ele>
        <time>2018-08-12T10:37:36Z</time>
      </trkpt>
      <trkpt lat="42.62248" lon="1.70785">
        <ele>2184.100098</ele>
        <time>2018-08-12T10:37:46Z</time>
      </trkpt>
      <trkpt lat="42.62253" lon="1.70795">
        <ele>2183.199951</ele>
        <time>2018-08-12T10:37:59Z</time>
      </trkpt>
      <trkpt lat="42.62261" lon="1.70801">
        <ele>2182.100098</ele>
        <time>2018-08-12T10:38:10Z</time>
      </trkpt>
      <trkpt lat="42.62267" lon="1.7081">
        <ele>2180.899902</ele>
        <time>2018-08-12T10:38:23Z</time>
      </trkpt>
      <trkpt lat="42.62272" lon="1.70821">
        <ele>2180</ele>
        <time>2018-08-12T10:38:31Z</time>
      </trkpt>
      <trkpt lat="42.62281" lon="1.7082">
        <ele>2178.600098</ele>
        <time>2018-08-12T10:38:47Z</time>
      </trkpt>
      <trkpt lat="42.62289" lon="1.70814">
        <ele>2177.800049</ele>
        <time>2018-08-12T10:39:02Z</time>
      </trkpt>
      <trkpt lat="42.62298" lon="1.70819">
        <ele>2176.699951</ele>
        <time>2018-08-12T10:39:17Z</time>
      </trkpt>
      <trkpt lat="42.62307" lon="1.70819">
        <ele>2175.600098</ele>
        <time>2018-08-12T10:39:25Z</time>
      </trkpt>
      <trkpt lat="42.62316" lon="1.70818">
        <ele>2174.300049</ele>
        <time>2018-08-12T10:39:36Z</time>
      </trkpt>
      <trkpt lat="42.62325" lon="1.70825">
        <ele>2172.899902</ele>
        <time>2018-08-12T10:39:49Z</time>
      </trkpt>
      <trkpt lat="42.62333" lon="1.70828">
        <ele>2171.600098</ele>
        <time>2018-08-12T10:39:59Z</time>
      </trkpt>
      <trkpt lat="42.62343" lon="1.7083">
        <ele>2169.300049</ele>
        <time>2018-08-12T10:40:11Z</time>
      </trkpt>
      <trkpt lat="42.62353" lon="1.70828">
        <ele>2166.899902</ele>
        <time>2018-08-12T10:40:18Z</time>
      </trkpt>
      <trkpt lat="42.62363" lon="1.70824">
        <ele>2164.100098</ele>
        <time>2018-08-12T10:40:28Z</time>
      </trkpt>
      <trkpt lat="42.62372" lon="1.7082">
        <ele>2161.5</ele>
        <time>2018-08-12T10:40:41Z</time>
      </trkpt>
      <trkpt lat="42.62379" lon="1.70812">
        <ele>2160</ele>
        <time>2018-08-12T10:40:49Z</time>
      </trkpt>
      <trkpt lat="42.62386" lon="1.70805">
        <ele>2159.100098</ele>
        <time>2018-08-12T10:40:56Z</time>
      </trkpt>
      <trkpt lat="42.62396" lon="1.70802">
        <ele>2156.899902</ele>
        <time>2018-08-12T10:41:08Z</time>
      </trkpt>
      <trkpt lat="42.62404" lon="1.70795">
        <ele>2155.300049</ele>
        <time>2018-08-12T10:41:24Z</time>
      </trkpt>
      <trkpt lat="42.62413" lon="1.70797">
        <ele>2153.199951</ele>
        <time>2018-08-12T10:41:36Z</time>
      </trkpt>
      <trkpt lat="42.6242" lon="1.70788">
        <ele>2152.300049</ele>
        <time>2018-08-12T10:41:53Z</time>
      </trkpt>
      <trkpt lat="42.62422" lon="1.70774">
        <ele>2153.300049</ele>
        <time>2018-08-12T10:41:59Z</time>
      </trkpt>
      <trkpt lat="42.62427" lon="1.70761">
        <ele>2154.199951</ele>
        <time>2018-08-12T10:42:03Z</time>
      </trkpt>
      <trkpt lat="42.62436" lon="1.70757">
        <ele>2155.300049</ele>
        <time>2018-08-12T10:42:25Z</time>
      </trkpt>
      <trkpt lat="42.62446" lon="1.70759">
        <ele>2154.399902</ele>
        <time>2018-08-12T10:42:35Z</time>
      </trkpt>
      <trkpt lat="42.62454" lon="1.70767">
        <ele>2153.399902</ele>
        <time>2018-08-12T10:42:52Z</time>
      </trkpt>
      <trkpt lat="42.62462" lon="1.70772">
        <ele>2152.600098</ele>
        <time>2018-08-12T10:42:58Z</time>
      </trkpt>
      <trkpt lat="42.6247" lon="1.70779">
        <ele>2151.699951</ele>
        <time>2018-08-12T10:43:08Z</time>
      </trkpt>
      <trkpt lat="42.62479" lon="1.70782">
        <ele>2151.199951</ele>
        <time>2018-08-12T10:43:20Z</time>
      </trkpt>
      <trkpt lat="42.62488" lon="1.70781">
        <ele>2150.699951</ele>
        <time>2018-08-12T10:43:49Z</time>
      </trkpt>
      <trkpt lat="42.62497" lon="1.70786">
        <ele>2150.399902</ele>
        <time>2018-08-12T10:44:01Z</time>
      </trkpt>
      <trkpt lat="42.62507" lon="1.70785">
        <ele>2150.300049</ele>
        <time>2018-08-12T10:44:09Z</time>
      </trkpt>
      <trkpt lat="42.62516" lon="1.70781">
        <ele>2150.600098</ele>
        <time>2018-08-12T10:44:15Z</time>
      </trkpt>
      <trkpt lat="42.62524" lon="1.70776">
        <ele>2151.100098</ele>
        <time>2018-08-12T10:44:26Z</time>
      </trkpt>
      <trkpt lat="42.62533" lon="1.70775">
        <ele>2151.399902</ele>
        <time>2018-08-12T10:44:39Z</time>
      </trkpt>
      <trkpt lat="42.62542" lon="1.7078">
        <ele>2151.600098</ele>
        <time>2018-08-12T10:44:52Z</time>
      </trkpt>
      <trkpt lat="42.6255" lon="1.70772">
        <ele>2151.899902</ele>
        <time>2018-08-12T10:45:02Z</time>
      </trkpt>
      <trkpt lat="42.62559" lon="1.70768">
        <ele>2152.399902</ele>
        <time>2018-08-12T10:45:10Z</time>
      </trkpt>
      <trkpt lat="42.62568" lon="1.70767">
        <ele>2152.800049</ele>
        <time>2018-08-12T10:45:20Z</time>
      </trkpt>
      <trkpt lat="42.62577" lon="1.70765">
        <ele>2153.100098</ele>
        <time>2018-08-12T10:45:27Z</time>
      </trkpt>
      <trkpt lat="42.62587" lon="1.70763">
        <ele>2153.600098</ele>
        <time>2018-08-12T10:45:40Z</time>
      </trkpt>
      <trkpt lat="42.62596" lon="1.70762">
        <ele>2154</ele>
        <time>2018-08-12T10:45:49Z</time>
      </trkpt>
      <trkpt lat="42.62605" lon="1.70765">
        <ele>2154.300049</ele>
        <time>2018-08-12T10:46:00Z</time>
      </trkpt>
      <trkpt lat="42.62614" lon="1.70766">
        <ele>2154.699951</ele>
        <time>2018-08-12T10:46:09Z</time>
      </trkpt>
      <trkpt lat="42.62624" lon="1.70769">
        <ele>2155</ele>
        <time>2018-08-12T10:46:15Z</time>
      </trkpt>
      <trkpt lat="42.62632" lon="1.70776">
        <ele>2155.100098</ele>
        <time>2018-08-12T10:46:25Z</time>
      </trkpt>
      <trkpt lat="42.6264" lon="1.70784">
        <ele>2155</ele>
        <time>2018-08-12T10:46:34Z</time>
      </trkpt>
      <trkpt lat="42.62647" lon="1.70793">
        <ele>2154.800049</ele>
        <time>2018-08-12T10:46:42Z</time>
      </trkpt>
      <trkpt lat="42.62653" lon="1.70801">
        <ele>2154.600098</ele>
        <time>2018-08-12T10:46:49Z</time>
      </trkpt>
      <trkpt lat="42.62663" lon="1.70808">
        <ele>2154.5</ele>
        <time>2018-08-12T10:47:00Z</time>
      </trkpt>
      <trkpt lat="42.6267" lon="1.70817">
        <ele>2154.100098</ele>
        <time>2018-08-12T10:47:09Z</time>
      </trkpt>
      <trkpt lat="42.62678" lon="1.70825">
        <ele>2153.600098</ele>
        <time>2018-08-12T10:47:20Z</time>
      </trkpt>
      <trkpt lat="42.62684" lon="1.70834">
        <ele>2153.199951</ele>
        <time>2018-08-12T10:47:27Z</time>
      </trkpt>
      <trkpt lat="42.62692" lon="1.70842">
        <ele>2152.600098</ele>
        <time>2018-08-12T10:47:36Z</time>
      </trkpt>
      <trkpt lat="42.62699" lon="1.70849">
        <ele>2152.199951</ele>
        <time>2018-08-12T10:47:43Z</time>
      </trkpt>
      <trkpt lat="42.62706" lon="1.70857">
        <ele>2151.600098</ele>
        <time>2018-08-12T10:47:50Z</time>
      </trkpt>
      <trkpt lat="42.62715" lon="1.70863">
        <ele>2151.199951</ele>
        <time>2018-08-12T10:47:59Z</time>
      </trkpt>
      <trkpt lat="42.62723" lon="1.70869">
        <ele>2151</ele>
        <time>2018-08-12T10:48:08Z</time>
      </trkpt>
      <trkpt lat="42.62732" lon="1.70872">
        <ele>2150.899902</ele>
        <time>2018-08-12T10:48:20Z</time>
      </trkpt>
      <trkpt lat="42.62742" lon="1.70873">
        <ele>2150.899902</ele>
        <time>2018-08-12T10:48:31Z</time>
      </trkpt>
      <trkpt lat="42.62751" lon="1.70871">
        <ele>2151.100098</ele>
        <time>2018-08-12T10:48:38Z</time>
      </trkpt>
      <trkpt lat="42.62761" lon="1.70874">
        <ele>2151.199951</ele>
        <time>2018-08-12T10:51:15Z</time>
      </trkpt>
      <trkpt lat="42.6277" lon="1.7087">
        <ele>2151.399902</ele>
        <time>2018-08-12T10:51:25Z</time>
      </trkpt>
      <trkpt lat="42.62779" lon="1.70867">
        <ele>2151.600098</ele>
        <time>2018-08-12T10:51:32Z</time>
      </trkpt>
      <trkpt lat="42.62789" lon="1.70866">
        <ele>2151.800049</ele>
        <time>2018-08-12T10:51:40Z</time>
      </trkpt>
      <trkpt lat="42.62798" lon="1.70866">
        <ele>2151.899902</ele>
        <time>2018-08-12T10:51:49Z</time>
      </trkpt>
      <trkpt lat="42.62808" lon="1.70863">
        <ele>2152.100098</ele>
        <time>2018-08-12T10:51:59Z</time>
      </trkpt>
      <trkpt lat="42.62817" lon="1.70863">
        <ele>2152.399902</ele>
        <time>2018-08-12T10:52:08Z</time>
      </trkpt>
      <trkpt lat="42.62826" lon="1.70869">
        <ele>2152.100098</ele>
        <time>2018-08-12T10:52:17Z</time>
      </trkpt>
      <trkpt lat="42.62835" lon="1.7087">
        <ele>2152.100098</ele>
        <time>2018-08-12T10:52:24Z</time>
      </trkpt>
      <trkpt lat="42.62844" lon="1.70871">
        <ele>2152.600098</ele>
        <time>2018-08-12T10:52:33Z</time>
      </trkpt>
      <trkpt lat="42.62853" lon="1.70863">
        <ele>2154</ele>
        <time>2018-08-12T10:52:43Z</time>
      </trkpt>
      <trkpt lat="42.62862" lon="1.70859">
        <ele>2155.399902</ele>
        <time>2018-08-12T10:52:51Z</time>
      </trkpt>
      <trkpt lat="42.62871" lon="1.70854">
        <ele>2156.899902</ele>
        <time>2018-08-12T10:52:58Z</time>
      </trkpt>
      <trkpt lat="42.62881" lon="1.70859">
        <ele>2157.899902</ele>
        <time>2018-08-12T10:53:08Z</time>
      </trkpt>
      <trkpt lat="42.6289" lon="1.70862">
        <ele>2158.199951</ele>
        <time>2018-08-12T10:53:16Z</time>
      </trkpt>
      <trkpt lat="42.62899" lon="1.70867">
        <ele>2158.699951</ele>
        <time>2018-08-12T10:53:22Z</time>
      </trkpt>
      <trkpt lat="42.62908" lon="1.70872">
        <ele>2158.800049</ele>
        <time>2018-08-12T10:53:29Z</time>
      </trkpt>
      <trkpt lat="42.62915" lon="1.70881">
        <ele>2158.399902</ele>
        <time>2018-08-12T10:53:35Z</time>
      </trkpt>
      <trkpt lat="42.62919" lon="1.70893">
        <ele>2157.100098</ele>
        <time>2018-08-12T10:53:41Z</time>
      </trkpt>
      <trkpt lat="42.62923" lon="1.70905">
        <ele>2155.600098</ele>
        <time>2018-08-12T10:53:47Z</time>
      </trkpt>
      <trkpt lat="42.62929" lon="1.70914">
        <ele>2154.399902</ele>
        <time>2018-08-12T10:53:55Z</time>
      </trkpt>
      <trkpt lat="42.62936" lon="1.70923">
        <ele>2154.199951</ele>
        <time>2018-08-12T10:54:11Z</time>
      </trkpt>
      <trkpt lat="42.62944" lon="1.70931">
        <ele>2154.5</ele>
        <time>2018-08-12T10:54:20Z</time>
      </trkpt>
      <trkpt lat="42.62953" lon="1.70934">
        <ele>2155.600098</ele>
        <time>2018-08-12T10:54:30Z</time>
      </trkpt>
      <trkpt lat="42.62962" lon="1.70937">
        <ele>2156.600098</ele>
        <time>2018-08-12T10:54:39Z</time>
      </trkpt>
      <trkpt lat="42.6297" lon="1.70944">
        <ele>2157.600098</ele>
        <time>2018-08-12T10:54:46Z</time>
      </trkpt>
      <trkpt lat="42.6298" lon="1.70949">
        <ele>2158.699951</ele>
        <time>2018-08-12T10:54:52Z</time>
      </trkpt>
      <trkpt lat="42.62988" lon="1.70955">
        <ele>2160.100098</ele>
        <time>2018-08-12T10:55:26Z</time>
      </trkpt>
      <trkpt lat="42.62996" lon="1.70962">
        <ele>2161</ele>
        <time>2018-08-12T10:55:37Z</time>
      </trkpt>
      <trkpt lat="42.63005" lon="1.70968">
        <ele>2161.699951</ele>
        <time>2018-08-12T10:55:44Z</time>
      </trkpt>
      <trkpt lat="42.63013" lon="1.70975">
        <ele>2161.800049</ele>
        <time>2018-08-12T10:55:52Z</time>
      </trkpt>
      <trkpt lat="42.63022" lon="1.70982">
        <ele>2162</ele>
        <time>2018-08-12T10:56:01Z</time>
      </trkpt>
      <trkpt lat="42.6303" lon="1.7099">
        <ele>2162.300049</ele>
        <time>2018-08-12T10:56:07Z</time>
      </trkpt>
      <trkpt lat="42.63034" lon="1.71002">
        <ele>2162.899902</ele>
        <time>2018-08-12T10:56:14Z</time>
      </trkpt>
      <trkpt lat="42.63043" lon="1.71008">
        <ele>2163.5</ele>
        <time>2018-08-12T10:56:24Z</time>
      </trkpt>
      <trkpt lat="42.63051" lon="1.71015">
        <ele>2164.300049</ele>
        <time>2018-08-12T10:56:34Z</time>
      </trkpt>
      <trkpt lat="42.63056" lon="1.71026">
        <ele>2165.100098</ele>
        <time>2018-08-12T10:56:43Z</time>
      </trkpt>
      <trkpt lat="42.63056" lon="1.71039">
        <ele>2165.699951</ele>
        <time>2018-08-12T10:56:51Z</time>
      </trkpt>
      <trkpt lat="42.63055" lon="1.71051">
        <ele>2166.100098</ele>
        <time>2018-08-12T10:56:58Z</time>
      </trkpt>
      <trkpt lat="42.63054" lon="1.71063">
        <ele>2166.5</ele>
        <time>2018-08-12T10:57:05Z</time>
      </trkpt>
      <trkpt lat="42.63048" lon="1.71074">
        <ele>2166.300049</ele>
        <time>2018-08-12T10:57:14Z</time>
      </trkpt>
      <trkpt lat="42.63044" lon="1.71086">
        <ele>2165.600098</ele>
        <time>2018-08-12T10:57:24Z</time>
      </trkpt>
      <trkpt lat="42.63044" lon="1.711">
        <ele>2165.199951</ele>
        <time>2018-08-12T10:57:32Z</time>
      </trkpt>
      <trkpt lat="42.63043" lon="1.71112">
        <ele>2164.800049</ele>
        <time>2018-08-12T10:57:39Z</time>
      </trkpt>
      <trkpt lat="42.63041" lon="1.71124">
        <ele>2164.399902</ele>
        <time>2018-08-12T10:57:47Z</time>
      </trkpt>
      <trkpt lat="42.6304" lon="1.71137">
        <ele>2163.899902</ele>
        <time>2018-08-12T10:57:54Z</time>
      </trkpt>
      <trkpt lat="42.63036" lon="1.71149">
        <ele>2163</ele>
        <time>2018-08-12T10:58:02Z</time>
      </trkpt>
      <trkpt lat="42.63033" lon="1.71161">
        <ele>2162.100098</ele>
        <time>2018-08-12T10:58:10Z</time>
      </trkpt>
      <trkpt lat="42.63033" lon="1.71174">
        <ele>2161.600098</ele>
        <time>2018-08-12T10:58:21Z</time>
      </trkpt>
      <trkpt lat="42.63033" lon="1.71188">
        <ele>2161.600098</ele>
        <time>2018-08-12T10:58:49Z</time>
      </trkpt>
      <trkpt lat="42.63037" lon="1.712">
        <ele>2162.5</ele>
        <time>2018-08-12T10:58:58Z</time>
      </trkpt>
      <trkpt lat="42.63038" lon="1.71212">
        <ele>2163.300049</ele>
        <time>2018-08-12T10:59:05Z</time>
      </trkpt>
      <trkpt lat="42.63041" lon="1.71225">
        <ele>2164.100098</ele>
        <time>2018-08-12T10:59:14Z</time>
      </trkpt>
      <trkpt lat="42.63045" lon="1.71238">
        <ele>2165.199951</ele>
        <time>2018-08-12T10:59:23Z</time>
      </trkpt>
      <trkpt lat="42.63051" lon="1.71249">
        <ele>2166.800049</ele>
        <time>2018-08-12T10:59:31Z</time>
      </trkpt>
      <trkpt lat="42.63055" lon="1.71261">
        <ele>2167.5</ele>
        <time>2018-08-12T10:59:39Z</time>
      </trkpt>
      <trkpt lat="42.63059" lon="1.71273">
        <ele>2167.399902</ele>
        <time>2018-08-12T10:59:49Z</time>
      </trkpt>
      <trkpt lat="42.63061" lon="1.71285">
        <ele>2166.899902</ele>
        <time>2018-08-12T11:05:09Z</time>
      </trkpt>
      <trkpt lat="42.63065" lon="1.71297">
        <ele>2166.600098</ele>
        <time>2018-08-12T11:05:15Z</time>
      </trkpt>
      <trkpt lat="42.63067" lon="1.7131">
        <ele>2165.800049</ele>
        <time>2018-08-12T11:05:23Z</time>
      </trkpt>
      <trkpt lat="42.6307" lon="1.71322">
        <ele>2165.199951</ele>
        <time>2018-08-12T11:05:31Z</time>
      </trkpt>
      <trkpt lat="42.63074" lon="1.71334">
        <ele>2164.899902</ele>
        <time>2018-08-12T11:05:39Z</time>
      </trkpt>
      <trkpt lat="42.63078" lon="1.71344">
        <ele>2163.300049</ele>
        <time>2018-08-12T11:05:48Z</time>
      </trkpt>
      <trkpt lat="42.63087" lon="1.7135">
        <ele>2162.600098</ele>
        <time>2018-08-12T11:05:59Z</time>
      </trkpt>
      <trkpt lat="42.63094" lon="1.71357">
        <ele>2161.300049</ele>
        <time>2018-08-12T11:06:10Z</time>
      </trkpt>
      <trkpt lat="42.63103" lon="1.71364">
        <ele>2159.899902</ele>
        <time>2018-08-12T11:06:19Z</time>
      </trkpt>
      <trkpt lat="42.63112" lon="1.71371">
        <ele>2158.199951</ele>
        <time>2018-08-12T11:06:27Z</time>
      </trkpt>
      <trkpt lat="42.6312" lon="1.71379">
        <ele>2156.5</ele>
        <time>2018-08-12T11:06:35Z</time>
      </trkpt>
      <trkpt lat="42.63128" lon="1.71387">
        <ele>2154.899902</ele>
        <time>2018-08-12T11:06:41Z</time>
      </trkpt>
      <trkpt lat="42.63136" lon="1.71394">
        <ele>2153.199951</ele>
        <time>2018-08-12T11:06:50Z</time>
      </trkpt>
      <trkpt lat="42.63145" lon="1.714">
        <ele>2152.300049</ele>
        <time>2018-08-12T11:06:57Z</time>
      </trkpt>
      <trkpt lat="42.63154" lon="1.71406">
        <ele>2150.600098</ele>
        <time>2018-08-12T11:07:21Z</time>
      </trkpt>
      <trkpt lat="42.6316" lon="1.71415">
        <ele>2149.800049</ele>
        <time>2018-08-12T11:07:27Z</time>
      </trkpt>
      <trkpt lat="42.63167" lon="1.71425">
        <ele>2147.199951</ele>
        <time>2018-08-12T11:07:37Z</time>
      </trkpt>
      <trkpt lat="42.63174" lon="1.71434">
        <ele>2141.399902</ele>
        <time>2018-08-12T11:07:47Z</time>
      </trkpt>
      <trkpt lat="42.6318" lon="1.71442">
        <ele>2135</ele>
        <time>2018-08-12T11:07:55Z</time>
      </trkpt>
      <trkpt lat="42.63188" lon="1.71451">
        <ele>2129.100098</ele>
        <time>2018-08-12T11:08:02Z</time>
      </trkpt>
      <trkpt lat="42.63196" lon="1.71459">
        <ele>2122.100098</ele>
        <time>2018-08-12T11:08:11Z</time>
      </trkpt>
      <trkpt lat="42.63203" lon="1.71467">
        <ele>2116.399902</ele>
        <time>2018-08-12T11:08:21Z</time>
      </trkpt>
      <trkpt lat="42.63212" lon="1.71473">
        <ele>2111.800049</ele>
        <time>2018-08-12T11:08:29Z</time>
      </trkpt>
      <trkpt lat="42.63219" lon="1.71481">
        <ele>2106.699951</ele>
        <time>2018-08-12T11:08:36Z</time>
      </trkpt>
      <trkpt lat="42.63228" lon="1.71486">
        <ele>2101.600098</ele>
        <time>2018-08-12T11:08:46Z</time>
      </trkpt>
      <trkpt lat="42.63236" lon="1.71492">
        <ele>2097.699951</ele>
        <time>2018-08-12T11:08:55Z</time>
      </trkpt>
      <trkpt lat="42.63245" lon="1.71496">
        <ele>2093.800049</ele>
        <time>2018-08-12T11:09:04Z</time>
      </trkpt>
      <trkpt lat="42.63254" lon="1.71499">
        <ele>2090.199951</ele>
        <time>2018-08-12T11:09:14Z</time>
      </trkpt>
      <trkpt lat="42.63263" lon="1.71499">
        <ele>2088.5</ele>
        <time>2018-08-12T11:09:24Z</time>
      </trkpt>
      <trkpt lat="42.63273" lon="1.715">
        <ele>2086.899902</ele>
        <time>2018-08-12T11:09:35Z</time>
      </trkpt>
      <trkpt lat="42.63282" lon="1.71502">
        <ele>2085.199951</ele>
        <time>2018-08-12T11:09:47Z</time>
      </trkpt>
      <trkpt lat="42.63291" lon="1.71497">
        <ele>2083.899902</ele>
        <time>2018-08-12T11:09:58Z</time>
      </trkpt>
      <trkpt lat="42.633" lon="1.71495">
        <ele>2082.600098</ele>
        <time>2018-08-12T11:10:07Z</time>
      </trkpt>
      <trkpt lat="42.63309" lon="1.71492">
        <ele>2081</ele>
        <time>2018-08-12T11:10:17Z</time>
      </trkpt>
      <trkpt lat="42.63318" lon="1.71486">
        <ele>2079.199951</ele>
        <time>2018-08-12T11:10:28Z</time>
      </trkpt>
      <trkpt lat="42.63327" lon="1.71481">
        <ele>2076.899902</ele>
        <time>2018-08-12T11:10:42Z</time>
      </trkpt>
      <trkpt lat="42.63332" lon="1.71491">
        <ele>2076.300049</ele>
        <time>2018-08-12T11:10:52Z</time>
      </trkpt>
      <trkpt lat="42.63341" lon="1.71486">
        <ele>2075.399902</ele>
        <time>2018-08-12T11:11:12Z</time>
      </trkpt>
      <trkpt lat="42.63349" lon="1.71479">
        <ele>2073.800049</ele>
        <time>2018-08-12T11:11:23Z</time>
      </trkpt>
      <trkpt lat="42.63357" lon="1.71471">
        <ele>2072.199951</ele>
        <time>2018-08-12T11:11:32Z</time>
      </trkpt>
      <trkpt lat="42.63366" lon="1.7147">
        <ele>2070.699951</ele>
        <time>2018-08-12T11:11:40Z</time>
      </trkpt>
      <trkpt lat="42.63376" lon="1.7147">
        <ele>2069.399902</ele>
        <time>2018-08-12T11:11:48Z</time>
      </trkpt>
      <trkpt lat="42.63385" lon="1.71474">
        <ele>2068.600098</ele>
        <time>2018-08-12T11:11:56Z</time>
      </trkpt>
      <trkpt lat="42.63393" lon="1.71481">
        <ele>2068.600098</ele>
        <time>2018-08-12T11:12:02Z</time>
      </trkpt>
      <trkpt lat="42.63399" lon="1.71489">
        <ele>2069.199951</ele>
        <time>2018-08-12T11:12:10Z</time>
      </trkpt>
      <trkpt lat="42.63409" lon="1.7149">
        <ele>2068.899902</ele>
        <time>2018-08-12T11:12:20Z</time>
      </trkpt>
      <trkpt lat="42.63418" lon="1.71484">
        <ele>2067.199951</ele>
        <time>2018-08-12T11:12:32Z</time>
      </trkpt>
      <trkpt lat="42.63428" lon="1.7148">
        <ele>2064.300049</ele>
        <time>2018-08-12T11:12:40Z</time>
      </trkpt>
      <trkpt lat="42.63436" lon="1.71471">
        <ele>2061</ele>
        <time>2018-08-12T11:12:50Z</time>
      </trkpt>
      <trkpt lat="42.63445" lon="1.71468">
        <ele>2058.5</ele>
        <time>2018-08-12T11:13:05Z</time>
      </trkpt>
      <trkpt lat="42.63453" lon="1.71463">
        <ele>2055.899902</ele>
        <time>2018-08-12T11:13:16Z</time>
      </trkpt>
      <trkpt lat="42.63462" lon="1.71459">
        <ele>2053.800049</ele>
        <time>2018-08-12T11:13:36Z</time>
      </trkpt>
      <trkpt lat="42.63471" lon="1.71457">
        <ele>2051.899902</ele>
        <time>2018-08-12T11:13:44Z</time>
      </trkpt>
      <trkpt lat="42.6348" lon="1.71458">
        <ele>2050.100098</ele>
        <time>2018-08-12T11:13:52Z</time>
      </trkpt>
      <trkpt lat="42.63489" lon="1.71454">
        <ele>2048.300049</ele>
        <time>2018-08-12T11:14:03Z</time>
      </trkpt>
      <trkpt lat="42.63498" lon="1.7145">
        <ele>2046.400024</ele>
        <time>2018-08-12T11:14:15Z</time>
      </trkpt>
      <trkpt lat="42.63505" lon="1.71442">
        <ele>2044</ele>
        <time>2018-08-12T11:14:30Z</time>
      </trkpt>
      <trkpt lat="42.63514" lon="1.71437">
        <ele>2040.5</ele>
        <time>2018-08-12T11:15:20Z</time>
      </trkpt>
      <trkpt lat="42.63523" lon="1.71433">
        <ele>2037.300049</ele>
        <time>2018-08-12T11:15:32Z</time>
      </trkpt>
      <trkpt lat="42.63529" lon="1.71424">
        <ele>2034.400024</ele>
        <time>2018-08-12T11:15:43Z</time>
      </trkpt>
      <trkpt lat="42.63539" lon="1.71422">
        <ele>2031.800049</ele>
        <time>2018-08-12T11:15:53Z</time>
      </trkpt>
      <trkpt lat="42.63548" lon="1.71417">
        <ele>2028.699951</ele>
        <time>2018-08-12T11:16:00Z</time>
      </trkpt>
      <trkpt lat="42.63554" lon="1.71408">
        <ele>2025.5</ele>
        <time>2018-08-12T11:16:08Z</time>
      </trkpt>
      <trkpt lat="42.63559" lon="1.71398">
        <ele>2022.800049</ele>
        <time>2018-08-12T11:16:16Z</time>
      </trkpt>
      <trkpt lat="42.6357" lon="1.71391">
        <ele>2019</ele>
        <time>2018-08-12T11:17:12Z</time>
      </trkpt>
      <trkpt lat="42.63575" lon="1.7138">
        <ele>2016.699951</ele>
        <time>2018-08-12T11:17:21Z</time>
      </trkpt>
      <trkpt lat="42.63581" lon="1.7137">
        <ele>2015</ele>
        <time>2018-08-12T11:17:30Z</time>
      </trkpt>
      <trkpt lat="42.63585" lon="1.71358">
        <ele>2013.5</ele>
        <time>2018-08-12T11:17:44Z</time>
      </trkpt>
      <trkpt lat="42.63593" lon="1.71351">
        <ele>2010.800049</ele>
        <time>2018-08-12T11:17:51Z</time>
      </trkpt>
      <trkpt lat="42.63599" lon="1.71342">
        <ele>2006.800049</ele>
        <time>2018-08-12T11:18:02Z</time>
      </trkpt>
      <trkpt lat="42.63605" lon="1.71332">
        <ele>2003.099976</ele>
        <time>2018-08-12T11:18:15Z</time>
      </trkpt>
      <trkpt lat="42.63614" lon="1.71329">
        <ele>1999</ele>
        <time>2018-08-12T11:18:51Z</time>
      </trkpt>
      <trkpt lat="42.63613" lon="1.71317">
        <ele>1995.300049</ele>
        <time>2018-08-12T11:19:03Z</time>
      </trkpt>
      <trkpt lat="42.63618" lon="1.71305">
        <ele>1991.400024</ele>
        <time>2018-08-12T11:19:15Z</time>
      </trkpt>
      <trkpt lat="42.63624" lon="1.71294">
        <ele>1987</ele>
        <time>2018-08-12T11:19:25Z</time>
      </trkpt>
      <trkpt lat="42.63626" lon="1.71281">
        <ele>1983.199951</ele>
        <time>2018-08-12T11:19:33Z</time>
      </trkpt>
      <trkpt lat="42.63631" lon="1.71271">
        <ele>1978.300049</ele>
        <time>2018-08-12T11:19:45Z</time>
      </trkpt>
      <trkpt lat="42.63638" lon="1.71261">
        <ele>1974.199951</ele>
        <time>2018-08-12T11:19:55Z</time>
      </trkpt>
      <trkpt lat="42.63642" lon="1.7125">
        <ele>1970.099976</ele>
        <time>2018-08-12T11:20:04Z</time>
      </trkpt>
      <trkpt lat="42.63647" lon="1.71239">
        <ele>1966.199951</ele>
        <time>2018-08-12T11:20:15Z</time>
      </trkpt>
      <trkpt lat="42.63656" lon="1.71233">
        <ele>1962.099976</ele>
        <time>2018-08-12T11:20:25Z</time>
      </trkpt>
      <trkpt lat="42.63665" lon="1.71227">
        <ele>1958</ele>
        <time>2018-08-12T11:20:37Z</time>
      </trkpt>
      <trkpt lat="42.63672" lon="1.7122">
        <ele>1953.800049</ele>
        <time>2018-08-12T11:20:48Z</time>
      </trkpt>
      <trkpt lat="42.63681" lon="1.71214">
        <ele>1949.699951</ele>
        <time>2018-08-12T11:21:02Z</time>
      </trkpt>
      <trkpt lat="42.63689" lon="1.7121">
        <ele>1946.699951</ele>
        <time>2018-08-12T11:21:10Z</time>
      </trkpt>
      <trkpt lat="42.63698" lon="1.7121">
        <ele>1943.099976</ele>
        <time>2018-08-12T11:21:18Z</time>
      </trkpt>
      <trkpt lat="42.63705" lon="1.71201">
        <ele>1939.5</ele>
        <time>2018-08-12T11:21:29Z</time>
      </trkpt>
      <trkpt lat="42.63712" lon="1.71193">
        <ele>1936.300049</ele>
        <time>2018-08-12T11:21:38Z</time>
      </trkpt>
      <trkpt lat="42.6372" lon="1.71187">
        <ele>1932.599976</ele>
        <time>2018-08-12T11:21:46Z</time>
      </trkpt>
      <trkpt lat="42.63729" lon="1.71182">
        <ele>1928.900024</ele>
        <time>2018-08-12T11:22:33Z</time>
      </trkpt>
      <trkpt lat="42.63737" lon="1.71175">
        <ele>1925.5</ele>
        <time>2018-08-12T11:22:41Z</time>
      </trkpt>
      <trkpt lat="42.63742" lon="1.71165">
        <ele>1921.900024</ele>
        <time>2018-08-12T11:22:51Z</time>
      </trkpt>
      <trkpt lat="42.63746" lon="1.71154">
        <ele>1918.699951</ele>
        <time>2018-08-12T11:23:06Z</time>
      </trkpt>
      <trkpt lat="42.6375" lon="1.71142">
        <ele>1916.099976</ele>
        <time>2018-08-12T11:23:17Z</time>
      </trkpt>
      <trkpt lat="42.63757" lon="1.71133">
        <ele>1913.199951</ele>
        <time>2018-08-12T11:23:28Z</time>
      </trkpt>
      <trkpt lat="42.63765" lon="1.71126">
        <ele>1910</ele>
        <time>2018-08-12T11:23:39Z</time>
      </trkpt>
      <trkpt lat="42.63769" lon="1.71115">
        <ele>1907.300049</ele>
        <time>2018-08-12T11:23:48Z</time>
      </trkpt>
      <trkpt lat="42.63778" lon="1.7112">
        <ele>1904.300049</ele>
        <time>2018-08-12T11:24:49Z</time>
      </trkpt>
      <trkpt lat="42.63785" lon="1.71109">
        <ele>1902.5</ele>
        <time>2018-08-12T11:24:55Z</time>
      </trkpt>
      <trkpt lat="42.63789" lon="1.71098">
        <ele>1899.300049</ele>
        <time>2018-08-12T11:25:04Z</time>
      </trkpt>
      <trkpt lat="42.63789" lon="1.71085">
        <ele>1897.5</ele>
        <time>2018-08-12T11:25:13Z</time>
      </trkpt>
      <trkpt lat="42.63796" lon="1.71076">
        <ele>1894.900024</ele>
        <time>2018-08-12T11:25:23Z</time>
      </trkpt>
      <trkpt lat="42.63798" lon="1.71062">
        <ele>1893.099976</ele>
        <time>2018-08-12T11:25:30Z</time>
      </trkpt>
      <trkpt lat="42.63803" lon="1.7105">
        <ele>1891</ele>
        <time>2018-08-12T11:25:39Z</time>
      </trkpt>
      <trkpt lat="42.63807" lon="1.71038">
        <ele>1889.099976</ele>
        <time>2018-08-12T11:25:51Z</time>
      </trkpt>
      <trkpt lat="42.63814" lon="1.7103">
        <ele>1887</ele>
        <time>2018-08-12T11:25:59Z</time>
      </trkpt>
      <trkpt lat="42.63823" lon="1.71032">
        <ele>1884.699951</ele>
        <time>2018-08-12T11:26:11Z</time>
      </trkpt>
      <trkpt lat="42.63829" lon="1.71042">
        <ele>1883.800049</ele>
        <time>2018-08-12T11:26:19Z</time>
      </trkpt>
      <trkpt lat="42.63834" lon="1.71054">
        <ele>1883.400024</ele>
        <time>2018-08-12T11:26:26Z</time>
      </trkpt>
      <trkpt lat="42.63841" lon="1.71063">
        <ele>1883.599976</ele>
        <time>2018-08-12T11:26:36Z</time>
      </trkpt>
      <trkpt lat="42.63849" lon="1.71072">
        <ele>1884.199951</ele>
        <time>2018-08-12T11:26:48Z</time>
      </trkpt>
      <trkpt lat="42.63857" lon="1.71077">
        <ele>1884.599976</ele>
        <time>2018-08-12T11:27:10Z</time>
      </trkpt>
      <trkpt lat="42.63867" lon="1.71077">
        <ele>1884.5</ele>
        <time>2018-08-12T11:27:33Z</time>
      </trkpt>
      <trkpt lat="42.63874" lon="1.71084">
        <ele>1884.900024</ele>
        <time>2018-08-12T11:27:42Z</time>
      </trkpt>
      <trkpt lat="42.63883" lon="1.71085">
        <ele>1885.199951</ele>
        <time>2018-08-12T11:27:56Z</time>
      </trkpt>
      <trkpt lat="42.63892" lon="1.71093">
        <ele>1885.5</ele>
        <time>2018-08-12T11:28:41Z</time>
      </trkpt>
      <trkpt lat="42.63899" lon="1.711">
        <ele>1886.599976</ele>
        <time>2018-08-12T11:28:53Z</time>
      </trkpt>
      <trkpt lat="42.63909" lon="1.71101">
        <ele>1886.699951</ele>
        <time>2018-08-12T11:29:07Z</time>
      </trkpt>
      <trkpt lat="42.63918" lon="1.71108">
        <ele>1887.099976</ele>
        <time>2018-08-12T11:29:14Z</time>
      </trkpt>
      <trkpt lat="42.63922" lon="1.71121">
        <ele>1888.599976</ele>
        <time>2018-08-12T11:29:23Z</time>
      </trkpt>
      <trkpt lat="42.63927" lon="1.71133">
        <ele>1890.199951</ele>
        <time>2018-08-12T11:29:32Z</time>
      </trkpt>
      <trkpt lat="42.63936" lon="1.71136">
        <ele>1891.5</ele>
        <time>2018-08-12T11:29:42Z</time>
      </trkpt>
      <trkpt lat="42.63946" lon="1.71139">
        <ele>1892.5</ele>
        <time>2018-08-12T11:29:52Z</time>
      </trkpt>
      <trkpt lat="42.63954" lon="1.71145">
        <ele>1893.599976</ele>
        <time>2018-08-12T11:29:59Z</time>
      </trkpt>
      <trkpt lat="42.63963" lon="1.71153">
        <ele>1894.800049</ele>
        <time>2018-08-12T11:30:09Z</time>
      </trkpt>
      <trkpt lat="42.63969" lon="1.71164">
        <ele>1896.099976</ele>
        <time>2018-08-12T11:30:16Z</time>
      </trkpt>
      <trkpt lat="42.63974" lon="1.71176">
        <ele>1897.300049</ele>
        <time>2018-08-12T11:30:24Z</time>
      </trkpt>
      <trkpt lat="42.63983" lon="1.71181">
        <ele>1898.699951</ele>
        <time>2018-08-12T11:30:37Z</time>
      </trkpt>
      <trkpt lat="42.63989" lon="1.71169">
        <ele>1898.599976</ele>
        <time>2018-08-12T11:30:47Z</time>
      </trkpt>
      <trkpt lat="42.6399" lon="1.71156">
        <ele>1897.900024</ele>
        <time>2018-08-12T11:30:58Z</time>
      </trkpt>
      <trkpt lat="42.63989" lon="1.71143">
        <ele>1897.300049</ele>
        <time>2018-08-12T11:31:05Z</time>
      </trkpt>
      <trkpt lat="42.63989" lon="1.7113">
        <ele>1896.300049</ele>
        <time>2018-08-12T11:31:37Z</time>
      </trkpt>
      <trkpt lat="42.63991" lon="1.71117">
        <ele>1896.099976</ele>
        <time>2018-08-12T11:40:24Z</time>
      </trkpt>
      <trkpt lat="42.6399" lon="1.71103">
        <ele>1895.199951</ele>
        <time>2018-08-12T11:40:32Z</time>
      </trkpt>
      <trkpt lat="42.63986" lon="1.71091">
        <ele>1894.199951</ele>
        <time>2018-08-12T11:40:40Z</time>
      </trkpt>
      <trkpt lat="42.63987" lon="1.71076">
        <ele>1893.099976</ele>
        <time>2018-08-12T11:40:50Z</time>
      </trkpt>
      <trkpt lat="42.63991" lon="1.71063">
        <ele>1892.099976</ele>
        <time>2018-08-12T11:40:58Z</time>
      </trkpt>
      <trkpt lat="42.63992" lon="1.7105">
        <ele>1891</ele>
        <time>2018-08-12T11:41:06Z</time>
      </trkpt>
      <trkpt lat="42.63994" lon="1.71038">
        <ele>1889.800049</ele>
        <time>2018-08-12T11:41:15Z</time>
      </trkpt>
      <trkpt lat="42.63994" lon="1.71025">
        <ele>1888.400024</ele>
        <time>2018-08-12T11:41:24Z</time>
      </trkpt>
      <trkpt lat="42.63996" lon="1.71013">
        <ele>1887.300049</ele>
        <time>2018-08-12T11:41:33Z</time>
      </trkpt>
      <trkpt lat="42.63997" lon="1.71">
        <ele>1886.199951</ele>
        <time>2018-08-12T11:41:41Z</time>
      </trkpt>
      <trkpt lat="42.63997" lon="1.70986">
        <ele>1884.300049</ele>
        <time>2018-08-12T11:41:49Z</time>
      </trkpt>
      <trkpt lat="42.63999" lon="1.70973">
        <ele>1882.300049</ele>
        <time>2018-08-12T11:41:58Z</time>
      </trkpt>
      <trkpt lat="42.63996" lon="1.7096">
        <ele>1880.199951</ele>
        <time>2018-08-12T11:42:06Z</time>
      </trkpt>
      <trkpt lat="42.63995" lon="1.70948">
        <ele>1878</ele>
        <time>2018-08-12T11:42:14Z</time>
      </trkpt>
      <trkpt lat="42.63993" lon="1.70935">
        <ele>1876</ele>
        <time>2018-08-12T11:42:22Z</time>
      </trkpt>
      <trkpt lat="42.63993" lon="1.70923">
        <ele>1874.099976</ele>
        <time>2018-08-12T11:42:29Z</time>
      </trkpt>
      <trkpt lat="42.63992" lon="1.7091">
        <ele>1871.900024</ele>
        <time>2018-08-12T11:42:38Z</time>
      </trkpt>
      <trkpt lat="42.63994" lon="1.70897">
        <ele>1870.199951</ele>
        <time>2018-08-12T11:42:47Z</time>
      </trkpt>
      <trkpt lat="42.63995" lon="1.70885">
        <ele>1868.599976</ele>
        <time>2018-08-12T11:42:55Z</time>
      </trkpt>
      <trkpt lat="42.64" lon="1.70874">
        <ele>1867</ele>
        <time>2018-08-12T11:43:04Z</time>
      </trkpt>
      <trkpt lat="42.64002" lon="1.70862">
        <ele>1865.800049</ele>
        <time>2018-08-12T11:43:14Z</time>
      </trkpt>
      <trkpt lat="42.64003" lon="1.7085">
        <ele>1864.300049</ele>
        <time>2018-08-12T11:43:23Z</time>
      </trkpt>
      <trkpt lat="42.64007" lon="1.70838">
        <ele>1863</ele>
        <time>2018-08-12T11:43:32Z</time>
      </trkpt>
      <trkpt lat="42.6401" lon="1.70825">
        <ele>1861.400024</ele>
        <time>2018-08-12T11:43:42Z</time>
      </trkpt>
      <trkpt lat="42.64014" lon="1.70814">
        <ele>1859.900024</ele>
        <time>2018-08-12T11:43:53Z</time>
      </trkpt>
      <trkpt lat="42.64021" lon="1.70806">
        <ele>1859.800049</ele>
        <time>2018-08-12T11:44:00Z</time>
      </trkpt>
      <trkpt lat="42.64029" lon="1.70798">
        <ele>1859.800049</ele>
        <time>2018-08-12T11:44:09Z</time>
      </trkpt>
      <trkpt lat="42.64034" lon="1.70786">
        <ele>1859.099976</ele>
        <time>2018-08-12T11:44:19Z</time>
      </trkpt>
      <trkpt lat="42.64041" lon="1.70777">
        <ele>1858.699951</ele>
        <time>2018-08-12T11:44:27Z</time>
      </trkpt>
      <trkpt lat="42.6405" lon="1.70771">
        <ele>1859.300049</ele>
        <time>2018-08-12T11:44:35Z</time>
      </trkpt>
      <trkpt lat="42.64056" lon="1.70762">
        <ele>1859.5</ele>
        <time>2018-08-12T11:44:42Z</time>
      </trkpt>
      <trkpt lat="42.64061" lon="1.7075">
        <ele>1859</ele>
        <time>2018-08-12T11:44:50Z</time>
      </trkpt>
      <trkpt lat="42.64068" lon="1.70741">
        <ele>1858.699951</ele>
        <time>2018-08-12T11:44:59Z</time>
      </trkpt>
      <trkpt lat="42.64075" lon="1.70732">
        <ele>1858</ele>
        <time>2018-08-12T11:45:07Z</time>
      </trkpt>
      <trkpt lat="42.6408" lon="1.7072">
        <ele>1856.5</ele>
        <time>2018-08-12T11:45:22Z</time>
      </trkpt>
      <trkpt lat="42.64082" lon="1.70708">
        <ele>1854.900024</ele>
        <time>2018-08-12T11:45:30Z</time>
      </trkpt>
      <trkpt lat="42.64087" lon="1.70697">
        <ele>1853</ele>
        <time>2018-08-12T11:45:39Z</time>
      </trkpt>
      <trkpt lat="42.6409" lon="1.70685">
        <ele>1851.599976</ele>
        <time>2018-08-12T11:45:47Z</time>
      </trkpt>
      <trkpt lat="42.64088" lon="1.70672">
        <ele>1849.400024</ele>
        <time>2018-08-12T11:45:53Z</time>
      </trkpt>
      <trkpt lat="42.64092" lon="1.7066">
        <ele>1846.599976</ele>
        <time>2018-08-12T11:46:02Z</time>
      </trkpt>
      <trkpt lat="42.64094" lon="1.70648">
        <ele>1844.5</ele>
        <time>2018-08-12T11:46:12Z</time>
      </trkpt>
      <trkpt lat="42.64094" lon="1.70635">
        <ele>1841.800049</ele>
        <time>2018-08-12T11:46:20Z</time>
      </trkpt>
      <trkpt lat="42.64099" lon="1.70623">
        <ele>1839.300049</ele>
        <time>2018-08-12T11:46:30Z</time>
      </trkpt>
      <trkpt lat="42.64103" lon="1.70612">
        <ele>1837.199951</ele>
        <time>2018-08-12T11:46:41Z</time>
      </trkpt>
      <trkpt lat="42.64111" lon="1.70604">
        <ele>1836.5</ele>
        <time>2018-08-12T11:46:57Z</time>
      </trkpt>
      <trkpt lat="42.64112" lon="1.70591">
        <ele>1833.800049</ele>
        <time>2018-08-12T11:47:04Z</time>
      </trkpt>
      <trkpt lat="42.64111" lon="1.70577">
        <ele>1830.099976</ele>
        <time>2018-08-12T11:47:11Z</time>
      </trkpt>
      <trkpt lat="42.64111" lon="1.70564">
        <ele>1824.800049</ele>
        <time>2018-08-12T11:47:20Z</time>
      </trkpt>
      <trkpt lat="42.64111" lon="1.70551">
        <ele>1820.300049</ele>
        <time>2018-08-12T11:47:27Z</time>
      </trkpt>
      <trkpt lat="42.64113" lon="1.70539">
        <ele>1815.599976</ele>
        <time>2018-08-12T11:47:37Z</time>
      </trkpt>
      <trkpt lat="42.64115" lon="1.70527">
        <ele>1812</ele>
        <time>2018-08-12T11:47:44Z</time>
      </trkpt>
      <trkpt lat="42.64117" lon="1.70515">
        <ele>1807.5</ele>
        <time>2018-08-12T11:47:52Z</time>
      </trkpt>
      <trkpt lat="42.64119" lon="1.70501">
        <ele>1803.800049</ele>
        <time>2018-08-12T11:48:01Z</time>
      </trkpt>
      <trkpt lat="42.64125" lon="1.70491">
        <ele>1800.5</ele>
        <time>2018-08-12T11:48:11Z</time>
      </trkpt>
      <trkpt lat="42.64134" lon="1.70497">
        <ele>1802.599976</ele>
        <time>2018-08-12T11:48:18Z</time>
      </trkpt>
      <trkpt lat="42.64142" lon="1.70489">
        <ele>1805.5</ele>
        <time>2018-08-12T11:48:27Z</time>
      </trkpt>
      <trkpt lat="42.64147" lon="1.70479">
        <ele>1803.5</ele>
        <time>2018-08-12T11:48:32Z</time>
      </trkpt>
      <trkpt lat="42.64152" lon="1.70467">
        <ele>1800.300049</ele>
        <time>2018-08-12T11:48:38Z</time>
      </trkpt>
      <trkpt lat="42.64155" lon="1.70455">
        <ele>1796.599976</ele>
        <time>2018-08-12T11:48:44Z</time>
      </trkpt>
      <trkpt lat="42.64161" lon="1.70445">
        <ele>1793.599976</ele>
        <time>2018-08-12T11:48:56Z</time>
      </trkpt>
      <trkpt lat="42.64159" lon="1.70433">
        <ele>1787.400024</ele>
        <time>2018-08-12T11:49:18Z</time>
      </trkpt>
      <trkpt lat="42.64158" lon="1.7042">
        <ele>1782.900024</ele>
        <time>2018-08-12T11:49:26Z</time>
      </trkpt>
      <trkpt lat="42.6416" lon="1.70407">
        <ele>1776.900024</ele>
        <time>2018-08-12T11:49:35Z</time>
      </trkpt>
      <trkpt lat="42.64162" lon="1.70395">
        <ele>1772</ele>
        <time>2018-08-12T11:49:42Z</time>
      </trkpt>
      <trkpt lat="42.64162" lon="1.70382">
        <ele>1767</ele>
        <time>2018-08-12T11:49:52Z</time>
      </trkpt>
      <trkpt lat="42.6417" lon="1.70391">
        <ele>1767.599976</ele>
        <time>2018-08-12T11:49:57Z</time>
      </trkpt>
      <trkpt lat="42.64179" lon="1.70385">
        <ele>1768.300049</ele>
        <time>2018-08-12T11:50:08Z</time>
      </trkpt>
      <trkpt lat="42.64181" lon="1.70371">
        <ele>1763.599976</ele>
        <time>2018-08-12T11:50:16Z</time>
      </trkpt>
      <trkpt lat="42.64186" lon="1.70361">
        <ele>1758.400024</ele>
        <time>2018-08-12T11:50:25Z</time>
      </trkpt>
      <trkpt lat="42.64189" lon="1.70349">
        <ele>1753.599976</ele>
        <time>2018-08-12T11:50:31Z</time>
      </trkpt>
      <trkpt lat="42.64198" lon="1.70341">
        <ele>1749.5</ele>
        <time>2018-08-12T11:50:38Z</time>
      </trkpt>
      <trkpt lat="42.64204" lon="1.70332">
        <ele>1746.199951</ele>
        <time>2018-08-12T11:50:45Z</time>
      </trkpt>
      <trkpt lat="42.64214" lon="1.70329">
        <ele>1744.099976</ele>
        <time>2018-08-12T11:50:53Z</time>
      </trkpt>
      <trkpt lat="42.64223" lon="1.70326">
        <ele>1743.900024</ele>
        <time>2018-08-12T11:51:01Z</time>
      </trkpt>
      <trkpt lat="42.64232" lon="1.70322">
        <ele>1743.5</ele>
        <time>2018-08-12T11:51:09Z</time>
      </trkpt>
      <trkpt lat="42.64241" lon="1.70318">
        <ele>1742.800049</ele>
        <time>2018-08-12T11:51:18Z</time>
      </trkpt>
      <trkpt lat="42.64251" lon="1.70317">
        <ele>1742.800049</ele>
        <time>2018-08-12T11:51:25Z</time>
      </trkpt>
      <trkpt lat="42.64261" lon="1.70317">
        <ele>1742.699951</ele>
        <time>2018-08-12T11:51:32Z</time>
      </trkpt>
      <trkpt lat="42.6427" lon="1.70319">
        <ele>1743.400024</ele>
        <time>2018-08-12T11:51:42Z</time>
      </trkpt>
      <trkpt lat="42.6428" lon="1.70318">
        <ele>1744.099976</ele>
        <time>2018-08-12T11:51:50Z</time>
      </trkpt>
      <trkpt lat="42.64289" lon="1.70319">
        <ele>1744.400024</ele>
        <time>2018-08-12T11:51:59Z</time>
      </trkpt>
      <trkpt lat="42.64298" lon="1.7032">
        <ele>1744.900024</ele>
        <time>2018-08-12T11:52:06Z</time>
      </trkpt>
      <trkpt lat="42.64308" lon="1.70321">
        <ele>1745.800049</ele>
        <time>2018-08-12T11:52:15Z</time>
      </trkpt>
      <trkpt lat="42.64315" lon="1.70311">
        <ele>1744.099976</ele>
        <time>2018-08-12T11:52:22Z</time>
      </trkpt>
      <trkpt lat="42.64323" lon="1.70305">
        <ele>1741.900024</ele>
        <time>2018-08-12T11:52:30Z</time>
      </trkpt>
      <trkpt lat="42.64332" lon="1.703">
        <ele>1740.400024</ele>
        <time>2018-08-12T11:52:38Z</time>
      </trkpt>
      <trkpt lat="42.64341" lon="1.70294">
        <ele>1738.300049</ele>
        <time>2018-08-12T11:52:46Z</time>
      </trkpt>
      <trkpt lat="42.64349" lon="1.7029">
        <ele>1737</ele>
        <time>2018-08-12T11:52:55Z</time>
      </trkpt>
      <trkpt lat="42.64358" lon="1.70285">
        <ele>1734.800049</ele>
        <time>2018-08-12T11:53:03Z</time>
      </trkpt>
      <trkpt lat="42.64367" lon="1.70283">
        <ele>1733.300049</ele>
        <time>2018-08-12T11:53:12Z</time>
      </trkpt>
      <trkpt lat="42.64376" lon="1.70279">
        <ele>1731.599976</ele>
        <time>2018-08-12T11:53:19Z</time>
      </trkpt>
      <trkpt lat="42.64386" lon="1.70278">
        <ele>1730.300049</ele>
        <time>2018-08-12T11:53:27Z</time>
      </trkpt>
      <trkpt lat="42.64396" lon="1.70277">
        <ele>1729.5</ele>
        <time>2018-08-12T11:53:35Z</time>
      </trkpt>
      <trkpt lat="42.64405" lon="1.70282">
        <ele>1730.5</ele>
        <time>2018-08-12T11:53:44Z</time>
      </trkpt>
      <trkpt lat="42.64415" lon="1.70284">
        <ele>1731.400024</ele>
        <time>2018-08-12T11:53:55Z</time>
      </trkpt>
      <trkpt lat="42.64424" lon="1.7028">
        <ele>1730.099976</ele>
        <time>2018-08-12T11:54:01Z</time>
      </trkpt>
      <trkpt lat="42.64433" lon="1.70276">
        <ele>1727.900024</ele>
        <time>2018-08-12T11:54:10Z</time>
      </trkpt>
      <trkpt lat="42.64442" lon="1.70272">
        <ele>1726.599976</ele>
        <time>2018-08-12T11:54:18Z</time>
      </trkpt>
      <trkpt lat="42.64451" lon="1.70268">
        <ele>1724.699951</ele>
        <time>2018-08-12T11:54:26Z</time>
      </trkpt>
      <trkpt lat="42.64462" lon="1.70269">
        <ele>1724.599976</ele>
        <time>2018-08-12T11:54:34Z</time>
      </trkpt>
      <trkpt lat="42.64471" lon="1.70269">
        <ele>1724.400024</ele>
        <time>2018-08-12T11:54:41Z</time>
      </trkpt>
      <trkpt lat="42.64481" lon="1.70271">
        <ele>1724.800049</ele>
        <time>2018-08-12T11:54:50Z</time>
      </trkpt>
      <trkpt lat="42.6449" lon="1.70272">
        <ele>1724.900024</ele>
        <time>2018-08-12T11:54:57Z</time>
      </trkpt>
      <trkpt lat="42.645" lon="1.70272">
        <ele>1725</ele>
        <time>2018-08-12T11:55:08Z</time>
      </trkpt>
      <trkpt lat="42.64509" lon="1.70265">
        <ele>1722.900024</ele>
        <time>2018-08-12T11:55:17Z</time>
      </trkpt>
      <trkpt lat="42.64518" lon="1.70267">
        <ele>1721.900024</ele>
        <time>2018-08-12T11:55:24Z</time>
      </trkpt>
      <trkpt lat="42.64527" lon="1.70269">
        <ele>1721.300049</ele>
        <time>2018-08-12T11:55:33Z</time>
      </trkpt>
      <trkpt lat="42.64536" lon="1.70268">
        <ele>1720.099976</ele>
        <time>2018-08-12T11:55:42Z</time>
      </trkpt>
      <trkpt lat="42.64546" lon="1.7027">
        <ele>1719.300049</ele>
        <time>2018-08-12T11:55:54Z</time>
      </trkpt>
      <trkpt lat="42.64555" lon="1.70274">
        <ele>1718.800049</ele>
        <time>2018-08-12T11:56:04Z</time>
      </trkpt>
      <trkpt lat="42.64565" lon="1.70271">
        <ele>1717.5</ele>
        <time>2018-08-12T11:56:13Z</time>
      </trkpt>
      <trkpt lat="42.64574" lon="1.70272">
        <ele>1716.400024</ele>
        <time>2018-08-12T11:56:21Z</time>
      </trkpt>
      <trkpt lat="42.64583" lon="1.70273">
        <ele>1715.5</ele>
        <time>2018-08-12T11:56:53Z</time>
      </trkpt>
      <trkpt lat="42.64592" lon="1.70277">
        <ele>1714.699951</ele>
        <time>2018-08-12T11:57:01Z</time>
      </trkpt>
      <trkpt lat="42.64601" lon="1.70277">
        <ele>1713.5</ele>
        <time>2018-08-12T11:57:08Z</time>
      </trkpt>
      <trkpt lat="42.64611" lon="1.70278">
        <ele>1712.099976</ele>
        <time>2018-08-12T11:57:16Z</time>
      </trkpt>
      <trkpt lat="42.64621" lon="1.7028">
        <ele>1710.900024</ele>
        <time>2018-08-12T11:57:24Z</time>
      </trkpt>
      <trkpt lat="42.6463" lon="1.70279">
        <ele>1709.599976</ele>
        <time>2018-08-12T11:57:30Z</time>
      </trkpt>
      <trkpt lat="42.6464" lon="1.70284">
        <ele>1708.400024</ele>
        <time>2018-08-12T11:57:38Z</time>
      </trkpt>
      <trkpt lat="42.64648" lon="1.7029">
        <ele>1707.300049</ele>
        <time>2018-08-12T11:57:46Z</time>
      </trkpt>
      <trkpt lat="42.64656" lon="1.70296">
        <ele>1706.199951</ele>
        <time>2018-08-12T11:57:54Z</time>
      </trkpt>
      <trkpt lat="42.64666" lon="1.70298">
        <ele>1704.599976</ele>
        <time>2018-08-12T11:58:04Z</time>
      </trkpt>
      <trkpt lat="42.64675" lon="1.703">
        <ele>1703.900024</ele>
        <time>2018-08-12T11:58:13Z</time>
      </trkpt>
      <trkpt lat="42.64684" lon="1.70303">
        <ele>1703.5</ele>
        <time>2018-08-12T11:58:26Z</time>
      </trkpt>
      <trkpt lat="42.64693" lon="1.7031">
        <ele>1703.300049</ele>
        <time>2018-08-12T11:58:35Z</time>
      </trkpt>
      <trkpt lat="42.64701" lon="1.70316">
        <ele>1703</ele>
        <time>2018-08-12T11:58:42Z</time>
      </trkpt>
      <trkpt lat="42.64707" lon="1.70325">
        <ele>1702.800049</ele>
        <time>2018-08-12T11:58:54Z</time>
      </trkpt>
      <trkpt lat="42.64714" lon="1.70336">
        <ele>1703</ele>
        <time>2018-08-12T11:59:02Z</time>
      </trkpt>
      <trkpt lat="42.64722" lon="1.70341">
        <ele>1704</ele>
        <time>2018-08-12T11:59:09Z</time>
      </trkpt>
      <trkpt lat="42.64731" lon="1.70344">
        <ele>1704.699951</ele>
        <time>2018-08-12T11:59:17Z</time>
      </trkpt>
      <trkpt lat="42.64741" lon="1.70345">
        <ele>1704.599976</ele>
        <time>2018-08-12T11:59:26Z</time>
      </trkpt>
      <trkpt lat="42.64751" lon="1.70344">
        <ele>1703.800049</ele>
        <time>2018-08-12T11:59:36Z</time>
      </trkpt>
      <trkpt lat="42.6476" lon="1.70347">
        <ele>1703.800049</ele>
        <time>2018-08-12T11:59:46Z</time>
      </trkpt>
      <trkpt lat="42.64769" lon="1.70347">
        <ele>1703.699951</ele>
        <time>2018-08-12T12:00:01Z</time>
      </trkpt>
      <trkpt lat="42.64778" lon="1.70351">
        <ele>1704.5</ele>
        <time>2018-08-12T12:00:09Z</time>
      </trkpt>
      <trkpt lat="42.64787" lon="1.70353">
        <ele>1705</ele>
        <time>2018-08-12T12:00:18Z</time>
      </trkpt>
      <trkpt lat="42.64795" lon="1.7036">
        <ele>1706.099976</ele>
        <time>2018-08-12T12:00:26Z</time>
      </trkpt>
      <trkpt lat="42.64803" lon="1.70368">
        <ele>1708.199951</ele>
        <time>2018-08-12T12:00:38Z</time>
      </trkpt>
      <trkpt lat="42.64812" lon="1.70368">
        <ele>1708.800049</ele>
        <time>2018-08-12T12:00:49Z</time>
      </trkpt>
      <trkpt lat="42.64821" lon="1.70371">
        <ele>1709.099976</ele>
        <time>2018-08-12T12:00:57Z</time>
      </trkpt>
      <trkpt lat="42.64831" lon="1.70372">
        <ele>1709.199951</ele>
        <time>2018-08-12T12:01:05Z</time>
      </trkpt>
      <trkpt lat="42.64841" lon="1.70369">
        <ele>1709</ele>
        <time>2018-08-12T12:01:15Z</time>
      </trkpt>
      <trkpt lat="42.6485" lon="1.70368">
        <ele>1707.900024</ele>
        <time>2018-08-12T12:01:29Z</time>
      </trkpt>
      <trkpt lat="42.6486" lon="1.70366">
        <ele>1707.900024</ele>
        <time>2018-08-12T12:01:37Z</time>
      </trkpt>
      <trkpt lat="42.6487" lon="1.70362">
        <ele>1706.900024</ele>
        <time>2018-08-12T12:01:44Z</time>
      </trkpt>
      <trkpt lat="42.64879" lon="1.70362">
        <ele>1706.300049</ele>
        <time>2018-08-12T12:01:55Z</time>
      </trkpt>
      <trkpt lat="42.64889" lon="1.70366">
        <ele>1707.599976</ele>
        <time>2018-08-12T12:02:05Z</time>
      </trkpt>
      <trkpt lat="42.64898" lon="1.70368">
        <ele>1708.5</ele>
        <time>2018-08-12T12:02:17Z</time>
      </trkpt>
      <trkpt lat="42.64907" lon="1.70374">
        <ele>1709.900024</ele>
        <time>2018-08-12T12:02:27Z</time>
      </trkpt>
      <trkpt lat="42.64915" lon="1.70378">
        <ele>1711.400024</ele>
        <time>2018-08-12T12:02:38Z</time>
      </trkpt>
      <trkpt lat="42.64918" lon="1.7037">
        <ele>1709.400024</ele>
        <time>2018-08-12T12:04:57Z</time>
      </trkpt>
    </trkseg>
  </trk>
</gpx>